Provisional Data: Kishacoquillas Creek near Belleville, PA


Please select a monitoring station.
Please select start date.
Please select start date.

Toggle Unit: C/F Toggle Unit: C/F
Sample Time Temperature (C) Temperature (F) Specific Conductivity (mS/cm) pH   Turbidity (NTU+) DO (mg/L)
12/23/2021 12:00:00 AM 3.3 37.94 0.5 7.76 104.1 11.99
12/23/2021 12:15:00 AM 3.26 37.868 0.5 7.76 104.1 12.01
12/23/2021 12:30:00 AM 3.22 37.796 0.5 7.75 103.6 12
12/23/2021 12:45:00 AM 3.2 37.76 0.499 7.75 110.4 12
12/23/2021 1:00:00 AM 3.19 37.742 0.499 7.75 113.1 12.01
12/23/2021 1:15:00 AM 3.16 37.688 0.499 7.74 113.9 12.02
12/23/2021 1:30:00 AM 3.14 37.652 0.499 7.74 112.8 12
12/23/2021 1:45:00 AM 3.13 37.634 0.499 7.75 113.7 12
12/23/2021 2:00:00 AM 3.13 37.634 0.499 7.74 98.31 12
12/23/2021 2:15:00 AM 3.12 37.616 0.499 7.74 115.6 12.01
12/23/2021 2:30:00 AM 3.1 37.58 0.499 7.74 109.5 12.02
12/23/2021 2:45:00 AM 3.09 37.562 0.498 7.73 98.35 12.01
12/23/2021 3:00:00 AM 3.08 37.544 0.498 7.74 99.78 12.02
12/23/2021 3:15:00 AM 3.07 37.526 0.498 7.73 103.6 12.02
12/23/2021 3:30:00 AM 3.05 37.49 0.498 7.74 92.49 12.02
12/23/2021 3:45:00 AM 3.04 37.472 0.498 7.73 85.41 12.04
12/23/2021 4:00:00 AM 3.02 37.436 0.496 7.74 99.17 12.04
12/23/2021 4:15:00 AM 3.02 37.436 0.446 7.73 101.1 12.04
12/23/2021 4:30:00 AM 3.01 37.418 0.479 7.73 101.5 12.04
12/23/2021 4:45:00 AM 3 37.4 0.484 7.73 102.9 12.05
12/23/2021 5:00:00 AM 2.99 37.382 0.499 7.73 101.6 12.04
12/23/2021 5:15:00 AM 2.98 37.364 0.45 7.72 98.1 12.05
12/23/2021 5:30:00 AM 2.98 37.364 0.499 7.72 99.67 12.05
12/23/2021 5:45:00 AM 2.96 37.328 0.5 7.72 102.6 12.06
12/23/2021 6:00:00 AM 2.96 37.328 0.496 7.72 102.5 12.05
12/23/2021 6:15:00 AM 2.94 37.292 0.5 7.72 99.93 12.05
12/23/2021 6:30:00 AM 2.93 37.274 0.46 7.72 105.7 12.08
12/23/2021 6:45:00 AM 2.92 37.256 0.47 7.72 96.37 12.08
12/23/2021 7:00:00 AM 2.9 37.22 0.477 7.71 110 12.08
12/23/2021 7:15:00 AM 2.89 37.202 0.473 7.73 97.1 12.09
12/23/2021 7:30:00 AM 2.88 37.184 0.501 7.72 105.6 12.11
12/23/2021 7:45:00 AM 2.88 37.184 0.485 7.72 109.5 12.13
12/23/2021 8:00:00 AM 2.87 37.166 0.48 7.72 90.65 12.15
12/23/2021 8:15:00 AM 2.87 37.166 0.5 7.71 99.7 12.2
12/23/2021 8:30:00 AM 2.88 37.184 0.504 7.72 83.03 12.27
12/23/2021 8:45:00 AM 2.89 37.202 0.505 7.73 95.59 12.39
12/23/2021 9:00:00 AM 2.92 37.256 0.505 7.73 95.35 12.56
12/23/2021 9:15:00 AM 2.95 37.31 0.506 7.74 100.3 12.7
12/23/2021 9:30:00 AM 2.98 37.364 0.507 7.75 103.1 12.86
12/23/2021 9:45:00 AM 3.02 37.436 0.508 7.76 104.5 12.99
12/23/2021 10:00:00 AM 3.06 37.508 0.509 7.77 103.2 13.15
12/23/2021 10:15:00 AM 3.11 37.598 0.51 7.78 96.7 13.31
12/23/2021 10:30:00 AM 3.17 37.706 0.51 7.79 100 13.45
12/23/2021 10:45:00 AM 3.23 37.814 0.511 7.8 93.75 13.57
12/23/2021 11:00:00 AM 3.3 37.94 0.511 7.82 97.44 13.72
12/23/2021 11:15:00 AM 3.49 38.282 0.511 7.82 106 13.93
12/23/2021 11:30:00 AM 3.55 38.39 0.511 7.83 104.4 14.01
12/23/2021 11:45:00 AM 3.64 38.552 0.511 7.84 102.5 14.12
12/23/2021 12:00:00 PM 3.74 38.732 0.511 7.85 99.57 14.19
12/23/2021 12:15:00 PM 3.85 38.93 0.51 7.87 106 14.27
12/23/2021 12:30:00 PM 3.91 39.038 0.509 7.87 98.83 14.3
12/23/2021 12:45:00 PM 3.96 39.128 0.509 7.88 108.1 14.3
12/23/2021 1:00:00 PM 4.02 39.236 0.508 7.89 110.5 14.32
12/23/2021 1:15:00 PM 4.08 39.344 0.507 7.9 98.4 14.35
12/23/2021 1:30:00 PM 4.14 39.452 0.503 7.9 111.9 14.36
12/23/2021 1:45:00 PM 4.2 39.56 0.499 7.9 114.9 14.42
12/23/2021 2:00:00 PM 4.25 39.65 0.498 7.9 112.6 14.44
12/23/2021 2:15:00 PM 4.28 39.704 0.502 7.91 114.7 14.44
12/23/2021 2:30:00 PM 4.33 39.794 0.502 7.91 108.7 14.47
12/23/2021 2:45:00 PM 4.37 39.866 0.501 7.92 119.9 14.49
12/23/2021 3:00:00 PM 4.38 39.884 0.5 7.92 121.2 14.41
12/23/2021 3:15:00 PM 4.4 39.92 0.499 7.93 116.1 14.38
12/23/2021 3:30:00 PM 4.4 39.92 0.499 7.92 115.6 14.31
12/23/2021 3:45:00 PM 4.39 39.902 0.498 7.92 116.6 14.18
12/23/2021 4:00:00 PM 4.37 39.866 0.498 7.94 125 14.06
12/23/2021 4:15:00 PM 4.35 39.83 0.498 7.92 119.9 13.93
12/23/2021 4:30:00 PM 4.33 39.794 0.498 7.91 125.6 13.77
12/23/2021 4:45:00 PM 4.29 39.722 0.498 7.9 117 13.58
12/23/2021 5:00:00 PM 4.26 39.668 0.498 7.89 118.8 13.42
12/23/2021 5:15:00 PM 4.24 39.632 0.498 7.88 124.4 13.24
12/23/2021 5:30:00 PM 4.23 39.614 0.492 7.88 122.1 13.12
12/23/2021 5:45:00 PM 4.21 39.578 0.497 7.86 131.9 12.99
12/23/2021 6:00:00 PM 4.2 39.56 0.497 7.85 119.8 12.89
12/23/2021 6:15:00 PM 4.19 39.542 0.497 7.84 109.8 12.8
12/23/2021 6:30:00 PM 4.19 39.542 0.497 7.83 121 12.72
12/23/2021 6:45:00 PM 4.2 39.56 0.497 7.83 123.7 12.67
12/23/2021 7:00:00 PM 4.2 39.56 0.496 7.82 135 12.62
12/23/2021 7:15:00 PM 4.2 39.56 0.496 7.82 126.1 12.55
12/23/2021 7:30:00 PM 4.21 39.578 0.496 7.81 118 12.49
12/23/2021 7:45:00 PM 4.21 39.578 0.496 7.81 117.4 12.41
12/23/2021 8:00:00 PM 4.22 39.596 0.495 7.81 114.3 12.38
12/23/2021 8:15:00 PM 4.22 39.596 0.495 7.8 117.3 12.3
12/23/2021 8:30:00 PM 4.22 39.596 0.495 7.8 114.4 12.26
12/23/2021 8:45:00 PM 4.23 39.614 0.495 7.8 113 12.2
12/23/2021 9:00:00 PM 4.24 39.632 0.495 7.79 116.6 12.16
12/23/2021 9:15:00 PM 4.26 39.668 0.495 7.77 125.1 12.12
12/23/2021 9:30:00 PM 4.27 39.686 0.496 7.77 110 12.07
12/23/2021 9:45:00 PM 4.29 39.722 0.496 7.78 114.6 12.03
12/23/2021 10:00:00 PM 4.31 39.758 0.496 7.78 115.3 11.99
12/23/2021 10:15:00 PM 4.33 39.794 0.496 7.78 123.1 11.96
12/23/2021 10:30:00 PM 4.34 39.812 0.46 7.78 117.9 11.93
12/23/2021 10:45:00 PM 4.37 39.866 0.497 7.78 131.4 11.89
12/23/2021 11:00:00 PM 4.38 39.884 0.497 7.77 120.2 11.85
12/23/2021 11:15:00 PM 4.39 39.902 0.497 7.76 119 11.82
12/23/2021 11:30:00 PM 4.38 39.884 0.456 7.77 118.9 11.77
12/23/2021 11:45:00 PM 4.38 39.884 0.499 7.76 111.2 11.76
12/24/2021 12:00:00 AM 4.39 39.902 0.501 7.75 119.2 11.72
12/24/2021 12:15:00 AM 4.39 39.902 0.504 7.76 132.2 11.68
12/24/2021 12:30:00 AM 4.39 39.902 0.505 7.75 117.6 11.65
12/24/2021 12:45:00 AM 4.39 39.902 0.477 7.74 122.3 11.63
12/24/2021 1:00:00 AM 4.39 39.902 0.472 7.75 132.3 11.61
12/24/2021 1:15:00 AM 4.39 39.902 0.475 7.74 122.8 11.6
12/24/2021 1:30:00 AM 4.39 39.902 0.457 7.74 119 11.59
12/24/2021 1:45:00 AM 4.39 39.902 0.489 7.74 123.8 11.54
12/24/2021 2:00:00 AM 4.39 39.902 0.485 7.74 124.6 11.54
12/24/2021 2:15:00 AM 4.39 39.902 0.479 7.74 119.8 11.52
12/24/2021 2:30:00 AM 4.39 39.902 0.496 7.74 123.7 11.52
12/24/2021 2:45:00 AM 4.38 39.884 0.497 7.74 121.8 11.51
12/24/2021 3:00:00 AM 4.38 39.884 0.47 7.73 124.6 11.5
12/24/2021 3:15:00 AM 4.39 39.902 0.497 7.73 115.6 11.48
12/24/2021 3:30:00 AM 4.39 39.902 0.496 7.73 120.8 11.49
12/24/2021 3:45:00 AM 4.39 39.902 0.496 7.73 118.6 11.48
12/24/2021 4:00:00 AM 4.4 39.92 0.496 7.73 125.9 11.45
12/24/2021 4:15:00 AM 4.41 39.938 0.495 7.72 129.2 11.46
12/24/2021 4:30:00 AM 4.42 39.956 0.495 7.72 124 11.45
12/24/2021 4:45:00 AM 4.42 39.956 0.495 7.72 121.8 11.43
12/24/2021 5:00:00 AM 4.43 39.974 0.495 7.73 122.9 11.42
12/24/2021 5:15:00 AM 4.44 39.992 0.495 7.73 125.2 11.4
12/24/2021 5:30:00 AM 4.44 39.992 0.495 7.72 115.7 11.41
12/24/2021 5:45:00 AM 4.43 39.974 0.496 7.72 125.1 11.41
12/24/2021 6:00:00 AM 4.42 39.956 0.496 7.71 126.5 11.4
12/24/2021 6:15:00 AM 4.39 39.902 0.496 7.71 126.8 11.4
12/24/2021 6:30:00 AM 4.37 39.866 0.496 7.71 124.7 11.39
12/24/2021 6:45:00 AM 4.33 39.794 0.445 7.72 127.6 11.4
12/24/2021 7:00:00 AM 4.32 39.776 0.497 7.71 128.7 11.39
12/24/2021 7:15:00 AM 4.3 39.74 0.497 7.72 127 11.41
12/24/2021 7:30:00 AM 4.27 39.686 0.484 7.71 112.5 11.42
12/24/2021 7:45:00 AM 4.26 39.668 0.497 7.71 124.9 11.44
12/24/2021 8:00:00 AM 4.25 39.65 0.497 7.71 126.6 11.5
12/24/2021 8:15:00 AM 4.24 39.632 0.497 7.72 121.7 11.57
12/24/2021 8:30:00 AM 4.24 39.632 0.497 7.73 123.8 11.67
12/24/2021 8:45:00 AM 4.23 39.614 0.497 7.72 127.6 11.79
12/24/2021 9:00:00 AM 4.23 39.614 0.497 7.73 122 11.92
12/24/2021 9:15:00 AM 4.26 39.668 0.497 7.74 129 12.11
12/24/2021 9:30:00 AM 4.3 39.74 0.497 7.75 131.1 12.29
12/24/2021 9:45:00 AM 4.35 39.83 0.496 7.76 124.6 12.46
12/24/2021 10:00:00 AM 4.41 39.938 0.496 7.77 128.5 12.64
12/24/2021 10:15:00 AM 4.49 40.082 0.496 7.78 131.1 12.8
12/24/2021 10:30:00 AM 4.58 40.244 0.496 7.8 129.5 12.94
12/24/2021 10:45:00 AM 4.68 40.424 0.496 7.81 116.3 13.09
12/24/2021 11:00:00 AM 4.79 40.622 0.495 7.83 126.9 13.2
12/24/2021 11:15:00 AM 4.91 40.838 0.495 7.84 134.8 13.32
12/24/2021 11:30:00 AM 5 41 0.495 7.84 136.9 13.4
12/24/2021 11:45:00 AM 5.13 41.234 0.495 7.85 141.4 13.52
12/24/2021 12:00:00 PM 5.28 41.504 0.494 7.88 130.2 13.64
12/24/2021 12:15:00 PM 5.4 41.72 0.494 7.88 136.4 13.72
12/24/2021 12:30:00 PM 5.51 41.918 0.494 7.89 139.5 13.78
12/24/2021 12:45:00 PM 5.63 42.134 0.494 7.9 135.6 13.81
12/24/2021 1:00:00 PM 5.72 42.296 0.494 7.91 138.2 13.89
12/24/2021 1:15:00 PM 5.83 42.494 0.494 7.91 135.6 13.93
12/24/2021 1:30:00 PM 5.93 42.674 0.494 7.92 132.9 13.95
12/24/2021 1:45:00 PM 5.98 42.764 0.494 7.92 137.9 13.95
12/24/2021 2:00:00 PM 6.06 42.908 0.494 7.92 127.5 13.96
12/24/2021 2:15:00 PM 6.14 43.052 0.494 7.92 128.9 13.98
12/24/2021 2:30:00 PM 6.18 43.124 0.494 7.93 138.4 13.93
12/24/2021 2:45:00 PM 6.2 43.16 0.494 7.92 129 13.81
12/24/2021 3:00:00 PM 6.24 43.232 0.493 7.92 138.9 13.8
12/24/2021 3:15:00 PM 6.24 43.232 0.493 7.92 141 13.63
12/24/2021 3:30:00 PM 6.25 43.25 0.473 7.91 128.5 13.52
12/24/2021 3:45:00 PM 6.25 43.25 0.458 7.91 126.5 13.41
12/24/2021 4:00:00 PM 6.24 43.232 0.462 7.9 141.2 13.19
12/24/2021 4:15:00 PM 6.22 43.196 0.459 7.9 131.6 13.03
12/24/2021 4:30:00 PM 6.21 43.178 0.485 7.88 133.8 12.83
12/24/2021 4:45:00 PM 6.18 43.124 0.495 7.87 140.8 12.69
12/24/2021 5:00:00 PM 6.16 43.088 0.473 7.85 145.2 12.54
12/24/2021 5:15:00 PM 6.15 43.07 0.435 7.84 135.5 12.37
12/24/2021 5:30:00 PM 6.13 43.034 0.495 7.83 142.9 12.25
12/24/2021 5:45:00 PM 6.11 42.998 0.495 7.83 135.8 12.14
12/24/2021 6:00:00 PM 6.11 42.998 0.495 7.81 137.6 12.03
12/24/2021 6:15:00 PM 6.09 42.962 0.495 7.82 131.9 11.94
12/24/2021 6:30:00 PM 6.08 42.944 0.495 7.81 137.4 11.88
12/24/2021 6:45:00 PM 6.08 42.944 0.495 7.81 141.1 11.78
12/24/2021 7:00:00 PM 6.07 42.926 0.495 7.82 133.5 11.73
12/24/2021 7:15:00 PM 6.05 42.89 0.495 7.8 126.2 11.65
12/24/2021 7:30:00 PM 6.05 42.89 0.495 7.8 127.1 11.59
12/24/2021 7:45:00 PM 6.04 42.872 0.495 7.79 136.7 11.52
12/24/2021 8:00:00 PM 6.05 42.89 0.495 7.78 132.7 11.46
12/24/2021 8:15:00 PM 6.06 42.908 0.495 7.78 123.8 11.41
12/24/2021 8:30:00 PM 6.08 42.944 0.496 7.78 124.9 11.35
12/24/2021 8:45:00 PM 6.09 42.962 0.496 7.77 140.6 11.29
12/24/2021 9:00:00 PM 6.11 42.998 0.496 7.76 140.5 11.24
12/24/2021 9:15:00 PM 6.14 43.052 0.496 7.76 133.5 11.18
12/24/2021 9:30:00 PM 6.16 43.088 0.495 7.76 135.3 11.15
12/24/2021 9:45:00 PM 6.19 43.142 0.495 7.76 132.8 11.11
12/24/2021 10:00:00 PM 6.21 43.178 0.495 7.75 139.8 11.05
12/24/2021 10:15:00 PM 6.23 43.214 0.495 7.75 135.8 11.02
12/24/2021 10:30:00 PM 6.26 43.268 0.495 7.74 130 10.98
12/24/2021 10:45:00 PM 6.28 43.304 0.495 7.74 133.9 10.94
12/24/2021 11:00:00 PM 6.29 43.322 0.495 7.74 128.9 10.89
12/24/2021 11:15:00 PM 6.31 43.358 0.495 7.74 140.5 10.87
12/24/2021 11:30:00 PM 6.33 43.394 0.495 7.74 129.1 10.84
12/24/2021 11:45:00 PM 6.35 43.43 0.494 7.74 132.6 10.8
12/25/2021 12:00:00 AM 6.37 43.466 0.494 7.73 130.4 10.76
12/25/2021 12:15:00 AM 6.38 43.484 0.494 7.73 125.6 10.73
12/25/2021 12:30:00 AM 6.39 43.502 0.494 7.73 125.7 10.7
12/25/2021 12:45:00 AM 6.41 43.538 0.494 7.73 134.5 10.67
12/25/2021 1:00:00 AM 6.42 43.556 0.493 7.72 126.1 10.65
12/25/2021 1:15:00 AM 6.43 43.574 0.493 7.72 127.4 10.62
12/25/2021 1:30:00 AM 6.43 43.574 0.493 7.71 130.7 10.59
12/25/2021 1:45:00 AM 6.43 43.574 0.493 7.71 131.8 10.58
12/25/2021 2:00:00 AM 6.43 43.574 0.492 7.71 133.4 10.56
12/25/2021 2:15:00 AM 6.43 43.574 0.492 7.7 131.1 10.53
12/25/2021 2:30:00 AM 6.43 43.574 0.492 7.7 127.8 10.52
12/25/2021 2:45:00 AM 6.43 43.574 0.492 7.7 132.8 10.51
12/25/2021 3:00:00 AM 6.43 43.574 0.491 7.7 133 10.49
12/25/2021 3:15:00 AM 6.43 43.574 0.491 7.7 128 10.49
12/25/2021 3:30:00 AM 6.44 43.592 0.491 7.71 137.1 10.47
12/25/2021 3:45:00 AM 6.45 43.61 0.491 7.7 140.8 10.46
12/25/2021 4:00:00 AM 6.45 43.61 0.491 7.71 137.6 10.42
12/25/2021 4:15:00 AM 6.46 43.628 0.491 7.7 134.8 10.43
12/25/2021 4:30:00 AM 6.47 43.646 0.491 7.71 126.2 10.42
12/25/2021 4:45:00 AM 6.47 43.646 0.491 7.7 134.7 10.41
12/25/2021 5:00:00 AM 6.48 43.664 0.491 7.7 130.4 10.41
12/25/2021 5:15:00 AM 6.49 43.682 0.491 7.69 137.8 10.39
12/25/2021 5:30:00 AM 6.49 43.682 0.491 7.69 141.3 10.37
12/25/2021 5:45:00 AM 6.5 43.7 0.491 7.69 135.2 10.37
12/25/2021 6:00:00 AM 6.51 43.718 0.491 7.69 139.1 10.36
12/25/2021 6:15:00 AM 6.51 43.718 0.491 7.69 140.5 10.36
12/25/2021 6:30:00 AM 6.52 43.736 0.491 7.69 136.9 10.35
12/25/2021 6:45:00 AM 6.53 43.754 0.491 7.69 133 10.34
12/25/2021 7:00:00 AM 6.53 43.754 0.491 7.68 114.1 10.34
12/25/2021 7:15:00 AM 6.54 43.772 0.491 7.69 136.6 10.32
12/25/2021 7:30:00 AM 6.54 43.772 0.491 7.68 125.9 10.34
12/25/2021 7:45:00 AM 6.55 43.79 0.497 7.68 137.4 10.31
12/25/2021 8:00:00 AM 6.55 43.79 0.495 7.69 135.9 10.31
12/25/2021 8:15:00 AM 6.56 43.808 0.493 7.68 137 10.32
12/25/2021 8:30:00 AM 6.57 43.826 0.493 7.69 123 10.35
12/25/2021 8:45:00 AM 6.58 43.844 0.494 7.68 127.2 10.43
12/25/2021 9:00:00 AM 6.6 43.88 0.494 7.68 134.5 10.5
12/25/2021 9:15:00 AM 6.63 43.934 0.493 7.69 132.1 10.55
12/25/2021 9:30:00 AM 6.65 43.97 0.493 7.69 146.6 10.57
12/25/2021 9:45:00 AM 6.67 44.006 0.494 7.7 131.5 10.68
12/25/2021 10:00:00 AM 6.71 44.078 0.494 7.7 136.7 10.79
12/25/2021 10:15:00 AM 6.77 44.186 0.494 7.71 131.4 11
12/25/2021 10:30:00 AM 6.8 44.24 0.493 7.72 138.7 11.01
12/25/2021 10:45:00 AM 6.83 44.294 0.493 7.73 132.9 11.05
12/25/2021 11:00:00 AM 6.86 44.348 0.494 7.73 131.6 11.11
12/25/2021 11:15:00 AM 6.88 44.384 0.49 7.73 130.2 11.16
12/25/2021 11:30:00 AM 6.93 44.474 0.492 7.75 143.3 11.28
12/25/2021 11:45:00 AM 7 44.6 0.493 7.75 139.6 11.32
12/25/2021 12:00:00 PM 7.09 44.762 0.494 7.75 131.1 11.48
12/25/2021 12:15:00 PM 7.17 44.906 0.493 7.76 128.6 11.65
12/25/2021 12:30:00 PM 7.24 45.032 0.493 7.77 135.8 11.85
12/25/2021 12:45:00 PM 7.43 45.374 0.472 7.79 133.7 12.11
12/25/2021 1:00:00 PM 7.46 45.428 0.482 7.8 134.2 12.18
12/25/2021 1:15:00 PM 7.51 45.518 0.492 7.82 131.1 12.24
12/25/2021 1:30:00 PM 7.59 45.662 0.456 7.83 115 12.33
12/25/2021 1:45:00 PM 7.67 45.806 0.467 7.83 128.2 12.36
12/25/2021 2:00:00 PM 7.75 45.95 0.478 7.83 132.6 12.41
12/25/2021 2:15:00 PM 7.86 46.148 0.481 7.85 128.8 12.49
12/25/2021 2:30:00 PM 7.92 46.256 0.487 7.85 124.8 12.51
12/25/2021 2:45:00 PM 7.99 46.382 0.491 7.86 129.2 12.54
12/25/2021 3:00:00 PM 8.03 46.454 0.492 7.85 123.4 12.45
12/25/2021 3:15:00 PM 8.08 46.544 0.487 7.86 126.7 12.41
12/25/2021 3:30:00 PM 8.13 46.634 0.496 7.85 125.7 12.36
12/25/2021 3:45:00 PM 8.16 46.688 0.494 7.85 120 12.25
12/25/2021 4:00:00 PM 8.18 46.724 0.496 7.85 125.5 12.04
12/25/2021 4:15:00 PM 8.2 46.76 0.491 7.84 122.8 11.9
12/25/2021 4:30:00 PM 8.21 46.778 0.494 7.82 113.4 11.73
12/25/2021 4:45:00 PM 8.23 46.814 0.493 7.81 123.7 11.55
12/25/2021 5:00:00 PM 8.24 46.832 0.491 7.81 138.3 11.38
12/25/2021 5:15:00 PM 8.25 46.85 0.491 7.8 127.8 11.23
12/25/2021 5:30:00 PM 8.26 46.868 0.489 7.78 129.9 11.09
12/25/2021 5:45:00 PM 8.28 46.904 0.488 7.77 128.6 10.98
12/25/2021 6:00:00 PM 8.29 46.922 0.487 7.76 126.1 10.89
12/25/2021 6:15:00 PM 8.31 46.958 0.487 7.75 129 10.81
12/25/2021 6:30:00 PM 8.32 46.976 0.488 7.74 117.6 10.73
12/25/2021 6:45:00 PM 8.34 47.012 0.488 7.74 129.1 10.65
12/25/2021 7:00:00 PM 8.36 47.048 0.487 7.73 128.7 10.58
12/25/2021 7:15:00 PM 8.38 47.084 0.487 7.74 126.9 10.52
12/25/2021 7:30:00 PM 8.39 47.102 0.488 7.73 121.2 10.46
12/25/2021 7:45:00 PM 8.41 47.138 0.488 7.73 136.2 10.39
12/25/2021 8:00:00 PM 8.43 47.174 0.487 7.72 121.4 10.35
12/25/2021 8:15:00 PM 8.45 47.21 0.487 7.72 146.7 10.31
12/25/2021 8:30:00 PM 8.48 47.264 0.486 7.72 132.8 10.26
12/25/2021 8:45:00 PM 8.51 47.318 0.485 7.71 137.8 10.22
12/25/2021 9:00:00 PM 8.54 47.372 0.485 7.72 147.6 10.18
12/25/2021 9:15:00 PM 8.58 47.444 0.484 7.71 135.2 10.15
12/25/2021 9:30:00 PM 8.6 47.48 0.483 7.71 131.4 10.1
12/25/2021 9:45:00 PM 8.62 47.516 0.483 7.71 137.1 10.08
12/25/2021 10:00:00 PM 8.65 47.57 0.482 7.71 137.3 10.05
12/25/2021 10:15:00 PM 8.67 47.606 0.482 7.7 121.6 10.01
12/25/2021 10:30:00 PM 8.68 47.624 0.481 7.7 141.4 9.98
12/25/2021 10:45:00 PM 8.67 47.606 0.48 7.7 146 9.96
12/25/2021 11:00:00 PM 8.66 47.588 0.48 7.7 119.1 9.92
12/25/2021 11:15:00 PM 8.64 47.552 0.479 7.7 130.1 9.88
12/25/2021 11:30:00 PM 8.63 47.534 0.479 7.69 124.7 9.85
12/25/2021 11:45:00 PM 8.61 47.498 0.478 7.69 125.7 9.83
12/26/2021 12:00:00 AM 8.59 47.462 0.478 7.68 135.3 9.81
12/26/2021 12:15:00 AM 8.57 47.426 0.478 7.68 120.2 9.78
12/26/2021 12:30:00 AM 8.54 47.372 0.477 7.68 126.9 9.75
12/26/2021 12:45:00 AM 8.52 47.336 0.477 7.68 140.1 9.75
12/26/2021 1:00:00 AM 8.49 47.282 0.477 7.68 140 9.73
12/26/2021 1:15:00 AM 8.49 47.282 0.471 7.68 138.8 9.7
12/26/2021 1:30:00 AM 8.46 47.228 0.477 7.68 139.9 9.71
12/26/2021 1:45:00 AM 8.42 47.156 0.401 7.68 121.8 9.7
12/26/2021 2:00:00 AM 8.4 47.12 0.473 7.68 140.9 9.69
12/26/2021 2:15:00 AM 8.38 47.084 0.407 7.67 143.5 9.7
12/26/2021 2:30:00 AM 8.33 46.994 0.476 7.67 132.3 9.69
12/26/2021 2:45:00 AM 8.31 46.958 0.455 7.67 129.8 9.7
12/26/2021 3:00:00 AM 8.31 46.958 0.463 7.67 145.3 9.68
12/26/2021 3:15:00 AM 8.28 46.904 0.476 7.67 141.9 9.69
12/26/2021 3:30:00 AM 8.23 46.814 0.477 7.67 125.4 9.7
12/26/2021 3:45:00 AM 8.19 46.742 0.445 7.67 127.3 9.7
12/26/2021 4:00:00 AM 8.17 46.706 0.477 7.67 128.5 9.71
12/26/2021 4:15:00 AM 8.13 46.634 0.477 7.67 122.2 9.71
12/26/2021 4:30:00 AM 8.09 46.562 0.455 7.67 147.6 9.73
12/26/2021 4:45:00 AM 8.06 46.508 0.475 7.67 125.1 9.73
12/26/2021 5:00:00 AM 8.03 46.454 0.466 7.67 123.1 9.74
12/26/2021 5:15:00 AM 8.01 46.418 0.478 7.66 126.7 9.74
12/26/2021 5:30:00 AM 7.98 46.364 0.42 7.67 150.6 9.76
12/26/2021 5:45:00 AM 7.96 46.328 0.478 7.67 120.4 9.76
12/26/2021 6:00:00 AM 7.96 46.328 0.467 7.67 137.8 9.78
12/26/2021 6:15:00 AM 7.94 46.292 0.477 7.67 127.5 9.79
12/26/2021 6:30:00 AM 7.92 46.256 0.477 7.67 127 9.79
12/26/2021 6:45:00 AM 7.89 46.202 0.478 7.66 126 9.8
12/26/2021 7:00:00 AM 7.86 46.148 0.479 7.66 135 9.81
12/26/2021 7:15:00 AM 7.83 46.094 0.445 7.67 125.9 9.82
12/26/2021 7:30:00 AM 7.8 46.04 0.479 7.66 137.1 9.86
12/26/2021 7:45:00 AM 7.75 45.95 0.48 7.67 122.5 9.91
12/26/2021 8:00:00 AM 7.71 45.878 0.48 7.67 124.5 9.99
12/26/2021 8:15:00 AM 7.69 45.842 0.48 7.67 128.7 10.1
12/26/2021 8:30:00 AM 7.66 45.788 0.48 7.69 131.1 10.21
12/26/2021 8:45:00 AM 7.62 45.716 0.481 7.69 128.2 10.33
12/26/2021 9:00:00 AM 7.59 45.662 0.481 7.69 130.4 10.5
12/26/2021 9:15:00 AM 7.58 45.644 0.481 7.71 126.3 10.74
12/26/2021 9:30:00 AM 7.57 45.626 0.481 7.72 131.6 10.92
12/26/2021 9:45:00 AM 7.55 45.59 0.481 7.73 125.7 11.06
12/26/2021 10:00:00 AM 7.52 45.536 0.481 7.74 127.7 11.19
12/26/2021 10:15:00 AM 7.51 45.518 0.482 7.76 119.2 11.32
12/26/2021 10:30:00 AM 7.56 45.608 0.482 7.77 120.2 11.56
12/26/2021 10:45:00 AM 7.64 45.752 0.482 7.79 124.1 11.76
12/26/2021 11:00:00 AM 7.7 45.86 0.482 7.82 139.9 11.95
12/26/2021 11:15:00 AM 7.77 45.986 0.482 7.82 131.2 12.11
12/26/2021 11:30:00 AM 7.83 46.094 0.482 7.84 133 12.26
12/26/2021 11:45:00 AM 7.92 46.256 0.482 7.86 132.8 12.44
12/26/2021 12:00:00 PM 8.03 46.454 0.482 7.87 130.3 12.62
12/26/2021 12:15:00 PM 8.13 46.634 0.482 7.88 130.2 12.75
12/26/2021 12:30:00 PM 8.22 46.796 0.483 7.9 141.6 12.85
12/26/2021 12:45:00 PM 8.31 46.958 0.483 7.91 140.2 12.94
12/26/2021 1:00:00 PM 8.4 47.12 0.483 7.92 134.7 13.02
12/26/2021 1:15:00 PM 8.48 47.264 0.468 7.93 126.7 13.09
12/26/2021 1:30:00 PM 8.57 47.426 0.484 7.94 127.1 13.15
12/26/2021 1:45:00 PM 8.62 47.516 0.484 7.95 134 13.18
12/26/2021 2:00:00 PM 8.67 47.606 0.484 7.96 137.1 13.16
12/26/2021 2:15:00 PM 8.69 47.642 0.484 7.96 124.8 13.14
12/26/2021 2:30:00 PM 8.69 47.642 0.484 7.95 148.9 13.06
12/26/2021 2:45:00 PM 8.68 47.624 0.485 7.95 130.7 13
12/26/2021 3:00:00 PM 8.65 47.57 0.485 7.95 125.9 12.93
12/26/2021 3:15:00 PM 8.61 47.498 0.485 7.95 124.6 12.83
12/26/2021 3:30:00 PM 8.54 47.372 0.486 7.95 134.2 12.67
12/26/2021 3:45:00 PM 8.48 47.264 0.486 7.93 125.3 12.57
12/26/2021 4:00:00 PM 8.42 47.156 0.489 7.94 130.7 12.46
12/26/2021 4:15:00 PM 8.37 47.066 0.487 7.92 122.1 12.36
12/26/2021 4:30:00 PM 8.3 46.94 0.487 7.92 133.8 12.24
12/26/2021 4:45:00 PM 8.23 46.814 0.488 7.91 127.7 12.11
12/26/2021 5:00:00 PM 8.18 46.724 0.487 7.9 126.9 11.96
12/26/2021 5:15:00 PM 8.11 46.598 0.488 7.88 120.8 11.82
12/26/2021 5:30:00 PM 8.05 46.49 0.488 7.87 137.9 11.69
12/26/2021 5:45:00 PM 7.98 46.364 0.488 7.86 138.9 11.56
12/26/2021 6:00:00 PM 7.93 46.274 0.489 7.85 130.8 11.42
12/26/2021 6:15:00 PM 7.87 46.166 0.489 7.84 137.6 11.31
12/26/2021 6:30:00 PM 7.8 46.04 0.489 7.83 138.3 11.23
12/26/2021 6:45:00 PM 7.74 45.932 0.466 7.83 133 11.14
12/26/2021 7:00:00 PM 7.68 45.824 0.49 7.82 136.8 11.09
12/26/2021 7:15:00 PM 7.62 45.716 0.49 7.81 122.4 11.03
12/26/2021 7:30:00 PM 7.56 45.608 0.49 7.81 142.2 10.98
12/26/2021 7:45:00 PM 7.51 45.518 0.49 7.8 134.3 10.93
12/26/2021 8:00:00 PM 7.45 45.41 0.49 7.8 133.7 10.88
12/26/2021 8:15:00 PM 7.41 45.338 0.49 7.8 139.1 10.84
12/26/2021 8:30:00 PM 7.36 45.248 0.49 7.79 140.6 10.79
12/26/2021 8:45:00 PM 7.31 45.158 0.49 7.79 132.6 10.76
12/26/2021 9:00:00 PM 7.26 45.068 0.491 7.79 122.2 10.73
12/26/2021 9:15:00 PM 7.21 44.978 0.491 7.79 124.5 10.69
12/26/2021 9:30:00 PM 7.16 44.888 0.491 7.78 112.8 10.66
12/26/2021 9:45:00 PM 7.11 44.798 0.491 7.78 134.7 10.64
12/26/2021 10:00:00 PM 7.06 44.708 0.491 7.78 147.5 10.63
12/26/2021 10:15:00 PM 7.01 44.618 0.491 7.78 145.2 10.62
12/26/2021 10:30:00 PM 6.96 44.528 0.469 7.77 123 10.61
12/26/2021 10:45:00 PM 6.91 44.438 0.478 7.77 144.9 10.6
12/26/2021 11:00:00 PM 6.85 44.33 0.49 7.77 147.5 10.6
12/26/2021 11:15:00 PM 6.8 44.24 0.49 7.76 137.3 10.6
12/26/2021 11:30:00 PM 6.75 44.15 0.491 7.76 143.8 10.58
12/26/2021 11:45:00 PM 6.69 44.042 0.446 7.76 146.4 10.57
12/27/2021 12:00:00 AM 6.64 43.952 0.491 7.76 143.7 10.58
12/27/2021 12:15:00 AM 6.58 43.844 0.491 7.75 170.4 10.58
12/27/2021 12:30:00 AM 6.53 43.754 0.491 7.76 142.6 10.57
12/27/2021 12:45:00 AM 6.48 43.664 0.491 7.76 144.1 10.56
12/27/2021 1:00:00 AM 6.43 43.574 0.491 7.75 142.4 10.57
12/27/2021 1:15:00 AM 6.39 43.502 0.491 7.74 138.1 10.56
12/27/2021 1:30:00 AM 6.33 43.394 0.491 7.74 132.5 10.57
12/27/2021 1:45:00 AM 6.28 43.304 0.476 7.74 131.4 10.58
12/27/2021 2:00:00 AM 6.24 43.232 0.491 7.73 137.8 10.58
12/27/2021 2:15:00 AM 6.2 43.16 0.49 7.73 127.5 10.57
12/27/2021 2:30:00 AM 6.16 43.088 0.49 7.73 129.6 10.6
12/27/2021 2:45:00 AM 6.13 43.034 0.49 7.73 127.1 10.59
12/27/2021 3:00:00 AM 6.1 42.98 0.49 7.73 143 10.59
12/27/2021 3:15:00 AM 6.08 42.944 0.49 7.73 131.2 10.61
12/27/2021 3:30:00 AM 6.04 42.872 0.49 7.73 127.9 10.63
12/27/2021 3:45:00 AM 6.02 42.836 0.49 7.73 137.7 10.63
12/27/2021 4:00:00 AM 5.99 42.782 0.49 7.73 133.4 10.63
12/27/2021 4:15:00 AM 5.97 42.746 0.49 7.73 144.9 10.65
12/27/2021 4:30:00 AM 5.95 42.71 0.49 7.73 129.9 10.64
12/27/2021 4:45:00 AM 5.93 42.674 0.49 7.73 127.7 10.67
12/27/2021 5:00:00 AM 5.91 42.638 0.49 7.74 134.8 10.66
12/27/2021 5:15:00 AM 5.88 42.584 0.49 7.73 128.1 10.68
12/27/2021 5:30:00 AM 5.86 42.548 0.49 7.73 131.6 10.69
12/27/2021 5:45:00 AM 5.84 42.512 0.49 7.72 144.3 10.7
12/27/2021 6:00:00 AM 5.82 42.476 0.491 7.72 142.9 10.7
12/27/2021 6:15:00 AM 5.8 42.44 0.491 7.72 141.1 10.7
12/27/2021 6:30:00 AM 5.78 42.404 0.491 7.72 133.4 10.72
12/27/2021 6:45:00 AM 5.76 42.368 0.491 7.73 134.2 10.73
12/27/2021 7:00:00 AM 5.75 42.35 0.491 7.72 121.6 10.73
12/27/2021 7:15:00 AM 5.73 42.314 0.491 7.72 134.3 10.74
12/27/2021 7:30:00 AM 5.7 42.26 0.491 7.72 131.5 10.76
12/27/2021 7:45:00 AM 5.66 42.188 0.492 7.72 136.5 10.77
12/27/2021 8:00:00 AM 5.66 42.188 0.492 7.72 134.3 10.79
12/27/2021 8:15:00 AM 5.64 42.152 0.492 7.72 138.8 10.83
12/27/2021 8:30:00 AM 5.64 42.152 0.492 7.72 124.5 10.91
12/27/2021 8:45:00 AM 5.63 42.134 0.492 7.72 123.7 10.89
12/27/2021 9:00:00 AM 5.62 42.116 0.492 7.73 140 10.93
12/27/2021 9:15:00 AM 5.62 42.116 0.492 7.73 139.5 10.97
12/27/2021 9:30:00 AM 5.61 42.098 0.493 7.73 140.5 11
12/27/2021 9:45:00 AM 5.5 41.9 0.492 7.73 145.8 11.08
12/27/2021 10:00:00 AM 5.11 41.198 0.491 7.74 139.9 11.21
12/27/2021 10:15:00 AM 4.94 40.892 0.49 7.75 138 11.42
12/27/2021 10:30:00 AM 4.78 40.604 0.489 7.76 137.2 11.57
12/27/2021 10:45:00 AM 4.62 40.316 0.488 7.78 136.4 11.82
12/27/2021 11:00:00 AM 4.52 40.136 0.487 7.79 141.9 12.05
12/27/2021 11:15:00 AM 4.42 39.956 0.486 7.81 139.1 12.26
12/27/2021 11:30:00 AM 4.42 39.956 0.486 7.83 132.4 12.48
12/27/2021 11:45:00 AM 4.51 40.118 0.486 7.85 134.8 12.65
12/27/2021 12:00:00 PM 4.6 40.28 0.486 7.86 141.3 12.71
12/27/2021 12:15:00 PM 4.69 40.442 0.486 7.86 133.8 12.86
12/27/2021 12:30:00 PM 4.78 40.604 0.486 7.87 133.9 12.92
12/27/2021 12:45:00 PM 4.86 40.748 0.487 7.87 135.3 12.94
12/27/2021 1:00:00 PM 4.93 40.874 0.487 7.88 136.5 12.99
12/27/2021 1:15:00 PM 5 41 0.487 7.88 136.5 13.09
12/27/2021 1:30:00 PM 5.04 41.072 0.487 7.89 138 13.1
12/27/2021 1:45:00 PM 5.07 41.126 0.486 7.9 134.4 13.17
12/27/2021 2:00:00 PM 5.11 41.198 0.486 7.9 136.3 13.22
12/27/2021 2:15:00 PM 5.14 41.252 0.486 7.91 136.3 13.26
12/27/2021 2:30:00 PM 5.18 41.324 0.486 7.9 134.2 13.26
12/27/2021 2:45:00 PM 5.2 41.36 0.486 7.91 133.5 13.21
12/27/2021 3:00:00 PM 5.23 41.414 0.486 7.91 135.9 13.15
12/27/2021 3:15:00 PM 5.26 41.468 0.477 7.9 126 13.11
12/27/2021 3:30:00 PM 5.29 41.522 0.487 7.89 133.5 12.99
12/27/2021 3:45:00 PM 5.3 41.54 0.487 7.88 129 12.85
12/27/2021 4:00:00 PM 5.31 41.558 0.47 7.87 133.1 12.76
12/27/2021 4:15:00 PM 5.31 41.558 0.45 7.87 131.2 12.63
12/27/2021 4:30:00 PM 5.29 41.522 0.489 7.85 127.7 12.48
12/27/2021 4:45:00 PM 5.27 41.486 0.488 7.85 128.1 12.4
12/27/2021 5:00:00 PM 5.25 41.45 0.462 7.84 141.6 12.28
12/27/2021 5:15:00 PM 5.22 41.396 0.488 7.83 127.3 12.19
12/27/2021 5:30:00 PM 5.2 41.36 0.487 7.83 132.8 12.11
12/27/2021 5:45:00 PM 5.18 41.324 0.486 7.81 133.5 12.04
12/27/2021 6:00:00 PM 5.15 41.27 0.485 7.8 123.7 11.98
12/27/2021 6:15:00 PM 5.13 41.234 0.486 7.79 126.1 11.93
12/27/2021 6:30:00 PM 5.1 41.18 0.485 7.79 124.9 11.88
12/27/2021 6:45:00 PM 5.11 41.198 0.485 7.78 127.6 11.82
12/27/2021 7:00:00 PM 5.1 41.18 0.485 7.78 130 11.79
12/27/2021 7:15:00 PM 5.1 41.18 0.486 7.77 130 11.74
12/27/2021 7:30:00 PM 5.08 41.144 0.486 7.78 138.8 11.72
12/27/2021 7:45:00 PM 5.06 41.108 0.486 7.77 132.2 11.69
12/27/2021 8:00:00 PM 5.04 41.072 0.487 7.76 138.5 11.65
12/27/2021 8:15:00 PM 5.02 41.036 0.489 7.75 133.2 11.6
12/27/2021 8:30:00 PM 5.05 41.09 0.492 7.75 131.3 11.55
12/27/2021 8:45:00 PM 5.07 41.126 0.493 7.74 132.5 11.51
12/27/2021 9:00:00 PM 5.09 41.162 0.488 7.74 140 11.48
12/27/2021 9:15:00 PM 5.11 41.198 0.494 7.73 138.8 11.46
12/27/2021 9:30:00 PM 5.09 41.162 0.475 7.74 141 11.44
12/27/2021 9:45:00 PM 5.1 41.18 0.467 7.73 141.4 11.4
12/27/2021 10:00:00 PM 5.11 41.198 0.494 7.73 139.4 11.37
12/27/2021 10:15:00 PM 5.14 41.252 0.495 7.72 142.5 11.35
12/27/2021 10:30:00 PM 5.15 41.27 0.495 7.73 140.2 11.33
12/27/2021 10:45:00 PM 5.16 41.288 0.496 7.72 139.5 11.3
12/27/2021 11:00:00 PM 5.17 41.306 0.498 7.72 142.1 11.27
12/27/2021 11:15:00 PM 5.18 41.324 0.499 7.71 135.1 11.25
12/27/2021 11:30:00 PM 5.19 41.342 0.5 7.72 142.5 11.23
12/27/2021 11:45:00 PM 5.21 41.378 0.501 7.71 135.3 11.17
12/28/2021 12:00:00 AM 5.22 41.396 0.502 7.71 143.2 11.16
12/28/2021 12:15:00 AM 5.23 41.414 0.501 7.7 147.4 11.12
12/28/2021 12:30:00 AM 5.24 41.432 0.5 7.7 141 11.09
12/28/2021 12:45:00 AM 5.25 41.45 0.499 7.7 137.8 11.09
12/28/2021 1:00:00 AM 5.26 41.468 0.497 7.69 139.1 11.06
12/28/2021 1:15:00 AM 5.27 41.486 0.496 7.69 141.2 11.02
12/28/2021 1:30:00 AM 5.27 41.486 0.496 7.69 142.2 11.03
12/28/2021 1:45:00 AM 5.28 41.504 0.495 7.69 141.1 10.99
12/28/2021 2:00:00 AM 5.28 41.504 0.495 7.69 141.7 10.98
12/28/2021 2:15:00 AM 5.27 41.486 0.494 7.68 145.9 10.95
12/28/2021 2:30:00 AM 5.24 41.432 0.494 7.68 143.3 10.95
12/28/2021 2:45:00 AM 5.21 41.378 0.493 7.68 148.8 10.95
12/28/2021 3:00:00 AM 5.18 41.324 0.492 7.68 145.7 10.95
12/28/2021 3:15:00 AM 5.14 41.252 0.491 7.69 144.8 10.93
12/28/2021 3:30:00 AM 5.11 41.198 0.489 7.7 142.6 10.93
12/28/2021 3:45:00 AM 5.09 41.162 0.487 7.71 140.3 10.94
12/28/2021 4:00:00 AM 5.06 41.108 0.486 7.71 139.5 10.94
12/28/2021 4:15:00 AM 5.03 41.054 0.485 7.72 148.9 10.95
12/28/2021 4:30:00 AM 5.01 41.018 0.483 7.71 142.6 10.96
12/28/2021 4:45:00 AM 4.99 40.982 0.482 7.72 146.3 10.97
12/28/2021 5:00:00 AM 4.98 40.964 0.481 7.71 141.3 10.98
12/28/2021 5:15:00 AM 4.96 40.928 0.48 7.72 143.3 10.97
12/28/2021 5:30:00 AM 4.95 40.91 0.479 7.72 146.8 10.99
12/28/2021 5:45:00 AM 4.94 40.892 0.478 7.72 142.6 10.99
12/28/2021 6:00:00 AM 4.93 40.874 0.477 7.72 141.1 11.01
12/28/2021 6:15:00 AM 4.92 40.856 0.475 7.72 141.5 11.01
12/28/2021 6:30:00 AM 4.91 40.838 0.474 7.73 142.9 11.01
12/28/2021 6:45:00 AM 4.89 40.802 0.472 7.74 147.2 11
12/28/2021 7:00:00 AM 4.88 40.784 0.471 7.73 140.6 11.02
12/28/2021 7:15:00 AM 4.86 40.748 0.469 7.74 142.6 11.04
12/28/2021 7:30:00 AM 4.83 40.694 0.468 7.74 134.6 11.06
12/28/2021 7:45:00 AM 4.81 40.658 0.467 7.73 138.2 11.09
12/28/2021 8:00:00 AM 4.8 40.64 0.466 7.73 140 11.15
12/28/2021 8:15:00 AM 4.78 40.604 0.464 7.73 145.1 11.2
12/28/2021 8:30:00 AM 4.76 40.568 0.464 7.74 142.8 11.28
12/28/2021 8:45:00 AM 4.75 40.55 0.463 7.74 151.5 11.37
12/28/2021 9:00:00 AM 4.75 40.55 0.462 7.74 145.7 11.49
12/28/2021 9:15:00 AM 4.77 40.586 0.462 7.75 148.8 11.65
12/28/2021 9:30:00 AM 4.81 40.658 0.461 7.76 143.8 11.83
12/28/2021 9:45:00 AM 4.86 40.748 0.461 7.76 143.9 11.98
12/28/2021 10:00:00 AM 4.92 40.856 0.46 7.77 145.1 12.14
12/28/2021 10:15:00 AM 4.94 40.892 0.461 7.77 150.8 12.19
12/28/2021 10:30:00 AM 5.01 41.018 0.443 7.77 144.9 12.33
12/28/2021 10:45:00 AM 5.1 41.18 0.43 7.77 150.5 12.4
12/28/2021 11:00:00 AM 5.18 41.324 0.407 7.8 142.7 12.5
12/28/2021 11:15:00 AM 5.25 41.45 0.457 7.81 144.6 12.52
12/28/2021 11:30:00 AM 5.33 41.594 0.467 7.81 145.1 12.59
12/28/2021 11:45:00 AM 5.4 41.72 0.469 7.81 148.1 12.62
12/28/2021 12:00:00 PM 5.44 41.792 0.471 7.81 143 12.55
12/28/2021 12:15:00 PM 5.5 41.9 0.472 7.8 139.8 12.55
12/28/2021 12:30:00 PM 5.54 41.972 0.473 7.8 148.8 12.48
12/28/2021 12:45:00 PM 5.59 42.062 0.474 7.81 143.6 12.54
12/28/2021 1:00:00 PM 5.63 42.134 0.475 7.81 146.1 12.51
12/28/2021 1:15:00 PM 5.66 42.188 0.476 7.81 142.6 12.46
12/28/2021 1:30:00 PM 5.69 42.242 0.476 7.82 147.8 12.4
12/28/2021 1:45:00 PM 5.74 42.332 0.477 7.82 148.9 12.47
12/28/2021 2:00:00 PM 5.76 42.368 0.477 7.82 145.1 12.44
12/28/2021 2:15:00 PM 5.78 42.404 0.478 7.82 151.8 12.37
12/28/2021 2:30:00 PM 5.79 42.422 0.478 7.81 145.7 12.31
12/28/2021 2:45:00 PM 5.81 42.458 0.479 7.81 152 12.27
12/28/2021 3:00:00 PM 5.81 42.458 0.479 7.8 148 12.22
12/28/2021 3:15:00 PM 5.81 42.458 0.479 7.8 146.5 12.13
12/28/2021 3:30:00 PM 5.81 42.458 0.478 7.79 142.9 12.05
12/28/2021 3:45:00 PM 5.81 42.458 0.477 7.78 148.3 11.95
12/28/2021 4:00:00 PM 5.82 42.476 0.476 7.78 146 11.87
12/28/2021 4:15:00 PM 5.83 42.494 0.476 7.77 148.1 11.8
12/28/2021 4:30:00 PM 5.83 42.494 0.475 7.76 145.4 11.74
12/28/2021 4:45:00 PM 5.84 42.512 0.475 7.76 150.7 11.69
12/28/2021 5:00:00 PM 5.86 42.548 0.474 7.76 150 11.6
12/28/2021 5:15:00 PM 5.87 42.566 0.474 7.76 149.9 11.53
12/28/2021 5:30:00 PM 5.89 42.602 0.474 7.76 145.4 11.47
12/28/2021 5:45:00 PM 5.91 42.638 0.473 7.75 145.9 11.42
12/28/2021 6:00:00 PM 5.93 42.674 0.473 7.74 147.6 11.36
12/28/2021 6:15:00 PM 5.95 42.71 0.473 7.74 148.6 11.3
12/28/2021 6:30:00 PM 5.97 42.746 0.473 7.74 158.5 11.26
12/28/2021 6:45:00 PM 5.99 42.782 0.474 7.74 149.6 11.21
12/28/2021 7:00:00 PM 6 42.8 0.474 7.74 150.4 11.16
12/28/2021 7:15:00 PM 6.01 42.818 0.475 7.72 159.3 11.12
12/28/2021 7:30:00 PM 6.02 42.836 0.475 7.72 133.2 11.09
12/28/2021 7:45:00 PM 6.03 42.854 0.475 7.72 146.4 11.05
12/28/2021 8:00:00 PM 6.04 42.872 0.475 7.72 152.1 11.04
12/28/2021 8:15:00 PM 6.05 42.89 0.476 7.71 155.7 11.01
12/28/2021 8:30:00 PM 6.05 42.89 0.475 7.71 147.1 10.97
12/28/2021 8:45:00 PM 6.05 42.89 0.475 7.71 148.9 10.95
12/28/2021 9:00:00 PM 6.06 42.908 0.476 7.7 152.1 10.92
12/28/2021 9:15:00 PM 6.05 42.89 0.478 7.69 159.9 10.91
12/28/2021 9:30:00 PM 6.01 42.818 0.49 7.7 154.4 10.91
12/28/2021 9:45:00 PM 5.93 42.674 0.492 7.7 173.5 10.93
12/28/2021 10:00:00 PM 5.96 42.728 0.465 7.7 163.3 10.89
12/28/2021 10:15:00 PM 5.94 42.692 0.471 7.7 163.9 10.89
12/28/2021 10:30:00 PM 5.98 42.764 0.469 7.7 162.5 10.85
12/28/2021 10:45:00 PM 5.98 42.764 0.465 7.7 169 10.86
12/28/2021 11:00:00 PM 5.77 42.386 0.397 7.7 196.2 10.97
12/28/2021 11:15:00 PM 5.77 42.386 0.447 7.69 198 10.97
12/28/2021 11:30:00 PM 5.81 42.458 0.447 7.69 192.7 10.93
12/28/2021 11:45:00 PM 5.85 42.53 0.446 7.69 174.3 10.9
12/29/2021 12:00:00 AM 5.86 42.548 0.447 7.69 165.9 10.89
12/29/2021 12:15:00 AM 5.74 42.332 0.436 7.69 178.1 10.96
12/29/2021 12:30:00 AM 5.76 42.368 0.436 7.69 160.6 10.95
12/29/2021 12:45:00 AM 5.79 42.422 0.433 7.69 140.3 10.9
12/29/2021 1:00:00 AM 5.77 42.386 0.428 7.69 192.3 10.9
12/29/2021 1:15:00 AM 5.81 42.458 0.426 7.68 168.7 10.84
12/29/2021 1:30:00 AM 5.81 42.458 0.423 7.68 182.1 10.82
12/29/2021 1:45:00 AM 5.76 42.368 0.421 7.68 215 10.82
12/29/2021 2:00:00 AM 5.68 42.224 0.412 7.66 219 10.85
12/29/2021 2:15:00 AM 5.57 42.026 0.398 7.65 245.1 10.9
12/29/2021 2:30:00 AM 5.45 41.81 0.377 7.65 241.5 10.98
12/29/2021 2:45:00 AM 5.34 41.612 0.356 7.64 275.9 11.07
12/29/2021 3:00:00 AM 5.26 41.468 0.347 7.64 277.5 11.14
12/29/2021 3:15:00 AM 5.21 41.378 0.347 7.64 239.2 11.15
12/29/2021 3:30:00 AM 5.1 41.18 0.347 7.63 247.8 11.18
12/29/2021 3:45:00 AM 4.84 40.712 0.34 7.64 362.2 11.23
12/29/2021 4:00:00 AM 4.57 40.226 0.327 7.63 424.2 11.34
12/29/2021 4:15:00 AM 4.38 39.884 0.314 7.62 527.3 11.42
12/29/2021 4:30:00 AM 4.27 39.686 0.304 7.62 537 11.47
12/29/2021 4:45:00 AM 4.21 39.578 0.298 7.61 590.5 11.5
12/29/2021 5:00:00 AM 4.18 39.524 0.295 7.6 530.7 11.52
12/29/2021 5:15:00 AM 4.19 39.542 0.292 7.59 534.7 11.52
12/29/2021 5:30:00 AM 4.24 39.632 0.292 7.58 524.1 11.45
12/29/2021 5:45:00 AM 4.33 39.794 0.294 7.57 504 11.4
12/29/2021 6:00:00 AM 4.43 39.974 0.298 7.56 474 11.33
12/29/2021 6:15:00 AM 4.54 40.172 0.303 7.55 438.7 11.26
12/29/2021 6:30:00 AM 4.65 40.37 0.309 7.53 462.3 11.2
12/29/2021 6:45:00 AM 4.75 40.55 0.314 7.53 412.7 11.13
12/29/2021 7:00:00 AM 4.86 40.748 0.319 7.52 389 11.09
12/29/2021 7:15:00 AM 4.95 40.91 0.324 7.51 384.8 11.04
12/29/2021 7:30:00 AM 5.04 41.072 0.327 7.52 396.6 11.02
12/29/2021 7:45:00 AM 5.12 41.216 0.329 7.52 355 11
12/29/2021 8:00:00 AM 5.21 41.378 0.332 7.51 351.1 10.97
12/29/2021 8:15:00 AM 5.29 41.522 0.334 7.51 325.9 10.95
12/29/2021 8:30:00 AM 5.36 41.648 0.335 7.52 358.8 10.93
12/29/2021 8:45:00 AM 5.44 41.792 0.337 7.52 316.6 10.89
12/29/2021 9:00:00 AM 5.51 41.918 0.34 7.51 364.4 10.88
12/29/2021 9:15:00 AM 5.59 42.062 0.342 7.51 371.1 10.85
12/29/2021 9:30:00 AM 5.68 42.224 0.344 7.51 331.5 10.84
12/29/2021 9:45:00 AM 5.76 42.368 0.347 7.51 322.3 10.82
12/29/2021 10:00:00 AM 5.84 42.512 0.35 7.51 301.4 10.81
12/29/2021 10:15:00 AM 5.91 42.638 0.352 7.51 316.4 10.79
12/29/2021 10:30:00 AM 5.98 42.764 0.354 7.53 300.1 10.76
12/29/2021 10:45:00 AM 6.05 42.89 0.355 7.51 294.9 10.76
12/29/2021 11:00:00 AM 6.13 43.034 0.355 7.51 297.5 10.76
12/29/2021 11:15:00 AM 6.21 43.178 0.354 7.51 301.7 10.77
12/29/2021 11:30:00 AM 6.28 43.304 0.353 7.51 300.7 10.81
12/29/2021 11:45:00 AM 6.37 43.466 0.352 7.52 299.5 10.84
12/29/2021 12:00:00 PM 6.47 43.646 0.351 7.51 290.9 10.88
12/29/2021 12:15:00 PM 6.54 43.772 0.351 7.51 273.4 10.9
12/29/2021 12:30:00 PM 6.61 43.898 0.351 7.51 303.9 10.96
12/29/2021 12:45:00 PM 6.7 44.06 0.351 7.52 241.6 10.97
12/29/2021 1:00:00 PM 6.85 44.33 0.353 7.52 281.7 11.07
12/29/2021 1:15:00 PM 6.97 44.546 0.354 7.52 268.5 11.12
12/29/2021 1:30:00 PM 7.09 44.762 0.356 7.54 245.7 11.18
12/29/2021 1:45:00 PM 7.2 44.96 0.358 7.54 256.2 11.23
12/29/2021 2:00:00 PM 7.3 45.14 0.36 7.55 253.3 11.25
12/29/2021 2:15:00 PM 7.41 45.338 0.362 7.55 269.8 11.26
12/29/2021 2:30:00 PM 7.53 45.554 0.364 7.56 313.6 11.29
12/29/2021 2:45:00 PM 7.63 45.734 0.365 7.57 366.9 11.29
12/29/2021 3:00:00 PM 7.73 45.914 0.367 7.59 301.6 11.29
12/29/2021 3:15:00 PM 7.81 46.058 0.369 7.6 281.6 11.27
12/29/2021 3:30:00 PM 7.87 46.166 0.371 7.59 236 11.23
12/29/2021 3:45:00 PM 7.94 46.292 0.372 7.59 227.6 11.25
12/29/2021 4:00:00 PM 7.99 46.382 0.374 7.6 220.3 11.22
12/29/2021 4:15:00 PM 8.03 46.454 0.376 7.6 220.7 11.16
12/29/2021 4:30:00 PM 8.07 46.526 0.377 7.6 184.5 11.11
12/29/2021 4:45:00 PM 8.11 46.598 0.379 7.6 194.1 11.02
12/29/2021 5:00:00 PM 8.15 46.67 0.38 7.6 221.1 10.98
12/29/2021 5:15:00 PM 8.19 46.742 0.382 7.61 203.6 10.92
12/29/2021 5:30:00 PM 8.23 46.814 0.383 7.61 196.3 10.89
12/29/2021 5:45:00 PM 8.27 46.886 0.385 7.61 220.7 10.83
12/29/2021 6:00:00 PM 8.31 46.958 0.386 7.61 227.5 10.75
12/29/2021 6:15:00 PM 8.34 47.012 0.387 7.6 226.7 10.7
12/29/2021 6:30:00 PM 8.37 47.066 0.388 7.6 206.1 10.65
12/29/2021 6:45:00 PM 8.4 47.12 0.389 7.6 218.4 10.6
12/29/2021 7:00:00 PM 8.43 47.174 0.39 7.6 200.2 10.56
12/29/2021 7:15:00 PM 8.45 47.21 0.39 7.6 185.1 10.52
12/29/2021 7:30:00 PM 8.48 47.264 0.39 7.6 262.9 10.47
12/29/2021 7:45:00 PM 8.5 47.3 0.391 7.6 184.4 10.43
12/29/2021 8:00:00 PM 8.52 47.336 0.391 7.6 188.8 10.39
12/29/2021 8:15:00 PM 8.53 47.354 0.391 7.59 243.6 10.36
12/29/2021 8:30:00 PM 8.54 47.372 0.391 7.6 208.1 10.31
12/29/2021 8:45:00 PM 8.55 47.39 0.387 7.59 226.1 10.28
12/29/2021 9:00:00 PM 8.55 47.39 0.393 7.6 229.9 10.25
12/29/2021 9:15:00 PM 8.55 47.39 0.392 7.59 186.9 10.23
12/29/2021 9:30:00 PM 8.55 47.39 0.392 7.58 248.1 10.2
12/29/2021 9:45:00 PM 8.55 47.39 0.393 7.58 265.5 10.17
12/29/2021 10:00:00 PM 8.55 47.39 0.393 7.58 233.6 10.15
12/29/2021 10:15:00 PM 8.54 47.372 0.392 7.58 262.4 10.13
12/29/2021 10:30:00 PM 8.54 47.372 0.392 7.58 217 10.13
12/29/2021 10:45:00 PM 8.54 47.372 0.392 7.58 218.8 10.11
12/29/2021 11:00:00 PM 8.53 47.354 0.393 7.57 233.9 10.1
12/29/2021 11:15:00 PM 8.52 47.336 0.392 7.57 210.7 10.08
12/29/2021 11:30:00 PM 8.52 47.336 0.392 7.58 216.2 10.08
12/29/2021 11:45:00 PM 8.52 47.336 0.393 7.58 233.6 10.07
12/30/2021 12:00:00 AM 8.51 47.318 0.393 7.58 237 10.06
12/30/2021 12:15:00 AM 8.5 47.3 0.393 7.58 211.4 10.05
12/30/2021 12:30:00 AM 8.49 47.282 0.393 7.57 249.8 10.06
12/30/2021 12:45:00 AM 8.48 47.264 0.393 7.56 215.2 10.05
12/30/2021 1:00:00 AM 8.47 47.246 0.393 7.56 200.9 10.05
12/30/2021 1:15:00 AM 8.46 47.228 0.394 7.56 265.5 10.06
12/30/2021 1:30:00 AM 8.45 47.21 0.394 7.56 269.7 10.05
12/30/2021 1:45:00 AM 8.44 47.192 0.394 7.57 234.9 10.06
12/30/2021 2:00:00 AM 8.43 47.174 0.395 7.57 234.5 10.07
12/30/2021 2:15:00 AM 8.41 47.138 0.395 7.57 260.7 10.06
12/30/2021 2:30:00 AM 8.4 47.12 0.396 7.56 256.8 10.07
12/30/2021 2:45:00 AM 8.39 47.102 0.397 7.58 226.7 10.07
12/30/2021 3:00:00 AM 8.37 47.066 0.398 7.59 223.6 10.08
12/30/2021 3:15:00 AM 8.36 47.048 0.398 7.59 260.1 10.09
12/30/2021 3:30:00 AM 8.34 47.012 0.399 7.59 320.1 10.1
12/30/2021 3:45:00 AM 8.33 46.994 0.4 7.58 233.3 10.11
12/30/2021 4:00:00 AM 8.31 46.958 0.401 7.57 264.4 10.11
12/30/2021 4:15:00 AM 8.3 46.94 0.402 7.57 265.6 10.13
12/30/2021 4:30:00 AM 8.28 46.904 0.402 7.58 246.9 10.13
12/30/2021 4:45:00 AM 8.27 46.886 0.403 7.58 251.6 10.13
12/30/2021 5:00:00 AM 8.25 46.85 0.403 7.58 270.8 10.15
12/30/2021 5:15:00 AM 8.24 46.832 0.402 7.59 254.2 10.15
12/30/2021 5:30:00 AM 8.23 46.814 0.403 7.58 265.1 10.16
12/30/2021 5:45:00 AM 8.22 46.796 0.403 7.57 256.2 10.16
12/30/2021 6:00:00 AM 8.21 46.778 0.403 7.57 255.2 10.16
12/30/2021 6:15:00 AM 8.21 46.778 0.403 7.58 284 10.18
12/30/2021 6:30:00 AM 8.2 46.76 0.403 7.58 252.4 10.17
12/30/2021 6:45:00 AM 8.19 46.742 0.403 7.58 261 10.18
12/30/2021 7:00:00 AM 8.19 46.742 0.403 7.58 274.4 10.19
12/30/2021 7:15:00 AM 8.19 46.742 0.403 7.58 239.7 10.19
12/30/2021 7:30:00 AM 8.18 46.724 0.403 7.58 262.4 10.18
12/30/2021 7:45:00 AM 8.18 46.724 0.402 7.57 289 10.19
12/30/2021 8:00:00 AM 8.18 46.724 0.402 7.57 319.3 10.2
12/30/2021 8:15:00 AM 8.18 46.724 0.402 7.58 286.1 10.19
12/30/2021 8:30:00 AM 8.19 46.742 0.401 7.57 266.4 10.22
12/30/2021 8:45:00 AM 8.19 46.742 0.402 7.57 245.9 10.23
12/30/2021 9:00:00 AM 8.21 46.778 0.402 7.58 227.6 10.24
12/30/2021 9:15:00 AM 8.22 46.796 0.404 7.58 245 10.27
12/30/2021 9:30:00 AM 8.24 46.832 0.404 7.58 262.9 10.28
12/30/2021 9:45:00 AM 8.25 46.85 0.404 7.58 273.3 10.28
12/30/2021 10:00:00 AM 8.26 46.868 0.404 7.58 293.1 10.29
12/30/2021 10:15:00 AM 8.27 46.886 0.403 7.58 275.8 10.29
12/30/2021 10:30:00 AM 8.29 46.922 0.404 7.58 263 10.37
12/30/2021 10:45:00 AM 8.31 46.958 0.405 7.58 295.6 10.43
12/30/2021 11:00:00 AM 8.34 47.012 0.404 7.59 225.8 10.46
12/30/2021 11:15:00 AM 8.37 47.066 0.403 7.6 244.5 10.5
12/30/2021 11:30:00 AM 8.39 47.102 0.404 7.6 270 10.51
12/30/2021 11:45:00 AM 8.42 47.156 0.404 7.6 234.1 10.54
12/30/2021 12:00:00 PM 8.45 47.21 0.404 7.61 273.7 10.58
12/30/2021 12:15:00 PM 8.48 47.264 0.403 7.61 278.3 10.62
12/30/2021 12:30:00 PM 8.51 47.318 0.403 7.62 287 10.65
12/30/2021 12:45:00 PM 8.54 47.372 0.404 7.61 257.6 10.65
12/30/2021 1:00:00 PM 8.57 47.426 0.403 7.62 244.5 10.67
12/30/2021 1:15:00 PM 8.6 47.48 0.404 7.62 257 10.68
12/30/2021 1:30:00 PM 8.62 47.516 0.403 7.63 259.7 10.68
12/30/2021 1:45:00 PM 8.64 47.552 0.403 7.62 251.6 10.69
12/30/2021 2:00:00 PM 8.66 47.588 0.402 7.63 247.1 10.7
12/30/2021 2:15:00 PM 8.68 47.624 0.403 7.63 263.9 10.67
12/30/2021 2:30:00 PM 8.7 47.66 0.402 7.62 231.4 10.67
12/30/2021 2:45:00 PM 8.71 47.678 0.403 7.62 299.8 10.65
12/30/2021 3:00:00 PM 8.73 47.714 0.403 7.63 277.9 10.63
12/30/2021 3:15:00 PM 8.75 47.75 0.403 7.63 268.2 10.61
12/30/2021 3:30:00 PM 8.78 47.804 0.403 7.63 284.3 10.62
12/30/2021 3:45:00 PM 8.8 47.84 0.403 7.64 266.1 10.62
12/30/2021 4:00:00 PM 8.82 47.876 0.403 7.64 295.9 10.61
12/30/2021 4:15:00 PM 8.84 47.912 0.404 7.63 269.2 10.61
12/30/2021 4:30:00 PM 8.85 47.93 0.404 7.63 258.4 10.56
12/30/2021 4:45:00 PM 8.85 47.93 0.404 7.63 260.3 10.52
12/30/2021 5:00:00 PM 8.86 47.948 0.404 7.63 328.4 10.47
12/30/2021 5:15:00 PM 8.86 47.948 0.404 7.63 284.7 10.43
12/30/2021 5:30:00 PM 8.86 47.948 0.404 7.63 328.2 10.39
12/30/2021 5:45:00 PM 8.87 47.966 0.404 7.63 256.7 10.37
12/30/2021 6:00:00 PM 8.87 47.966 0.405 7.62 252.3 10.31
12/30/2021 6:15:00 PM 8.88 47.984 0.405 7.62 271.9 10.3
12/30/2021 6:30:00 PM 8.88 47.984 0.405 7.62 255.7 10.27
12/30/2021 6:45:00 PM 8.89 48.002 0.405 7.61 263.5 10.25
12/30/2021 7:00:00 PM 8.9 48.02 0.405 7.62 258.9 10.23
12/30/2021 7:15:00 PM 8.9 48.02 0.405 7.62 258.9 10.16
12/30/2021 7:30:00 PM 8.92 48.056 0.405 7.6 235.9 10.14
12/30/2021 7:45:00 PM 8.92 48.056 0.404 7.6 284.6 10.13
12/30/2021 8:00:00 PM 8.93 48.074 0.405 7.61 265.7 10.11
12/30/2021 8:15:00 PM 8.94 48.092 0.405 7.61 281.3 10.09
12/30/2021 8:30:00 PM 8.94 48.092 0.405 7.6 279.4 10.08
12/30/2021 8:45:00 PM 8.93 48.074 0.405 7.61 269 10.07
12/30/2021 9:00:00 PM 8.93 48.074 0.406 7.6 288.5 10.06
12/30/2021 9:15:00 PM 8.93 48.074 0.406 7.61 302.9 10.04
12/30/2021 9:30:00 PM 8.93 48.074 0.406 7.6 299.3 10.04
12/30/2021 9:45:00 PM 8.93 48.074 0.406 7.6 298.2 10.03
12/30/2021 10:00:00 PM 8.93 48.074 0.407 7.6 270.7 10.02
12/30/2021 10:15:00 PM 8.93 48.074 0.407 7.6 261.1 10
12/30/2021 10:30:00 PM 8.93 48.074 0.407 7.6 305.7 10.01
12/30/2021 10:45:00 PM 8.93 48.074 0.407 7.6 302.4 10.01
12/30/2021 11:00:00 PM 8.93 48.074 0.407 7.6 288.1 9.99
12/30/2021 11:15:00 PM 8.93 48.074 0.407 7.59 304.1 9.98
12/30/2021 11:30:00 PM 8.93 48.074 0.407 7.59 299.9 9.96
12/30/2021 11:45:00 PM 8.92 48.056 0.408 7.6 346.7 9.98
12/31/2021 12:00:00 AM 8.92 48.056 0.408 7.59 320.2 9.98
12/31/2021 12:15:00 AM 8.92 48.056 0.408 7.6 276.2 9.97
12/31/2021 12:30:00 AM 8.92 48.056 0.408 7.61 300.9 9.97
12/31/2021 12:45:00 AM 8.91 48.038 0.409 7.6 304 9.97
12/31/2021 1:00:00 AM 8.9 48.02 0.408 7.6 290.5 9.97
12/31/2021 1:15:00 AM 8.88 47.984 0.408 7.61 314.4 9.97
12/31/2021 1:30:00 AM 8.87 47.966 0.408 7.6 266.3 9.96
12/31/2021 1:45:00 AM 8.87 47.966 0.408 7.6 323 9.97
12/31/2021 2:00:00 AM 8.86 47.948 0.407 7.59 282.8 9.97
12/31/2021 2:15:00 AM 8.85 47.93 0.407 7.59 344.9 9.98
12/31/2021 2:30:00 AM 8.84 47.912 0.407 7.6 378.2 9.98
12/31/2021 2:45:00 AM 8.83 47.894 0.407 7.59 306.9 9.98
12/31/2021 3:00:00 AM 8.82 47.876 0.407 7.59 300.2 9.98
12/31/2021 3:15:00 AM 8.81 47.858 0.407 7.59 304.8 10
12/31/2021 3:30:00 AM 8.8 47.84 0.407 7.59 358.2 9.99
12/31/2021 3:45:00 AM 8.8 47.84 0.404 7.6 339.9 10
12/31/2021 4:00:00 AM 8.79 47.822 0.407 7.6 302.2 10
12/31/2021 4:15:00 AM 8.78 47.804 0.407 7.6 317.2 10.01
12/31/2021 4:30:00 AM 8.78 47.804 0.407 7.6 355.5 10.01
12/31/2021 4:45:00 AM 8.77 47.786 0.407 7.59 315 10.02
12/31/2021 5:00:00 AM 8.76 47.768 0.406 7.59 288.7 10.02
12/31/2021 5:15:00 AM 8.75 47.75 0.407 7.6 340.3 10.03
12/31/2021 5:30:00 AM 8.75 47.75 0.406 7.6 347.8 10.04
12/31/2021 5:45:00 AM 8.74 47.732 0.406 7.6 336.7 10.01
12/31/2021 6:00:00 AM 8.73 47.714 0.406 7.6 368.4 10.03
12/31/2021 6:15:00 AM 8.73 47.714 0.406 7.6 361 10.04
12/31/2021 6:30:00 AM 8.72 47.696 0.406 7.6 288.1 10.05
12/31/2021 6:45:00 AM 8.72 47.696 0.406 7.6 315.9 10.05
12/31/2021 7:00:00 AM 8.71 47.678 0.406 7.6 356.8 10.05
12/31/2021 7:15:00 AM 8.71 47.678 0.405 7.61 348.6 10.05
12/31/2021 7:30:00 AM 8.7 47.66 0.406 7.61 347.5 10.06
12/31/2021 7:45:00 AM 8.7 47.66 0.406 7.6 381.2 10.06
12/31/2021 8:00:00 AM 8.7 47.66 0.406 7.6 308.3 10.08
12/31/2021 8:15:00 AM 8.7 47.66 0.406 7.6 299.8 10.1
12/31/2021 8:30:00 AM 8.7 47.66 0.406 7.6 260 10.13
12/31/2021 8:45:00 AM 8.71 47.678 0.406 7.6 281.4 10.18
12/31/2021 9:00:00 AM 8.73 47.714 0.406 7.61 288.2 10.23
12/31/2021 9:15:00 AM 8.75 47.75 0.405 7.61 309.5 10.3
12/31/2021 9:30:00 AM 8.77 47.786 0.405 7.61 320.9 10.36
12/31/2021 9:45:00 AM 8.8 47.84 0.405 7.63 293.6 10.42
12/31/2021 10:00:00 AM 8.83 47.894 0.405 7.64 338.3 10.48
12/31/2021 10:15:00 AM 8.86 47.948 0.405 7.64 336.9 10.58
12/31/2021 10:30:00 AM 8.9 48.02 0.405 7.65 317.8 10.64
12/31/2021 10:45:00 AM 8.94 48.092 0.405 7.65 328.5 10.71
12/31/2021 11:00:00 AM 8.99 48.182 0.406 7.66 301.3 10.81
12/31/2021 11:15:00 AM 9.04 48.272 0.406 7.67 316.1 10.9
12/31/2021 11:30:00 AM 9.14 48.452 0.404 7.68 334.1 11.05
12/31/2021 11:45:00 AM 9.2 48.56 0.405 7.69 368.1 11.12
12/31/2021 12:00:00 PM 9.25 48.65 0.404 7.69 390.2 11.19
12/31/2021 12:15:00 PM 9.35 48.83 0.404 7.71 387.3 11.32
12/31/2021 12:30:00 PM 9.42 48.956 0.404 7.73 334.9 11.38
12/31/2021 12:45:00 PM 9.54 49.172 0.404 7.73 301.1 11.48
12/31/2021 1:00:00 PM 9.6 49.28 0.404 7.75 344.6 11.43
12/31/2021 1:15:00 PM 9.66 49.388 0.404 7.75 348.4 11.5
12/31/2021 1:30:00 PM 9.71 49.478 0.404 7.76 321.7 11.48
12/31/2021 1:45:00 PM 9.78 49.604 0.404 7.76 337 11.51
12/31/2021 2:00:00 PM 9.83 49.694 0.404 7.76 308.1 11.54
12/31/2021 2:15:00 PM 9.88 49.784 0.404 7.77 401 11.54
12/31/2021 2:30:00 PM 9.92 49.856 0.404 7.78 415.7 11.57
12/31/2021 2:45:00 PM 9.98 49.964 0.405 7.78 389.7 11.59
12/31/2021 3:00:00 PM 10.02 50.036 0.404 7.79 321 11.54
12/31/2021 3:15:00 PM 10.04 50.072 0.404 7.79 363.4 11.46
12/31/2021 3:30:00 PM 10.05 50.09 0.404 7.78 313.5 11.36
12/31/2021 3:45:00 PM 10.06 50.108 0.405 7.77 340.4 11.26
12/31/2021 4:00:00 PM 10.08 50.144 0.405 7.77 334.1 11.21
12/31/2021 4:15:00 PM 10.11 50.198 0.405 7.77 359.3 11.14
12/31/2021 4:30:00 PM 10.14 50.252 0.405 7.77 309.6 11.04
12/31/2021 4:45:00 PM 10.16 50.288 0.405 7.76 366.9 10.94
12/31/2021 5:00:00 PM 10.18 50.324 0.405 7.75 311.1 10.8
12/31/2021 5:15:00 PM 10.19 50.342 0.405 7.74 295.4 10.69
12/31/2021 5:30:00 PM 10.2 50.36 0.405 7.74 345.7 10.6
12/31/2021 5:45:00 PM 10.21 50.378 0.405 7.73 328.7 10.52
12/31/2021 6:00:00 PM 10.21 50.378 0.405 7.72 315.4 10.47
12/31/2021 6:15:00 PM 10.21 50.378 0.405 7.72 292.4 10.4
12/31/2021 6:30:00 PM 10.21 50.378 0.405 7.7 300.9 10.35
12/31/2021 6:45:00 PM 10.2 50.36 0.405 7.7 265.7 10.29
12/31/2021 7:00:00 PM 10.19 50.342 0.405 7.69 301.6 10.22
12/31/2021 7:15:00 PM 10.17 50.306 0.405 7.69 294.4 10.18
12/31/2021 7:30:00 PM 10.16 50.288 0.405 7.68 298.1 10.12
12/31/2021 7:45:00 PM 10.14 50.252 0.405 7.68 317.1 10.08
12/31/2021 8:00:00 PM 10.11 50.198 0.405 7.67 336.4 10.03
12/31/2021 8:15:00 PM 10.09 50.162 0.405 7.67 332.5 9.99
12/31/2021 8:30:00 PM 10.06 50.108 0.405 7.67 343.2 9.94
12/31/2021 8:45:00 PM 10.03 50.054 0.405 7.66 303.4 9.91
12/31/2021 9:00:00 PM 10.01 50.018 0.405 7.66 350.6 9.88
12/31/2021 9:15:00 PM 9.98 49.964 0.405 7.66 294 9.85
12/31/2021 9:30:00 PM 9.96 49.928 0.405 7.66 332.3 9.83
12/31/2021 9:45:00 PM 9.94 49.892 0.405 7.65 333.7 9.82
12/31/2021 10:00:00 PM 9.92 49.856 0.405 7.65 270.9 9.8
12/31/2021 10:15:00 PM 9.9 49.82 0.406 7.64 302.3 9.79
12/31/2021 10:30:00 PM 9.88 49.784 0.406 7.64 328.9 9.78
12/31/2021 10:45:00 PM 9.86 49.748 0.406 7.64 314.9 9.76
12/31/2021 11:00:00 PM 9.84 49.712 0.406 7.64 319 9.75
12/31/2021 11:15:00 PM 9.82 49.676 0.406 7.64 323.2 9.75
12/31/2021 11:30:00 PM 9.79 49.622 0.406 7.63 304.7 9.75
12/31/2021 11:45:00 PM 9.77 49.586 0.406 7.65 280.6 9.74
1/1/2022 12:00:00 AM 9.74 49.532 0.407 7.63 307.1 9.74
1/1/2022 12:15:00 AM 9.71 49.478 0.407 7.63 402.3 9.74
1/1/2022 12:30:00 AM 9.68 49.424 0.408 7.63 334.7 9.73
1/1/2022 12:45:00 AM 9.65 49.37 0.408 7.63 301.9 9.74
1/1/2022 1:00:00 AM 9.62 49.316 0.408 7.63 352.3 9.75
1/1/2022 1:15:00 AM 9.59 49.262 0.408 7.62 302.7 9.74
1/1/2022 1:30:00 AM 9.56 49.208 0.409 7.63 331.2 9.75
1/1/2022 1:45:00 AM 9.54 49.172 0.409 7.62 364.9 9.77
1/1/2022 2:00:00 AM 9.51 49.118 0.409 7.62 299 9.76
1/1/2022 2:15:00 AM 9.48 49.064 0.409 7.62 294.6 9.77
1/1/2022 2:30:00 AM 9.46 49.028 0.409 7.63 279 9.79
1/1/2022 2:45:00 AM 9.43 48.974 0.409 7.62 330.4 9.79
1/1/2022 3:00:00 AM 9.41 48.938 0.409 7.62 331.9 9.8
1/1/2022 3:15:00 AM 9.38 48.884 0.408 7.62 326.6 9.8
1/1/2022 3:30:00 AM 9.36 48.848 0.409 7.62 320.1 9.81
1/1/2022 3:45:00 AM 9.34 48.812 0.408 7.61 358.2 9.83
1/1/2022 4:00:00 AM 9.31 48.758 0.408 7.61 316.4 9.83
1/1/2022 4:15:00 AM 9.29 48.722 0.408 7.62 434.5 9.83
1/1/2022 4:30:00 AM 9.27 48.686 0.408 7.62 341.9 9.84
1/1/2022 4:45:00 AM 9.25 48.65 0.408 7.61 363.4 9.84
1/1/2022 5:00:00 AM 9.23 48.614 0.409 7.61 307.7 9.85
1/1/2022 5:15:00 AM 9.21 48.578 0.409 7.6 285.1 9.87
1/1/2022 5:30:00 AM 9.19 48.542 0.409 7.61 275.4 9.87
1/1/2022 5:45:00 AM 9.16 48.488 0.409 7.61 274 9.88
1/1/2022 6:00:00 AM 9.15 48.47 0.41 7.62 346.2 9.9
1/1/2022 6:15:00 AM 9.13 48.434 0.409 7.62 271.9 9.89
1/1/2022 6:30:00 AM 9.11 48.398 0.409 7.61 320.5 9.91
1/1/2022 6:45:00 AM 9.09 48.362 0.409 7.61 293.5 9.91
1/1/2022 7:00:00 AM 9.08 48.344 0.409 7.61 324.1 9.92
1/1/2022 7:15:00 AM 9.07 48.326 0.408 7.62 329.6 9.93
1/1/2022 7:30:00 AM 9.06 48.308 0.408 7.61 349.6 9.93
1/1/2022 7:45:00 AM 9.05 48.29 0.408 7.61 377.9 9.92
1/1/2022 8:00:00 AM 9.04 48.272 0.409 7.61 442.8 9.95
1/1/2022 8:15:00 AM 9.04 48.272 0.408 7.61 458.8 9.95
1/1/2022 8:30:00 AM 9.04 48.272 0.407 7.61 317.7 9.98
1/1/2022 8:45:00 AM 9.04 48.272 0.407 7.61 345.4 10.01
1/1/2022 9:00:00 AM 9.04 48.272 0.407 7.61 322.8 10.03
1/1/2022 9:15:00 AM 9.05 48.29 0.408 7.62 287.8 10.06
1/1/2022 9:30:00 AM 9.06 48.308 0.407 7.63 294.5 10.1
1/1/2022 9:45:00 AM 9.07 48.326 0.407 7.63 303.7 10.15
1/1/2022 10:00:00 AM 9.09 48.362 0.406 7.63 351.9 10.21
1/1/2022 10:15:00 AM 9.1 48.38 0.406 7.64 287.3 10.24
1/1/2022 10:30:00 AM 9.12 48.416 0.406 7.64 303.4 10.28
1/1/2022 10:45:00 AM 9.13 48.434 0.405 7.64 312.5 10.32
1/1/2022 11:00:00 AM 9.16 48.488 0.405 7.64 309.9 10.37
1/1/2022 11:15:00 AM 9.18 48.524 0.404 7.64 317.9 10.4
1/1/2022 11:30:00 AM 9.2 48.56 0.405 7.65 349.4 10.46
1/1/2022 11:45:00 AM 9.23 48.614 0.405 7.65 297.1 10.5
1/1/2022 12:00:00 PM 9.26 48.668 0.405 7.66 295.9 10.54
1/1/2022 12:15:00 PM 9.29 48.722 0.405 7.66 325.2 10.58
1/1/2022 12:30:00 PM 9.33 48.794 0.404 7.67 335.2 10.66
1/1/2022 12:45:00 PM 9.36 48.848 0.404 7.68 289.4 10.7
1/1/2022 1:00:00 PM 9.4 48.92 0.405 7.68 321.2 10.77
1/1/2022 1:15:00 PM 9.45 49.01 0.404 7.69 325.4 10.83
1/1/2022 1:30:00 PM 9.5 49.1 0.404 7.7 321.6 10.91
1/1/2022 1:45:00 PM 9.53 49.154 0.404 7.7 296.9 10.89
1/1/2022 2:00:00 PM 9.56 49.208 0.403 7.7 322.5 10.87
1/1/2022 2:15:00 PM 9.57 49.226 0.403 7.7 301.8 10.81
1/1/2022 2:30:00 PM 9.58 49.244 0.402 7.7 329.8 10.75
1/1/2022 2:45:00 PM 9.6 49.28 0.402 7.7 318.9 10.71
1/1/2022 3:00:00 PM 9.62 49.316 0.402 7.7 324.4 10.68
1/1/2022 3:15:00 PM 9.64 49.352 0.402 7.7 341.7 10.66
1/1/2022 3:30:00 PM 9.66 49.388 0.402 7.69 310.3 10.6
1/1/2022 3:45:00 PM 9.68 49.424 0.401 7.69 301.4 10.56
1/1/2022 4:00:00 PM 9.69 49.442 0.4 7.69 298.5 10.48
1/1/2022 4:15:00 PM 9.7 49.46 0.398 7.67 345.3 10.42
1/1/2022 4:30:00 PM 9.72 49.496 0.397 7.68 332.8 10.38
1/1/2022 4:45:00 PM 9.73 49.514 0.398 7.68 306 10.31
1/1/2022 5:00:00 PM 9.75 49.55 0.399 7.67 295.5 10.29
1/1/2022 5:15:00 PM 9.76 49.568 0.401 7.68 304.1 10.25
1/1/2022 5:30:00 PM 9.78 49.604 0.4 7.66 311.3 10.19
1/1/2022 5:45:00 PM 9.79 49.622 0.399 7.66 321.9 10.15
1/1/2022 6:00:00 PM 9.8 49.64 0.397 7.66 310.5 10.12
1/1/2022 6:15:00 PM 9.81 49.658 0.396 7.66 327.4 10.09
1/1/2022 6:30:00 PM 9.82 49.676 0.393 7.65 285.4 10.06
1/1/2022 6:45:00 PM 9.83 49.694 0.387 7.65 310.2 10.02
1/1/2022 7:00:00 PM 9.83 49.694 0.382 7.64 309.1 9.98
1/1/2022 7:15:00 PM 9.84 49.712 0.381 7.63 319.3 9.94
1/1/2022 7:30:00 PM 9.84 49.712 0.38 7.65 346 9.88
1/1/2022 7:45:00 PM 9.85 49.73 0.38 7.63 315 9.85
1/1/2022 8:00:00 PM 9.84 49.712 0.379 7.63 313.3 9.83
1/1/2022 8:15:00 PM 9.85 49.73 0.38 7.62 359.7 9.81
1/1/2022 8:30:00 PM 9.85 49.73 0.378 7.62 367.7 9.79
1/1/2022 8:45:00 PM 9.85 49.73 0.374 7.62 311.9 9.76
1/1/2022 9:00:00 PM 9.85 49.73 0.367 7.62 347 9.73
1/1/2022 9:15:00 PM 9.83 49.694 0.36 7.61 377.5 9.72
1/1/2022 9:30:00 PM 9.81 49.658 0.354 7.6 431.4 9.7
1/1/2022 9:45:00 PM 9.79 49.622 0.351 7.6 392.9 9.65
1/1/2022 10:00:00 PM 9.77 49.586 0.351 7.59 484.5 9.61
1/1/2022 10:15:00 PM 9.74 49.532 0.351 7.59 490.9 9.58
1/1/2022 10:30:00 PM 9.71 49.478 0.348 7.59 591.8 9.58
1/1/2022 10:45:00 PM 9.66 49.388 0.345 7.59 467.6 9.57
1/1/2022 11:00:00 PM 9.6 49.28 0.342 7.58 517.5 9.56
1/1/2022 11:15:00 PM 9.52 49.136 0.336 7.57 555.4 9.54
1/1/2022 11:30:00 PM 9.45 49.01 0.33 7.57 529.8 9.55
1/1/2022 11:45:00 PM 9.39 48.902 0.321 7.57 579.9 9.55
1/2/2022 12:00:00 AM 9.36 48.848 0.321 7.55 604.6 9.56
1/2/2022 12:15:00 AM 9.33 48.794 0.319 7.55 580.1 9.54
1/2/2022 12:30:00 AM 9.32 48.776 0.32 7.55 668.1 9.5
1/2/2022 12:45:00 AM 9.32 48.776 0.322 7.54 565.9 9.49
1/2/2022 1:00:00 AM 9.33 48.794 0.325 7.53 591.9 9.47
1/2/2022 1:15:00 AM 9.34 48.812 0.327 7.52 518.7 9.46
1/2/2022 1:30:00 AM 9.36 48.848 0.33 7.52 613 9.46
1/2/2022 1:45:00 AM 9.37 48.866 0.333 7.51 604.6 9.46
1/2/2022 2:00:00 AM 9.38 48.884 0.336 7.52 563.3 9.47
1/2/2022 2:15:00 AM 9.4 48.92 0.338 7.5 568.4 9.47
1/2/2022 2:30:00 AM 9.41 48.938 0.341 7.5 662 9.48
1/2/2022 2:45:00 AM 9.42 48.956 0.314 7.5 623.1 9.48
1/2/2022 3:00:00 AM 9.42 48.956 0.345 7.51 635.8 9.49
1/2/2022 3:15:00 AM 9.43 48.974 0.345 7.5 658.4 9.5
1/2/2022 3:30:00 AM 9.43 48.974 0.336 7.49 620.2 9.51
1/2/2022 3:45:00 AM 9.43 48.974 0.344 7.5 570.8 9.51
1/2/2022 4:00:00 AM 9.43 48.974 0.349 7.49 546.2 9.52
1/2/2022 4:15:00 AM 9.43 48.974 0.35 7.49 563.8 9.52
1/2/2022 4:30:00 AM 9.43 48.974 0.351 7.49 555.3 9.52
1/2/2022 4:45:00 AM 9.43 48.974 0.351 7.5 517.7 9.53
1/2/2022 5:00:00 AM 9.43 48.974 0.351 7.48 552.1 9.53
1/2/2022 5:15:00 AM 9.43 48.974 0.352 7.49 540.3 9.55
1/2/2022 5:30:00 AM 9.43 48.974 0.352 7.49 469.5 9.55
1/2/2022 5:45:00 AM 9.43 48.974 0.354 7.48 587.2 9.57
1/2/2022 6:00:00 AM 9.43 48.974 0.355 7.49 605 9.57
1/2/2022 6:15:00 AM 9.44 48.992 0.357 7.49 520.8 9.57
1/2/2022 6:30:00 AM 9.45 49.01 0.359 7.49 549.7 9.58
1/2/2022 6:45:00 AM 9.45 49.01 0.361 7.5 646.8 9.58
1/2/2022 7:00:00 AM 9.46 49.028 0.364 7.49 588.6 9.59
1/2/2022 7:15:00 AM 9.46 49.028 0.366 7.49 632.7 9.59
1/2/2022 7:30:00 AM 9.46 49.028 0.369 7.51 600 9.6
1/2/2022 7:45:00 AM 9.47 49.046 0.371 7.49 527.3 9.62
1/2/2022 8:00:00 AM 9.48 49.064 0.374 7.5 626.9 9.63
1/2/2022 8:15:00 AM 9.49 49.082 0.376 7.51 620.6 9.62
1/2/2022 8:30:00 AM 9.49 49.082 0.379 7.5 648 9.63
1/2/2022 8:45:00 AM 9.5 49.1 0.381 7.51 652.7 9.64
1/2/2022 9:00:00 AM 9.52 49.136 0.382 7.51 629.1 9.67
1/2/2022 9:15:00 AM 9.53 49.154 0.384 7.51 689.6 9.67
1/2/2022 9:30:00 AM 9.55 49.19 0.385 7.52 588.2 9.72
1/2/2022 9:45:00 AM 9.57 49.226 0.387 7.53 596.8 9.75
1/2/2022 10:00:00 AM 9.59 49.262 0.388 7.54 510.6 9.79
1/2/2022 10:15:00 AM 9.63 49.334 0.389 7.55 624 9.86
1/2/2022 10:30:00 AM 9.67 49.406 0.39 7.55 506.2 9.92
1/2/2022 10:45:00 AM 9.7 49.46 0.39 7.56 605 9.97
1/2/2022 11:00:00 AM 9.73 49.514 0.391 7.56 571.4 9.99
1/2/2022 11:15:00 AM 9.74 49.532 0.392 7.56 540.3 9.99
1/2/2022 11:30:00 AM 9.75 49.55 0.393 7.57 554 10.01
1/2/2022 11:45:00 AM 9.78 49.604 0.393 7.58 562.5 10.05
1/2/2022 12:00:00 PM 9.81 49.658 0.394 7.58 466.3 10.14
1/2/2022 12:15:00 PM 9.86 49.748 0.394 7.59 477.6 10.22
1/2/2022 12:30:00 PM 9.91 49.838 0.394 7.61 457.1 10.28
1/2/2022 12:45:00 PM 9.95 49.91 0.395 7.61 514.6 10.36
1/2/2022 1:00:00 PM 9.99 49.982 0.395 7.62 484.5 10.43
1/2/2022 1:15:00 PM 10.04 50.072 0.395 7.62 561.1 10.5
1/2/2022 1:30:00 PM 10.09 50.162 0.396 7.64 527.6 10.56
1/2/2022 1:45:00 PM 10.13 50.234 0.396 7.64 565.8 10.59
1/2/2022 2:00:00 PM 10.15 50.27 0.396 7.65 567.8 10.61
1/2/2022 2:15:00 PM 10.16 50.288 0.397 7.64 552.7 10.6
1/2/2022 2:30:00 PM 10.17 50.306 0.397 7.65 493.9 10.61
1/2/2022 2:45:00 PM 10.18 50.324 0.397 7.65 617.7 10.6
1/2/2022 3:00:00 PM 10.18 50.324 0.398 7.65 555.4 10.6
1/2/2022 3:15:00 PM 10.18 50.324 0.398 7.65 592 10.57
1/2/2022 3:30:00 PM 10.19 50.342 0.398 7.66 625.4 10.56
1/2/2022 3:45:00 PM 10.19 50.342 0.398 7.65 590.7 10.56
1/2/2022 4:00:00 PM 10.19 50.342 0.399 7.65 633.1 10.51
1/2/2022 4:15:00 PM 10.18 50.324 0.399 7.65 682.1 10.45
1/2/2022 4:30:00 PM 10.17 50.306 0.399 7.65 569.1 10.41
1/2/2022 4:45:00 PM 10.16 50.288 0.399 7.66 583.2 10.39
1/2/2022 5:00:00 PM 10.13 50.234 0.399 7.65 518.3 10.36
1/2/2022 5:15:00 PM 10.11 50.198 0.399 7.65 602.1 10.32
1/2/2022 5:30:00 PM 10.07 50.126 0.398 7.65 649.6 10.28
1/2/2022 5:45:00 PM 10.01 50.018 0.398 7.64 760.9 10.25
1/2/2022 6:00:00 PM 9.97 49.946 0.398 7.64 650.7 10.22
1/2/2022 6:15:00 PM 9.93 49.874 0.398 7.64 787.5 10.21
1/2/2022 6:30:00 PM 9.89 49.802 0.398 7.64 677.7 10.2
1/2/2022 6:45:00 PM 9.83 49.694 0.397 7.63 652.5 10.18
1/2/2022 7:00:00 PM 9.77 49.586 0.396 7.63 673.8 10.16
1/2/2022 7:15:00 PM 9.71 49.478 0.396 7.63 738.6 10.15
1/2/2022 7:30:00 PM 9.65 49.37 0.396 7.62 554.4 10.11
1/2/2022 7:45:00 PM 9.58 49.244 0.396 7.62 591.2 10.11
1/2/2022 8:00:00 PM 9.52 49.136 0.395 7.62 564.6 10.1
1/2/2022 8:15:00 PM 9.44 48.992 0.395 7.62 620.1 10.09
1/2/2022 8:30:00 PM 9.37 48.866 0.395 7.61 623.2 10.08
1/2/2022 8:45:00 PM 9.3 48.74 0.395 7.61 604.2 10.08
1/2/2022 9:00:00 PM 9.22 48.596 0.395 7.61 677.2 10.08
1/2/2022 9:15:00 PM 9.13 48.434 0.395 7.6 624.6 10.09
1/2/2022 9:30:00 PM 9.05 48.29 0.395 7.6 584.8 10.09
1/2/2022 9:45:00 PM 8.97 48.146 0.396 7.6 607.7 10.1
1/2/2022 10:00:00 PM 8.88 47.984 0.396 7.6 627.9 10.11
1/2/2022 10:15:00 PM 8.81 47.858 0.396 7.59 597.4 10.12
1/2/2022 10:30:00 PM 8.74 47.732 0.397 7.6 609.9 10.14
1/2/2022 10:45:00 PM 8.67 47.606 0.397 7.6 538.2 10.14
1/2/2022 11:00:00 PM 8.6 47.48 0.397 7.6 654.3 10.15
1/2/2022 11:15:00 PM 8.52 47.336 0.398 7.59 603.2 10.16
1/2/2022 11:30:00 PM 8.46 47.228 0.398 7.59 588.2 10.19
1/2/2022 11:45:00 PM 8.4 47.12 0.398 7.59 628.8 10.21
1/3/2022 12:00:00 AM 8.32 46.976 0.399 7.59 537.1 10.24
1/3/2022 12:15:00 AM 8.25 46.85 0.399 7.57 570.3 10.26
1/3/2022 12:30:00 AM 8.18 46.724 0.396 7.58 565.4 10.27
1/3/2022 12:45:00 AM 8.11 46.598 0.386 7.59 523.2 10.3
1/3/2022 1:00:00 AM 8.04 46.472 0.364 7.58 478.8 10.32
1/3/2022 1:15:00 AM 7.98 46.364 0.4 7.59 580.4 10.33
1/3/2022 1:30:00 AM 7.91 46.238 0.4 7.59 551.6 10.36
1/3/2022 1:45:00 AM 7.85 46.13 0.4 7.58 550.8 10.39
1/3/2022 2:00:00 AM 7.8 46.04 0.4 7.59 563 10.41
1/3/2022 2:15:00 AM 7.75 45.95 0.401 7.59 603.4 10.42
1/3/2022 2:30:00 AM 7.7 45.86 0.401 7.58 536.3 10.44
1/3/2022 2:45:00 AM 7.65 45.77 0.402 7.59 496.4 10.46
1/3/2022 3:00:00 AM 7.61 45.698 0.402 7.58 513 10.45
1/3/2022 3:15:00 AM 7.57 45.626 0.402 7.58 535.7 10.5
1/3/2022 3:30:00 AM 7.53 45.554 0.403 7.58 511.3 10.5
1/3/2022 3:45:00 AM 7.48 45.464 0.403 7.59 559.4 10.52
1/3/2022 4:00:00 AM 7.44 45.392 0.403 7.58 486.7 10.55
1/3/2022 4:15:00 AM 7.4 45.32 0.404 7.58 569.9 10.55
1/3/2022 4:30:00 AM 7.36 45.248 0.404 7.59 520.6 10.57
1/3/2022 4:45:00 AM 7.32 45.176 0.405 7.59 520.3 10.58
1/3/2022 5:00:00 AM 7.28 45.104 0.405 7.59 570.2 10.6
1/3/2022 5:15:00 AM 7.24 45.032 0.405 7.59 568.7 10.6
1/3/2022 5:30:00 AM 7.2 44.96 0.406 7.59 537.6 10.63
1/3/2022 5:45:00 AM 7.17 44.906 0.406 7.59 593.1 10.64
1/3/2022 6:00:00 AM 7.13 44.834 0.406 7.59 546.8 10.65
1/3/2022 6:15:00 AM 7.09 44.762 0.407 7.59 547.5 10.65
1/3/2022 6:30:00 AM 7.05 44.69 0.407 7.59 569 10.67
1/3/2022 6:45:00 AM 7.01 44.618 0.408 7.59 553.4 10.68
1/3/2022 7:00:00 AM 6.97 44.546 0.408 7.59 547.3 10.7
1/3/2022 7:15:00 AM 6.93 44.474 0.408 7.6 555.7 10.71
1/3/2022 7:30:00 AM 6.89 44.402 0.409 7.6 543.2 10.73
1/3/2022 7:45:00 AM 6.84 44.312 0.409 7.62 540.5 10.75
1/3/2022 8:00:00 AM 6.8 44.24 0.409 7.6 551.1 10.77
1/3/2022 8:15:00 AM 6.77 44.186 0.41 7.6 524.1 10.78
1/3/2022 8:30:00 AM 6.73 44.114 0.41 7.6 563.4 10.81
1/3/2022 8:45:00 AM 6.69 44.042 0.41 7.6 592.6 10.85
1/3/2022 9:00:00 AM 6.65 43.97 0.411 7.61 557 10.89
1/3/2022 9:15:00 AM 6.61 43.898 0.411 7.61 529 10.93
1/3/2022 9:30:00 AM 6.56 43.808 0.411 7.62 520.2 10.98
1/3/2022 9:45:00 AM 6.52 43.736 0.411 7.62 533 11.03
1/3/2022 10:00:00 AM 6.48 43.664 0.412 7.63 502.9 11.1
1/3/2022 10:15:00 AM 6.44 43.592 0.412 7.65 572.1 11.16
1/3/2022 10:30:00 AM 6.42 43.556 0.412 7.65 526.4 11.22
1/3/2022 10:45:00 AM 6.4 43.52 0.413 7.65 557 11.3
1/3/2022 11:00:00 AM 6.38 43.484 0.413 7.65 481.2 11.36
1/3/2022 11:15:00 AM 6.35 43.43 0.413 7.67 532.1 11.41
1/3/2022 11:30:00 AM 6.34 43.412 0.413 7.67 502.1 11.48
1/3/2022 11:45:00 AM 6.33 43.394 0.413 7.69 539.9 11.54
1/3/2022 12:00:00 PM 6.34 43.412 0.413 7.7 495.2 11.61
1/3/2022 12:15:00 PM 6.36 43.448 0.414 7.7 494.2 11.7
1/3/2022 12:30:00 PM 6.38 43.484 0.414 7.71 488.5 11.77
1/3/2022 12:45:00 PM 6.42 43.556 0.414 7.72 524.5 11.85
1/3/2022 1:00:00 PM 6.44 43.592 0.414 7.73 522.4 11.92
1/3/2022 1:15:00 PM 6.45 43.61 0.414 7.74 515.1 11.97
1/3/2022 1:30:00 PM 6.46 43.628 0.414 7.74 464.9 12.05
1/3/2022 1:45:00 PM 6.47 43.646 0.414 7.75 503.4 12.12
1/3/2022 2:00:00 PM 6.5 43.7 0.414 7.75 515.3 12.19
1/3/2022 2:15:00 PM 6.53 43.754 0.414 7.75 502.1 12.24
1/3/2022 2:30:00 PM 6.55 43.79 0.415 7.76 490.1 12.26
1/3/2022 2:45:00 PM 6.56 43.808 0.415 7.75 479.6 12.26
1/3/2022 3:00:00 PM 6.56 43.808 0.415 7.74 501.8 12.24
1/3/2022 3:15:00 PM 6.55 43.79 0.415 7.73 548.7 12.25
1/3/2022 3:30:00 PM 6.55 43.79 0.415 7.75 595.9 12.22
1/3/2022 3:45:00 PM 6.53 43.754 0.415 7.73 555.1 12.2
1/3/2022 4:00:00 PM 6.51 43.718 0.416 7.73 518.2 12.16
1/3/2022 4:15:00 PM 6.49 43.682 0.416 7.72 490.6 12.11
1/3/2022 4:30:00 PM 6.46 43.628 0.416 7.72 532.2 12.04
1/3/2022 4:45:00 PM 6.42 43.556 0.416 7.72 525.5 11.99
1/3/2022 5:00:00 PM 6.4 43.52 0.416 7.71 518.6 11.93
1/3/2022 5:15:00 PM 6.39 43.502 0.416 7.71 535.7 11.87
1/3/2022 5:30:00 PM 6.38 43.484 0.416 7.7 519.5 11.81
1/3/2022 5:45:00 PM 6.37 43.466 0.416 7.69 530.9 11.74
1/3/2022 6:00:00 PM 6.34 43.412 0.416 7.69 499.4 11.71
1/3/2022 6:15:00 PM 6.32 43.376 0.416 7.69 530.2 11.67
1/3/2022 6:30:00 PM 6.29 43.322 0.416 7.69 528.5 11.65
1/3/2022 6:45:00 PM 6.27 43.286 0.417 7.68 595.4 11.61
1/3/2022 7:00:00 PM 6.25 43.25 0.417 7.68 567.3 11.59
1/3/2022 7:15:00 PM 6.23 43.214 0.417 7.67 546.7 11.54
1/3/2022 7:30:00 PM 6.2 43.16 0.417 7.67 485.9 11.52
1/3/2022 7:45:00 PM 6.16 43.088 0.417 7.67 507.6 11.48
1/3/2022 8:00:00 PM 6.12 43.016 0.417 7.68 484.9 11.47
1/3/2022 8:15:00 PM 6.09 42.962 0.418 7.67 595.7 11.45
1/3/2022 8:30:00 PM 6.07 42.926 0.418 7.66 549.9 11.43
1/3/2022 8:45:00 PM 6.04 42.872 0.418 7.66 561.4 11.4
1/3/2022 9:00:00 PM 6.01 42.818 0.418 7.66 573 11.37
1/3/2022 9:15:00 PM 5.96 42.728 0.419 7.66 525.4 11.38
1/3/2022 9:30:00 PM 5.91 42.638 0.419 7.67 474.5 11.38
1/3/2022 9:45:00 PM 5.87 42.566 0.419 7.65 490.3 11.36
1/3/2022 10:00:00 PM 5.82 42.476 0.42 7.65 534.2 11.34
1/3/2022 10:15:00 PM 5.76 42.368 0.42 7.65 508 11.34
1/3/2022 10:30:00 PM 5.71 42.278 0.421 7.64 512.1 11.35
1/3/2022 10:45:00 PM 5.67 42.206 0.421 7.63 504.1 11.34
1/3/2022 11:00:00 PM 5.62 42.116 0.421 7.64 537.9 11.33
1/3/2022 11:15:00 PM 5.57 42.026 0.422 7.63 519.7 11.35
1/3/2022 11:30:00 PM 5.52 41.936 0.422 7.64 503.2 11.35
1/3/2022 11:45:00 PM 5.47 41.846 0.422 7.63 529 11.36
1/4/2022 12:00:00 AM 5.42 41.756 0.422 7.63 546.1 11.38
1/4/2022 12:15:00 AM 5.38 41.684 0.422 7.63 533 11.39
1/4/2022 12:30:00 AM 5.35 41.63 0.423 7.62 505.4 11.4
1/4/2022 12:45:00 AM 5.31 41.558 0.423 7.63 540 11.4
1/4/2022 1:00:00 AM 5.28 41.504 0.424 7.62 556 11.41
1/4/2022 1:15:00 AM 5.24 41.432 0.424 7.62 539.1 11.42
1/4/2022 1:30:00 AM 5.21 41.378 0.425 7.63 542.8 11.44
1/4/2022 1:45:00 AM 5.19 41.342 0.424 7.62 501.8 11.46
1/4/2022 2:00:00 AM 5.17 41.306 0.424 7.62 495.9 11.47
1/4/2022 2:15:00 AM 5.16 41.288 0.424 7.61 526 11.48
1/4/2022 2:30:00 AM 5.13 41.234 0.424 7.61 540.5 11.5
1/4/2022 2:45:00 AM 5.11 41.198 0.424 7.62 505.5 11.5
1/4/2022 3:00:00 AM 5.08 41.144 0.424 7.62 519.5 11.52
1/4/2022 3:15:00 AM 5.06 41.108 0.424 7.62 505.3 11.52
1/4/2022 3:30:00 AM 5.03 41.054 0.424 7.62 509.2 11.53
1/4/2022 3:45:00 AM 5.01 41.018 0.424 7.61 504.8 11.55
1/4/2022 4:00:00 AM 5 41 0.424 7.62 506.4 11.56
1/4/2022 4:15:00 AM 4.98 40.964 0.425 7.63 490.2 11.56
1/4/2022 4:30:00 AM 4.96 40.928 0.425 7.63 497 11.57
1/4/2022 4:45:00 AM 4.95 40.91 0.425 7.62 496 11.57
1/4/2022 5:00:00 AM 4.93 40.874 0.424 7.62 504.3 11.57
1/4/2022 5:15:00 AM 4.93 40.874 0.424 7.62 520.4 11.58
1/4/2022 5:30:00 AM 4.92 40.856 0.425 7.62 523.3 11.58
1/4/2022 5:45:00 AM 4.9 40.82 0.424 7.62 503.7 11.58
1/4/2022 6:00:00 AM 4.89 40.802 0.425 7.62 483.5 11.6
1/4/2022 6:15:00 AM 4.88 40.784 0.425 7.62 553.7 11.59
1/4/2022 6:30:00 AM 4.86 40.748 0.425 7.63 531.9 11.61
1/4/2022 6:45:00 AM 4.85 40.73 0.425 7.62 497.5 11.6
1/4/2022 7:00:00 AM 4.84 40.712 0.425 7.62 508.4 11.61
1/4/2022 7:15:00 AM 4.82 40.676 0.426 7.62 496.2 11.6
1/4/2022 7:30:00 AM 4.81 40.658 0.426 7.62 478.8 11.62
1/4/2022 7:45:00 AM 4.8 40.64 0.426 7.62 490.8 11.64
1/4/2022 8:00:00 AM 4.79 40.622 0.426 7.63 510.3 11.66
1/4/2022 8:15:00 AM 4.78 40.604 0.426 7.62 510.1 11.69
1/4/2022 8:30:00 AM 4.78 40.604 0.426 7.62 501.4 11.74
1/4/2022 8:45:00 AM 4.77 40.586 0.426 7.62 519.1 11.78
1/4/2022 9:00:00 AM 4.79 40.622 0.426 7.64 542 11.84
1/4/2022 9:15:00 AM 4.81 40.658 0.426 7.63 515.7 11.92
1/4/2022 9:30:00 AM 4.85 40.73 0.423 7.64 515.6 12.01
1/4/2022 9:45:00 AM 4.9 40.82 0.425 7.65 515.2 12.07
1/4/2022 10:00:00 AM 4.97 40.946 0.411 7.66 534 12.16
1/4/2022 10:15:00 AM 5.04 41.072 0.414 7.66 528.2 12.25
1/4/2022 10:30:00 AM 5.11 41.198 0.403 7.67 517.8 12.31
1/4/2022 10:45:00 AM 5.19 41.342 0.426 7.68 496.3 12.37
1/4/2022 11:00:00 AM 5.28 41.504 0.426 7.68 529.3 12.44
1/4/2022 11:15:00 AM 5.37 41.666 0.426 7.68 509.2 12.5
1/4/2022 11:30:00 AM 5.46 41.828 0.426 7.69 505.7 12.54
1/4/2022 11:45:00 AM 5.55 41.99 0.426 7.7 511.5 12.59
1/4/2022 12:00:00 PM 5.65 42.17 0.426 7.71 491.6 12.64
1/4/2022 12:15:00 PM 5.75 42.35 0.426 7.71 499.9 12.67
1/4/2022 12:30:00 PM 5.87 42.566 0.426 7.72 480.3 12.69
1/4/2022 12:45:00 PM 5.98 42.764 0.426 7.72 497.7 12.74
1/4/2022 1:00:00 PM 6.09 42.962 0.425 7.73 497 12.74
1/4/2022 1:15:00 PM 6.2 43.16 0.426 7.74 537.7 12.77
1/4/2022 1:30:00 PM 6.3 43.34 0.426 7.74 496.4 12.8
1/4/2022 1:45:00 PM 6.39 43.502 0.425 7.75 493.9 12.81
1/4/2022 2:00:00 PM 6.48 43.664 0.425 7.75 488.3 12.8
1/4/2022 2:15:00 PM 6.55 43.79 0.406 7.76 513.5 12.78
1/4/2022 2:30:00 PM 6.64 43.952 0.407 7.77 539.7 12.75
1/4/2022 2:45:00 PM 6.71 44.078 0.402 7.77 480.5 12.69
1/4/2022 3:00:00 PM 6.78 44.204 0.42 7.78 494.7 12.68
1/4/2022 3:15:00 PM 6.85 44.33 0.425 7.77 482.5 12.64
1/4/2022 3:30:00 PM 6.9 44.42 0.425 7.78 501.5 12.56
1/4/2022 3:45:00 PM 6.96 44.528 0.425 7.77 498 12.51
1/4/2022 4:00:00 PM 7 44.6 0.425 7.77 471 12.41
1/4/2022 4:15:00 PM 7.04 44.672 0.425 7.77 466.8 12.32
1/4/2022 4:30:00 PM 7.07 44.726 0.424 7.77 491 12.25
1/4/2022 4:45:00 PM 7.08 44.744 0.425 7.77 474 12.13
1/4/2022 5:00:00 PM 7.09 44.762 0.425 7.75 467.3 12.01
1/4/2022 5:15:00 PM 7.11 44.798 0.425 7.76 495.5 11.92
1/4/2022 5:30:00 PM 7.12 44.816 0.424 7.75 453.1 11.83
1/4/2022 5:45:00 PM 7.12 44.816 0.424 7.75 496 11.73
1/4/2022 6:00:00 PM 7.13 44.834 0.424 7.74 452.6 11.67
1/4/2022 6:15:00 PM 7.15 44.87 0.424 7.74 446 11.59
1/4/2022 6:30:00 PM 7.15 44.87 0.424 7.74 487.4 11.54
1/4/2022 6:45:00 PM 7.16 44.888 0.424 7.74 460.4 11.47
1/4/2022 7:00:00 PM 7.17 44.906 0.424 7.72 441.6 11.4
1/4/2022 7:15:00 PM 7.16 44.888 0.424 7.71 447.4 11.36
1/4/2022 7:30:00 PM 7.16 44.888 0.424 7.71 461.5 11.3
1/4/2022 7:45:00 PM 7.15 44.87 0.424 7.71 468.7 11.26
1/4/2022 8:00:00 PM 7.13 44.834 0.424 7.7 453.4 11.2
1/4/2022 8:15:00 PM 7.11 44.798 0.425 7.7 421.4 11.17
1/4/2022 8:30:00 PM 7.09 44.762 0.425 7.69 449.7 11.12
1/4/2022 8:45:00 PM 7.06 44.708 0.425 7.69 466.1 11.1
1/4/2022 9:00:00 PM 7.02 44.636 0.425 7.69 427.5 11.08
1/4/2022 9:15:00 PM 6.98 44.564 0.426 7.68 471.9 11.05
1/4/2022 9:30:00 PM 6.93 44.474 0.426 7.68 471.5 11.02
1/4/2022 9:45:00 PM 6.89 44.402 0.427 7.67 453.7 11.02
1/4/2022 10:00:00 PM 6.84 44.312 0.429 7.67 467.4 11.01
1/4/2022 10:15:00 PM 6.79 44.222 0.431 7.66 469.9 10.98
1/4/2022 10:30:00 PM 6.74 44.132 0.433 7.67 475.3 11
1/4/2022 10:45:00 PM 6.68 44.024 0.432 7.66 469 10.99
1/4/2022 11:00:00 PM 6.62 43.916 0.429 7.66 463.4 10.99
1/4/2022 11:15:00 PM 6.57 43.826 0.429 7.65 433.1 10.98
1/4/2022 11:30:00 PM 6.52 43.736 0.428 7.65 531.2 10.99
1/4/2022 11:45:00 PM 6.47 43.646 0.428 7.66 480 11
1/5/2022 12:00:00 AM 6.41 43.538 0.429 7.65 460.4 11.01
1/5/2022 12:15:00 AM 6.36 43.448 0.429 7.65 468.9 11.01
1/5/2022 12:30:00 AM 6.3 43.34 0.429 7.64 455.9 11.03
1/5/2022 12:45:00 AM 6.24 43.232 0.429 7.64 447.5 11.04
1/5/2022 1:00:00 AM 6.19 43.142 0.429 7.65 477.8 11.05
1/5/2022 1:15:00 AM 6.12 43.016 0.429 7.64 440.9 11.04
1/5/2022 1:30:00 AM 6.08 42.944 0.429 7.64 442.1 11.08
1/5/2022 1:45:00 AM 6.02 42.836 0.43 7.63 465.8 11.11
1/5/2022 2:00:00 AM 5.97 42.746 0.43 7.64 461 11.11
1/5/2022 2:15:00 AM 5.92 42.656 0.43 7.64 441.7 11.12
1/5/2022 2:30:00 AM 5.86 42.548 0.43 7.63 433.2 11.15
1/5/2022 2:45:00 AM 5.81 42.458 0.43 7.63 447.8 11.15
1/5/2022 3:00:00 AM 5.78 42.404 0.43 7.63 469.2 11.17
1/5/2022 3:15:00 AM 5.73 42.314 0.43 7.63 446.7 11.2
1/5/2022 3:30:00 AM 5.7 42.26 0.43 7.63 465.7 11.2
1/5/2022 3:45:00 AM 5.65 42.17 0.43 7.62 464 11.2
1/5/2022 4:00:00 AM 5.63 42.134 0.43 7.63 467.1 11.23
1/5/2022 4:15:00 AM 5.6 42.08 0.43 7.63 455.4 11.24
1/5/2022 4:30:00 AM 5.58 42.044 0.43 7.62 442.7 11.25
1/5/2022 4:45:00 AM 5.55 41.99 0.431 7.63 451 11.25
1/5/2022 5:00:00 AM 5.54 41.972 0.431 7.62 431.6 11.26
1/5/2022 5:15:00 AM 5.53 41.954 0.431 7.64 421.3 11.26
1/5/2022 5:30:00 AM 5.52 41.936 0.431 7.62 434 11.26
1/5/2022 5:45:00 AM 5.51 41.918 0.431 7.62 512.4 11.28
1/5/2022 6:00:00 AM 5.5 41.9 0.431 7.62 439 11.28
1/5/2022 6:15:00 AM 5.48 41.864 0.431 7.62 420.4 11.28
1/5/2022 6:30:00 AM 5.47 41.846 0.431 7.63 477 11.28
1/5/2022 6:45:00 AM 5.46 41.828 0.431 7.62 460.1 11.28
1/5/2022 7:00:00 AM 5.44 41.792 0.431 7.63 426 11.29
1/5/2022 7:15:00 AM 5.43 41.774 0.431 7.63 456.9 11.28
1/5/2022 7:30:00 AM 5.42 41.756 0.431 7.62 424.6 11.29
1/5/2022 7:45:00 AM 5.41 41.738 0.432 7.63 425.7 11.31
1/5/2022 8:00:00 AM 5.41 41.738 0.432 7.62 407.8 11.32
1/5/2022 8:15:00 AM 5.42 41.756 0.432 7.63 426.4 11.36
1/5/2022 8:30:00 AM 5.44 41.792 0.432 7.63 433.3 11.42
1/5/2022 8:45:00 AM 5.46 41.828 0.433 7.64 426.5 11.49
1/5/2022 9:00:00 AM 5.49 41.882 0.432 7.65 438 11.52
1/5/2022 9:15:00 AM 5.5 41.9 0.433 7.65 429.4 11.56
1/5/2022 9:30:00 AM 5.53 41.954 0.432 7.65 403.9 11.6
1/5/2022 9:45:00 AM 5.56 42.008 0.433 7.64 444.8 11.63
1/5/2022 10:00:00 AM 5.58 42.044 0.433 7.65 449.5 11.67
1/5/2022 10:15:00 AM 5.61 42.098 0.432 7.66 396.4 11.69
1/5/2022 10:30:00 AM 5.65 42.17 0.432 7.67 451.7 11.77
1/5/2022 10:45:00 AM 5.68 42.224 0.415 7.67 500.4 11.83
1/5/2022 11:00:00 AM 5.73 42.314 0.433 7.67 418.1 11.89
1/5/2022 11:15:00 AM 5.77 42.386 0.432 7.67 432.1 11.92
1/5/2022 11:30:00 AM 5.82 42.476 0.429 7.68 401.5 11.98
1/5/2022 11:45:00 AM 5.87 42.566 0.408 7.69 421 12.04
1/5/2022 12:00:00 PM 5.93 42.674 0.414 7.69 437.7 12.09
1/5/2022 12:15:00 PM 5.99 42.782 0.424 7.69 448.3 12.12
1/5/2022 12:30:00 PM 6.05 42.89 0.431 7.7 444.1 12.14
1/5/2022 12:45:00 PM 6.11 42.998 0.379 7.71 457.1 12.2
1/5/2022 1:00:00 PM 6.18 43.124 0.413 7.72 461.6 12.24
1/5/2022 1:15:00 PM 6.26 43.268 0.432 7.73 458.8 12.27
1/5/2022 1:30:00 PM 6.32 43.376 0.432 7.75 454.9 12.27
1/5/2022 1:45:00 PM 6.38 43.484 0.432 7.74 472.6 12.29
1/5/2022 2:00:00 PM 6.43 43.574 0.431 7.75 448.4 12.3
1/5/2022 2:15:00 PM 6.47 43.646 0.431 7.74 437.3 12.27
1/5/2022 2:30:00 PM 6.54 43.772 0.431 7.75 438.4 12.32
1/5/2022 2:45:00 PM 6.61 43.898 0.431 7.74 426.1 12.33
1/5/2022 3:00:00 PM 6.68 44.024 0.43 7.75 433.3 12.32
1/5/2022 3:15:00 PM 6.72 44.096 0.431 7.75 441.8 12.26
1/5/2022 3:30:00 PM 6.74 44.132 0.431 7.76 472.8 12.23
1/5/2022 3:45:00 PM 6.77 44.186 0.431 7.76 428.6 12.17
1/5/2022 4:00:00 PM 6.8 44.24 0.431 7.77 439.4 12.12
1/5/2022 4:15:00 PM 6.83 44.294 0.431 7.76 443.3 12.06
1/5/2022 4:30:00 PM 6.85 44.33 0.431 7.76 401.1 11.99
1/5/2022 4:45:00 PM 6.86 44.348 0.43 7.75 426 11.89
1/5/2022 5:00:00 PM 6.86 44.348 0.43 7.74 410.4 11.8
1/5/2022 5:15:00 PM 6.86 44.348 0.431 7.76 418.8 11.7
1/5/2022 5:30:00 PM 6.86 44.348 0.431 7.74 408 11.63
1/5/2022 5:45:00 PM 6.86 44.348 0.431 7.73 389.9 11.57
1/5/2022 6:00:00 PM 6.86 44.348 0.43 7.72 415 11.49
1/5/2022 6:15:00 PM 6.87 44.366 0.43 7.72 459.5 11.43
1/5/2022 6:30:00 PM 6.87 44.366 0.43 7.72 421 11.39
1/5/2022 6:45:00 PM 6.87 44.366 0.429 7.72 419.1 11.33
1/5/2022 7:00:00 PM 6.87 44.366 0.429 7.72 427.2 11.28
1/5/2022 7:15:00 PM 6.87 44.366 0.43 7.71 469.2 11.21
1/5/2022 7:30:00 PM 6.87 44.366 0.43 7.71 478 11.19
1/5/2022 7:45:00 PM 6.86 44.348 0.429 7.71 429.1 11.16
1/5/2022 8:00:00 PM 6.85 44.33 0.429 7.7 463.4 11.1
1/5/2022 8:15:00 PM 6.83 44.294 0.429 7.69 448.6 11.07
1/5/2022 8:30:00 PM 6.82 44.276 0.429 7.7 535.8 11.03
1/5/2022 8:45:00 PM 6.81 44.258 0.429 7.69 433.4 11.02
1/5/2022 9:00:00 PM 6.8 44.24 0.429 7.68 458 10.98
1/5/2022 9:15:00 PM 6.78 44.204 0.43 7.68 537.8 10.96
1/5/2022 9:30:00 PM 6.77 44.186 0.43 7.68 438 10.91
1/5/2022 9:45:00 PM 6.74 44.132 0.43 7.68 434 10.91
1/5/2022 10:00:00 PM 6.72 44.096 0.43 7.68 445.9 10.89
1/5/2022 10:15:00 PM 6.7 44.06 0.43 7.68 437.5 10.88
1/5/2022 10:30:00 PM 6.7 44.06 0.431 7.66 481.6 10.87
1/5/2022 10:45:00 PM 6.68 44.024 0.431 7.66 471.7 10.86
1/5/2022 11:00:00 PM 6.64 43.952 0.432 7.67 459 10.84
1/5/2022 11:15:00 PM 6.59 43.862 0.431 7.67 454.2 10.84
1/5/2022 11:30:00 PM 6.55 43.79 0.431 7.66 462.5 10.83
1/5/2022 11:45:00 PM 6.52 43.736 0.431 7.65 470.3 10.8
1/6/2022 12:00:00 AM 6.49 43.682 0.431 7.65 467.6 10.84
1/6/2022 12:15:00 AM 6.46 43.628 0.428 7.65 476.9 10.84
1/6/2022 12:30:00 AM 6.43 43.574 0.431 7.65 482.5 10.85
1/6/2022 12:45:00 AM 6.38 43.484 0.431 7.64 426.1 10.85
1/6/2022 1:00:00 AM 6.33 43.394 0.431 7.64 443.5 10.86
1/6/2022 1:15:00 AM 6.27 43.286 0.432 7.65 456.8 10.87
1/6/2022 1:30:00 AM 6.21 43.178 0.432 7.65 454.3 10.89
1/6/2022 1:45:00 AM 6.16 43.088 0.432 7.66 448.7 10.91
1/6/2022 2:00:00 AM 6.1 42.98 0.432 7.65 465.4 10.92
1/6/2022 2:15:00 AM 6.03 42.854 0.432 7.64 468.7 10.94
1/6/2022 2:30:00 AM 5.96 42.728 0.432 7.65 469.5 10.97
1/6/2022 2:45:00 AM 5.89 42.602 0.432 7.64 464.2 10.99
1/6/2022 3:00:00 AM 5.83 42.494 0.432 7.65 445.6 11.01
1/6/2022 3:15:00 AM 5.78 42.404 0.432 7.65 468.3 11.02
1/6/2022 3:30:00 AM 5.72 42.296 0.432 7.65 433.2 11.05
1/6/2022 3:45:00 AM 5.66 42.188 0.432 7.66 455.6 11.07
1/6/2022 4:00:00 AM 5.61 42.098 0.433 7.65 435.8 11.08
1/6/2022 4:15:00 AM 5.54 41.972 0.433 7.64 464.2 11.1
1/6/2022 4:30:00 AM 5.47 41.846 0.433 7.65 450.8 11.13
1/6/2022 4:45:00 AM 5.42 41.756 0.433 7.64 495.1 11.15
1/6/2022 5:00:00 AM 5.37 41.666 0.432 7.66 527 11.18
1/6/2022 5:15:00 AM 5.32 41.576 0.432 7.65 447.2 11.21
1/6/2022 5:30:00 AM 5.27 41.486 0.432 7.66 430.8 11.23
1/6/2022 5:45:00 AM 5.21 41.378 0.433 7.66 462 11.24
1/6/2022 6:00:00 AM 5.15 41.27 0.432 7.65 447.6 11.26
1/6/2022 6:15:00 AM 5.09 41.162 0.433 7.64 471.1 11.29
1/6/2022 6:30:00 AM 5.04 41.072 0.433 7.65 476.2 11.31
1/6/2022 6:45:00 AM 4.98 40.964 0.433 7.65 510 11.33
1/6/2022 7:00:00 AM 4.93 40.874 0.433 7.65 460.8 11.35
1/6/2022 7:15:00 AM 4.87 40.766 0.433 7.65 451.9 11.38
1/6/2022 7:30:00 AM 4.82 40.676 0.433 7.64 457.5 11.4
1/6/2022 7:45:00 AM 4.78 40.604 0.433 7.65 474.4 11.44
1/6/2022 8:00:00 AM 4.72 40.496 0.433 7.66 463.6 11.48
1/6/2022 8:15:00 AM 4.69 40.442 0.433 7.66 490 11.53
1/6/2022 8:30:00 AM 4.65 40.37 0.433 7.66 492.4 11.59
1/6/2022 8:45:00 AM 4.62 40.316 0.433 7.66 460.2 11.67
1/6/2022 9:00:00 AM 4.6 40.28 0.434 7.67 447.2 11.75
1/6/2022 9:15:00 AM 4.59 40.262 0.434 7.68 453.7 11.86
1/6/2022 9:30:00 AM 4.58 40.244 0.434 7.68 419.2 11.96
1/6/2022 9:45:00 AM 4.6 40.28 0.434 7.69 451.8 12.05
1/6/2022 10:00:00 AM 4.63 40.334 0.435 7.69 453.7 12.1
1/6/2022 10:15:00 AM 4.67 40.406 0.434 7.69 506.4 12.17
1/6/2022 10:30:00 AM 4.71 40.478 0.434 7.7 471.2 12.27
1/6/2022 10:45:00 AM 4.76 40.568 0.434 7.71 455.6 12.34
1/6/2022 11:00:00 AM 4.8 40.64 0.434 7.71 449.9 12.48
1/6/2022 11:15:00 AM 4.84 40.712 0.433 7.72 441.3 12.57
1/6/2022 11:30:00 AM 4.89 40.802 0.434 7.73 452.1 12.66
1/6/2022 11:45:00 AM 4.95 40.91 0.434 7.73 447.9 12.71
1/6/2022 12:00:00 PM 5.02 41.036 0.434 7.74 438 12.72
1/6/2022 12:15:00 PM 5.07 41.126 0.434 7.74 481.8 12.73
1/6/2022 12:30:00 PM 5.11 41.198 0.434 7.75 527.5 12.84
1/6/2022 12:45:00 PM 5.16 41.288 0.434 7.76 462.3 12.91
1/6/2022 1:00:00 PM 5.21 41.378 0.434 7.77 464.7 12.95
1/6/2022 1:15:00 PM 5.27 41.486 0.434 7.77 447.8 12.97
1/6/2022 1:30:00 PM 5.32 41.576 0.433 7.78 462.1 13
1/6/2022 1:45:00 PM 5.39 41.702 0.433 7.78 438.2 13.03
1/6/2022 2:00:00 PM 5.44 41.792 0.433 7.79 438.2 13
1/6/2022 2:15:00 PM 5.48 41.864 0.433 7.79 441.1 12.98
1/6/2022 2:30:00 PM 5.53 41.954 0.433 7.79 462 12.97
1/6/2022 2:45:00 PM 5.59 42.062 0.433 7.79 411.3 12.95
1/6/2022 3:00:00 PM 5.66 42.188 0.433 7.8 465.4 12.91
1/6/2022 3:15:00 PM 5.71 42.278 0.432 7.82 423.1 12.82
1/6/2022 3:30:00 PM 5.75 42.35 0.433 7.8 467.8 12.71
1/6/2022 3:45:00 PM 5.79 42.422 0.434 7.79 423 12.64
1/6/2022 4:00:00 PM 5.82 42.476 0.434 7.79 423.8 12.54
1/6/2022 4:15:00 PM 5.87 42.566 0.434 7.78 406.1 12.47
1/6/2022 4:30:00 PM 5.91 42.638 0.435 7.78 407.2 12.38
1/6/2022 4:45:00 PM 5.95 42.71 0.435 7.77 428.4 12.29
1/6/2022 5:00:00 PM 5.98 42.764 0.435 7.78 424.3 12.17
1/6/2022 5:15:00 PM 6.02 42.836 0.434 7.76 435.1 12.1
1/6/2022 5:30:00 PM 6.05 42.89 0.434 7.76 413.5 12.01
1/6/2022 5:45:00 PM 6.08 42.944 0.434 7.75 430.2 11.93
1/6/2022 6:00:00 PM 6.12 43.016 0.433 7.75 416.9 11.86
1/6/2022 6:15:00 PM 6.15 43.07 0.433 7.75 411.2 11.79
1/6/2022 6:30:00 PM 6.18 43.124 0.433 7.75 428.7 11.71
1/6/2022 6:45:00 PM 6.21 43.178 0.432 7.75 429.2 11.67
1/6/2022 7:00:00 PM 6.23 43.214 0.431 7.74 432.8 11.61
1/6/2022 7:15:00 PM 6.25 43.25 0.431 7.73 413.8 11.56
1/6/2022 7:30:00 PM 6.26 43.268 0.432 7.73 448.1 11.51
1/6/2022 7:45:00 PM 6.26 43.268 0.432 7.72 394.2 11.45
1/6/2022 8:00:00 PM 6.25 43.25 0.432 7.73 401.1 11.42
1/6/2022 8:15:00 PM 6.23 43.214 0.433 7.72 413.7 11.38
1/6/2022 8:30:00 PM 6.21 43.178 0.433 7.71 420.2 11.35
1/6/2022 8:45:00 PM 6.19 43.142 0.433 7.71 411.8 11.31
1/6/2022 9:00:00 PM 6.18 43.124 0.433 7.71 392.5 11.27
1/6/2022 9:15:00 PM 6.17 43.106 0.433 7.71 407.1 11.25
1/6/2022 9:30:00 PM 6.15 43.07 0.433 7.7 379.6 11.21
1/6/2022 9:45:00 PM 6.11 42.998 0.434 7.7 394.3 11.2
1/6/2022 10:00:00 PM 6.07 42.926 0.433 7.69 413.6 11.19
1/6/2022 10:15:00 PM 6.02 42.836 0.433 7.69 434.9 11.16
1/6/2022 10:30:00 PM 5.97 42.746 0.433 7.69 390.6 11.14
1/6/2022 10:45:00 PM 5.91 42.638 0.433 7.69 416.7 11.15
1/6/2022 11:00:00 PM 5.88 42.584 0.433 7.68 386.9 11.13
1/6/2022 11:15:00 PM 5.82 42.476 0.433 7.68 401.8 11.15
1/6/2022 11:30:00 PM 5.78 42.404 0.432 7.69 424.8 11.13
1/6/2022 11:45:00 PM 5.73 42.314 0.432 7.69 397 11.14
1/7/2022 12:00:00 AM 5.7 42.26 0.432 7.68 434.7 11.14
1/7/2022 12:15:00 AM 5.67 42.206 0.432 7.67 398.5 11.15
1/7/2022 12:30:00 AM 5.64 42.152 0.432 7.68 419.1 11.15
1/7/2022 12:45:00 AM 5.59 42.062 0.432 7.67 404.5 11.15
1/7/2022 1:00:00 AM 5.53 41.954 0.432 7.67 397.4 11.17
1/7/2022 1:15:00 AM 5.49 41.882 0.432 7.67 385.4 11.19
1/7/2022 1:30:00 AM 5.46 41.828 0.431 7.67 411.4 11.18
1/7/2022 1:45:00 AM 5.43 41.774 0.431 7.67 415.1 11.22
1/7/2022 2:00:00 AM 5.4 41.72 0.431 7.67 434 11.21
1/7/2022 2:15:00 AM 5.36 41.648 0.431 7.67 397.9 11.24
1/7/2022 2:30:00 AM 5.32 41.576 0.431 7.66 408.5 11.25
1/7/2022 2:45:00 AM 5.28 41.504 0.43 7.66 400.3 11.28
1/7/2022 3:00:00 AM 5.25 41.45 0.43 7.66 425.9 11.27
1/7/2022 3:15:00 AM 5.21 41.378 0.43 7.65 408.7 11.29
1/7/2022 3:30:00 AM 5.17 41.306 0.43 7.65 411.7 11.32
1/7/2022 3:45:00 AM 5.14 41.252 0.43 7.65 392.3 11.34
1/7/2022 4:00:00 AM 5.1 41.18 0.43 7.65 419.7 11.34
1/7/2022 4:15:00 AM 5.07 41.126 0.429 7.65 439.7 11.37
1/7/2022 4:30:00 AM 5.04 41.072 0.429 7.66 380.1 11.39
1/7/2022 4:45:00 AM 5.01 41.018 0.429 7.67 419.6 11.39
1/7/2022 5:00:00 AM 4.98 40.964 0.429 7.65 395.1 11.42
1/7/2022 5:15:00 AM 4.94 40.892 0.429 7.65 456.9 11.43
1/7/2022 5:30:00 AM 4.92 40.856 0.429 7.66 463.4 11.43
1/7/2022 5:45:00 AM 4.88 40.784 0.429 7.67 379.7 11.45
1/7/2022 6:00:00 AM 4.84 40.712 0.429 7.65 441.6 11.48
1/7/2022 6:15:00 AM 4.81 40.658 0.429 7.67 407.9 11.49
1/7/2022 6:30:00 AM 4.77 40.586 0.429 7.66 400.5 11.51
1/7/2022 6:45:00 AM 4.75 40.55 0.429 7.66 424 11.51
1/7/2022 7:00:00 AM 4.72 40.496 0.43 7.67 429.4 11.53
1/7/2022 7:15:00 AM 4.69 40.442 0.43 7.67 387.6 11.54
1/7/2022 7:30:00 AM 4.65 40.37 0.43 7.66 428.1 11.55
1/7/2022 7:45:00 AM 4.61 40.298 0.43 7.65 403.4 11.57
1/7/2022 8:00:00 AM 4.58 40.244 0.43 7.64 402.7 11.62
1/7/2022 8:15:00 AM 4.55 40.19 0.43 7.65 445.4 11.68
1/7/2022 8:30:00 AM 4.54 40.172 0.43 7.66 414.1 11.76
1/7/2022 8:45:00 AM 4.52 40.136 0.43 7.66 404.1 11.88
1/7/2022 9:00:00 AM 4.5 40.1 0.43 7.66 410.8 12
1/7/2022 9:15:00 AM 4.49 40.082 0.43 7.69 449.2 12.1
1/7/2022 9:30:00 AM 4.49 40.082 0.43 7.7 419 12.19
1/7/2022 9:45:00 AM 4.5 40.1 0.43 7.69 430.7 12.28
1/7/2022 10:00:00 AM 4.49 40.082 0.43 7.7 433.9 12.35
1/7/2022 10:15:00 AM 4.47 40.046 0.43 7.7 401.2 12.41
1/7/2022 10:30:00 AM 4.45 40.01 0.431 7.72 426 12.47
1/7/2022 10:45:00 AM 4.42 39.956 0.431 7.72 425.6 12.5
1/7/2022 11:00:00 AM 4.4 39.92 0.432 7.72 425.7 12.55
1/7/2022 11:15:00 AM 4.38 39.884 0.431 7.73 426.4 12.62
1/7/2022 11:30:00 AM 4.37 39.866 0.432 7.73 422.4 12.67
1/7/2022 11:45:00 AM 4.36 39.848 0.433 7.73 445.8 12.73
1/7/2022 12:00:00 PM 4.34 39.812 0.433 7.74 419.2 12.79
1/7/2022 12:15:00 PM 4.34 39.812 0.433 7.75 424.8 12.83
1/7/2022 12:30:00 PM 4.33 39.794 0.433 7.75 416.8 12.88
1/7/2022 12:45:00 PM 4.33 39.794 0.433 7.76 428.1 12.93
1/7/2022 1:00:00 PM 4.33 39.794 0.433 7.77 434.9 12.98
1/7/2022 1:15:00 PM 4.32 39.776 0.433 7.76 445.1 13.03
1/7/2022 1:30:00 PM 4.3 39.74 0.434 7.77 406.4 13.05
1/7/2022 1:45:00 PM 4.29 39.722 0.434 7.78 431.7 13.04
1/7/2022 2:00:00 PM 4.25 39.65 0.434 7.79 370.7 13.08
1/7/2022 2:15:00 PM 4.22 39.596 0.434 7.78 418.5 13.07
1/7/2022 2:30:00 PM 4.18 39.524 0.434 7.78 443.7 13.12
1/7/2022 2:45:00 PM 4.15 39.47 0.434 7.79 425.5 13.13
1/7/2022 3:00:00 PM 4.1 39.38 0.435 7.79 424.3 13.15
1/7/2022 3:15:00 PM 4.06 39.308 0.435 7.79 440.5 13.17
1/7/2022 3:30:00 PM 4.02 39.236 0.436 7.79 396.5 13.2
1/7/2022 3:45:00 PM 3.99 39.182 0.436 7.8 415.2 13.18
1/7/2022 4:00:00 PM 3.97 39.146 0.435 7.8 452.2 13.17
1/7/2022 4:15:00 PM 3.95 39.11 0.435 7.81 426 13.13
1/7/2022 4:30:00 PM 3.93 39.074 0.436 7.79 419.9 13.08
1/7/2022 4:45:00 PM 3.9 39.02 0.436 7.79 416.8 13.03
1/7/2022 5:00:00 PM 3.87 38.966 0.435 7.79 454.9 12.97
1/7/2022 5:15:00 PM 3.86 38.948 0.435 7.79 423.4 12.91
1/7/2022 5:30:00 PM 3.83 38.894 0.434 7.79 467.7 12.84
1/7/2022 5:45:00 PM 3.78 38.804 0.435 7.76 456.4 12.8
1/7/2022 6:00:00 PM 3.71 38.678 0.436 7.77 436.2 12.74
1/7/2022 6:15:00 PM 3.65 38.57 0.436 7.77 461.5 12.71
1/7/2022 6:30:00 PM 3.58 38.444 0.435 7.76 447.2 12.69
1/7/2022 6:45:00 PM 3.53 38.354 0.437 7.77 431 12.68
1/7/2022 7:00:00 PM 3.49 38.282 0.437 7.77 446.1 12.65
1/7/2022 7:15:00 PM 3.46 38.228 0.437 7.76 448.4 12.64
1/7/2022 7:30:00 PM 3.42 38.156 0.437 7.76 457.9 12.63
1/7/2022 7:45:00 PM 3.38 38.084 0.436 7.75 439.8 12.61
1/7/2022 8:00:00 PM 3.32 37.976 0.437 7.75 424.8 12.6
1/7/2022 8:15:00 PM 3.23 37.814 0.437 7.75 427.4 12.57
1/7/2022 8:30:00 PM 3.16 37.688 0.437 7.75 438.1 12.58
1/7/2022 8:45:00 PM 3.08 37.544 0.437 7.75 446.3 12.58
1/7/2022 9:00:00 PM 3 37.4 0.437 7.74 444.8 12.59
1/7/2022 9:15:00 PM 2.95 37.31 0.437 7.74 442.3 12.58
1/7/2022 9:30:00 PM 2.9 37.22 0.437 7.74 430.2 12.59
1/7/2022 9:45:00 PM 2.86 37.148 0.437 7.74 436.9 12.58
1/7/2022 10:00:00 PM 2.81 37.058 0.437 7.73 428.9 12.59
1/7/2022 10:15:00 PM 2.76 36.968 0.438 7.73 431.7 12.58
1/7/2022 10:30:00 PM 2.72 36.896 0.438 7.72 450.7 12.59
1/7/2022 10:45:00 PM 2.69 36.842 0.439 7.73 442.6 12.58
1/7/2022 11:00:00 PM 2.65 36.77 0.44 7.73 469.2 12.6
1/7/2022 11:15:00 PM 2.63 36.734 0.439 7.72 471.4 12.6
1/7/2022 11:30:00 PM 2.61 36.698 0.44 7.73 480.2 12.61
1/7/2022 11:45:00 PM 2.59 36.662 0.441 7.72 459.2 12.6
1/8/2022 12:00:00 AM 2.58 36.644 0.441 7.71 449 12.6
1/8/2022 12:15:00 AM 2.58 36.644 0.443 7.71 463.7 12.59
1/8/2022 12:30:00 AM 2.58 36.644 0.444 7.71 454.6 12.6
1/8/2022 12:45:00 AM 2.58 36.644 0.444 7.7 446.9 12.59
1/8/2022 1:00:00 AM 2.58 36.644 0.445 7.7 443.7 12.58
1/8/2022 1:15:00 AM 2.57 36.626 0.445 7.7 457.9 12.58
1/8/2022 1:30:00 AM 2.55 36.59 0.445 7.7 431.1 12.59
1/8/2022 1:45:00 AM 2.53 36.554 0.445 7.7 449.1 12.58
1/8/2022 2:00:00 AM 2.53 36.554 0.445 7.7 449 12.6
1/8/2022 2:15:00 AM 2.53 36.554 0.446 7.7 459.1 12.57
1/8/2022 2:30:00 AM 2.53 36.554 0.446 7.73 441.6 12.6
1/8/2022 2:45:00 AM 2.53 36.554 0.446 7.7 444.4 12.6
1/8/2022 3:00:00 AM 2.52 36.536 0.446 7.69 442.7 12.61
1/8/2022 3:15:00 AM 2.5 36.5 0.447 7.69 456.9 12.64
1/8/2022 3:30:00 AM 2.47 36.446 0.448 7.69 433.4 12.64
1/8/2022 3:45:00 AM 2.45 36.41 0.448 7.68 455.8 12.65
1/8/2022 4:00:00 AM 2.42 36.356 0.448 7.69 427.5 12.64
1/8/2022 4:15:00 AM 2.41 36.338 0.448 7.68 444.1 12.67
1/8/2022 4:30:00 AM 2.4 36.32 0.447 7.68 446.2 12.66
1/8/2022 4:45:00 AM 2.4 36.32 0.448 7.69 479 12.67
1/8/2022 5:00:00 AM 2.41 36.338 0.449 7.69 447.6 12.66
1/8/2022 5:15:00 AM 2.41 36.338 0.448 7.69 448.1 12.68
1/8/2022 5:30:00 AM 2.42 36.356 0.449 7.68 493.9 12.67
1/8/2022 5:45:00 AM 2.42 36.356 0.449 7.68 501.1 12.67
1/8/2022 6:00:00 AM 2.43 36.374 0.449 7.69 431 12.66
1/8/2022 6:15:00 AM 2.45 36.41 0.448 7.67 418.8 12.65
1/8/2022 6:30:00 AM 2.46 36.428 0.448 7.67 416.1 12.66
1/8/2022 6:45:00 AM 2.45 36.41 0.449 7.67 427.9 12.66
1/8/2022 7:00:00 AM 2.46 36.428 0.448 7.68 444.5 12.67
1/8/2022 7:15:00 AM 2.46 36.428 0.448 7.67 397.9 12.67
1/8/2022 7:30:00 AM 2.46 36.428 0.447 7.69 459.3 12.66
1/8/2022 7:45:00 AM 2.47 36.446 0.446 7.67 468 12.7
1/8/2022 8:00:00 AM 2.47 36.446 0.446 7.68 469.9 12.73
1/8/2022 8:15:00 AM 2.47 36.446 0.445 7.68 449.3 12.78
1/8/2022 8:30:00 AM 2.47 36.446 0.445 7.68 488.8 12.82
1/8/2022 8:45:00 AM 2.47 36.446 0.444 7.68 450.1 12.87
1/8/2022 9:00:00 AM 2.51 36.518 0.443 7.68 454.3 12.93
1/8/2022 9:15:00 AM 2.56 36.608 0.444 7.69 457.8 13
1/8/2022 9:30:00 AM 2.62 36.716 0.444 7.7 459.1 13.09
1/8/2022 9:45:00 AM 2.7 36.86 0.444 7.7 442.2 13.16
1/8/2022 10:00:00 AM 2.79 37.022 0.444 7.69 420.6 13.2
1/8/2022 10:15:00 AM 2.89 37.202 0.445 7.71 440.5 13.3
1/8/2022 10:30:00 AM 2.99 37.382 0.445 7.72 443.2 13.35
1/8/2022 10:45:00 AM 3.1 37.58 0.445 7.74 432.8 13.41
1/8/2022 11:00:00 AM 3.21 37.778 0.445 7.74 422.1 13.47
1/8/2022 11:15:00 AM 3.33 37.994 0.445 7.75 433 13.51
1/8/2022 11:30:00 AM 3.45 38.21 0.444 7.76 436.9 13.52
1/8/2022 11:45:00 AM 3.57 38.426 0.444 7.76 424.4 13.56
1/8/2022 12:00:00 PM 3.69 38.642 0.443 7.75 406.4 13.59
1/8/2022 12:15:00 PM 3.83 38.894 0.443 7.75 455.1 13.61
1/8/2022 12:30:00 PM 3.96 39.128 0.443 7.76 441.2 13.63
1/8/2022 12:45:00 PM 4.09 39.362 0.439 7.77 418.4 13.64
1/8/2022 1:00:00 PM 4.23 39.614 0.443 7.78 407.8 13.63
1/8/2022 1:15:00 PM 4.36 39.848 0.444 7.78 430.5 13.65
1/8/2022 1:30:00 PM 4.49 40.082 0.443 7.78 406.8 13.63
1/8/2022 1:45:00 PM 4.6 40.28 0.443 7.78 434.4 13.62
1/8/2022 2:00:00 PM 4.7 40.46 0.442 7.79 414.6 13.62
1/8/2022 2:15:00 PM 4.8 40.64 0.443 7.8 406 13.58
1/8/2022 2:30:00 PM 4.88 40.784 0.442 7.8 434.1 13.56
1/8/2022 2:45:00 PM 4.96 40.928 0.441 7.82 435.8 13.53
1/8/2022 3:00:00 PM 5.03 41.054 0.441 7.82 420.1 13.47
1/8/2022 3:15:00 PM 5.09 41.162 0.44 7.81 415.9 13.42
1/8/2022 3:30:00 PM 5.14 41.252 0.439 7.81 406.1 13.35
1/8/2022 3:45:00 PM 5.17 41.306 0.439 7.81 399.2 13.3
1/8/2022 4:00:00 PM 5.2 41.36 0.439 7.81 408 13.2
1/8/2022 4:15:00 PM 5.22 41.396 0.44 7.82 435.4 13.13
1/8/2022 4:30:00 PM 5.24 41.432 0.44 7.82 416.4 13.03
1/8/2022 4:45:00 PM 5.26 41.468 0.439 7.81 405.8 12.91
1/8/2022 5:00:00 PM 5.27 41.486 0.439 7.81 430.2 12.81
1/8/2022 5:15:00 PM 5.28 41.504 0.44 7.79 412.5 12.71
1/8/2022 5:30:00 PM 5.29 41.522 0.44 7.78 414.7 12.57
1/8/2022 5:45:00 PM 5.31 41.558 0.44 7.78 414.9 12.51
1/8/2022 6:00:00 PM 5.32 41.576 0.439 7.79 411.2 12.44
1/8/2022 6:15:00 PM 5.32 41.576 0.439 7.78 424.7 12.36
1/8/2022 6:30:00 PM 5.31 41.558 0.439 7.78 477.7 12.29
1/8/2022 6:45:00 PM 5.31 41.558 0.439 7.79 442.1 12.22
1/8/2022 7:00:00 PM 5.31 41.558 0.439 7.79 538.6 12.16
1/8/2022 7:15:00 PM 5.32 41.576 0.439 7.78 493.9 12.12
1/8/2022 7:30:00 PM 5.31 41.558 0.438 7.77 467.6 12.07
1/8/2022 7:45:00 PM 5.31 41.558 0.438 7.77 485.8 12.03
1/8/2022 8:00:00 PM 5.29 41.522 0.44 7.76 423.4 12
1/8/2022 8:15:00 PM 5.28 41.504 0.44 7.75 474.5 11.95
1/8/2022 8:30:00 PM 5.26 41.468 0.441 7.76 538.4 11.93
1/8/2022 8:45:00 PM 5.24 41.432 0.441 7.76 492.5 11.9
1/8/2022 9:00:00 PM 5.23 41.414 0.441 7.77 435.3 11.86
1/8/2022 9:15:00 PM 5.22 41.396 0.441 7.75 457.7 11.83
1/8/2022 9:30:00 PM 5.2 41.36 0.442 7.73 420.8 11.8
1/8/2022 9:45:00 PM 5.18 41.324 0.441 7.73 433.5 11.78
1/8/2022 10:00:00 PM 5.17 41.306 0.441 7.73 513.5 11.76
1/8/2022 10:15:00 PM 5.16 41.288 0.442 7.73 433.8 11.76
1/8/2022 10:30:00 PM 5.16 41.288 0.442 7.72 690.3 11.73
1/8/2022 10:45:00 PM 5.16 41.288 0.443 7.72 441.2 11.72
1/8/2022 11:00:00 PM 5.16 41.288 0.443 7.72 442.5 11.71
1/8/2022 11:15:00 PM 5.15 41.27 0.443 7.71 447.7 11.69
1/8/2022 11:30:00 PM 5.14 41.252 0.443 7.71 455.2 11.68
1/8/2022 11:45:00 PM 5.14 41.252 0.444 7.72 440 11.68
1/9/2022 12:00:00 AM 5.14 41.252 0.444 7.71 432.1 11.68
1/9/2022 12:15:00 AM 5.13 41.234 0.444 7.71 448.1 11.65
1/9/2022 12:30:00 AM 5.12 41.216 0.444 7.71 444.9 11.66
1/9/2022 12:45:00 AM 5.12 41.216 0.445 7.69 430.4 11.65
1/9/2022 1:00:00 AM 5.11 41.198 0.446 7.69 434.4 11.65
1/9/2022 1:15:00 AM 5.1 41.18 0.446 7.69 423.6 11.65
1/9/2022 1:30:00 AM 5.09 41.162 0.446 7.69 457.9 11.64
1/9/2022 1:45:00 AM 5.08 41.144 0.446 7.69 426.1 11.64
1/9/2022 2:00:00 AM 5.08 41.144 0.446 7.68 455.5 11.63
1/9/2022 2:15:00 AM 5.07 41.126 0.447 7.68 447.9 11.65
1/9/2022 2:30:00 AM 5.07 41.126 0.446 7.68 426.7 11.63
1/9/2022 2:45:00 AM 5.07 41.126 0.446 7.67 450.4 11.63
1/9/2022 3:00:00 AM 5.06 41.108 0.447 7.68 440 11.64
1/9/2022 3:15:00 AM 5.06 41.108 0.447 7.68 429.2 11.64
1/9/2022 3:30:00 AM 5.05 41.09 0.447 7.68 424.8 11.63
1/9/2022 3:45:00 AM 5.04 41.072 0.447 7.68 437.4 11.63
1/9/2022 4:00:00 AM 5.03 41.054 0.447 7.68 431.9 11.64
1/9/2022 4:15:00 AM 5.02 41.036 0.446 7.69 433.7 11.65
1/9/2022 4:30:00 AM 5.01 41.018 0.447 7.68 458.3 11.64
1/9/2022 4:45:00 AM 5 41 0.447 7.68 474 11.65
1/9/2022 5:00:00 AM 4.99 40.982 0.447 7.68 427.4 11.66
1/9/2022 5:15:00 AM 5 41 0.447 7.67 496.7 11.64
1/9/2022 5:30:00 AM 5.01 41.018 0.447 7.67 472.7 11.65
1/9/2022 5:45:00 AM 5.02 41.036 0.447 7.67 475.8 11.64
1/9/2022 6:00:00 AM 5.02 41.036 0.447 7.67 491.3 11.63
1/9/2022 6:15:00 AM 5.02 41.036 0.446 7.68 462.3 11.64
1/9/2022 6:30:00 AM 5.03 41.054 0.446 7.67 431.4 11.63
1/9/2022 6:45:00 AM 5.04 41.072 0.446 7.67 425.7 11.62
1/9/2022 7:00:00 AM 5.04 41.072 0.445 7.68 475 11.62
1/9/2022 7:15:00 AM 5.05 41.09 0.445 7.67 460.8 11.62
1/9/2022 7:30:00 AM 5.05 41.09 0.445 7.67 441.6 11.63
1/9/2022 7:45:00 AM 5.05 41.09 0.446 7.68 460.9 11.61
1/9/2022 8:00:00 AM 5.05 41.09 0.452 7.67 448.5 11.65
1/9/2022 8:15:00 AM 5.06 41.108 0.458 7.68 500 11.66
1/9/2022 8:30:00 AM 5.06 41.108 0.457 7.68 463.7 11.69
1/9/2022 8:45:00 AM 5.07 41.126 0.455 7.68 471.1 11.69
1/9/2022 9:00:00 AM 5.09 41.162 0.453 7.69 472.9 11.72
1/9/2022 9:15:00 AM 5.11 41.198 0.453 7.69 458.9 11.76
1/9/2022 9:30:00 AM 5.15 41.27 0.455 7.69 474.8 11.83
1/9/2022 9:45:00 AM 5.2 41.36 0.455 7.7 505.1 11.89
1/9/2022 10:00:00 AM 5.24 41.432 0.452 7.7 512.1 11.93
1/9/2022 10:15:00 AM 5.28 41.504 0.45 7.71 465.7 11.96
1/9/2022 10:30:00 AM 5.32 41.576 0.451 7.71 474.4 11.97
1/9/2022 10:45:00 AM 5.35 41.63 0.454 7.7 502.4 11.98
1/9/2022 11:00:00 AM 5.38 41.684 0.458 7.7 499.8 12.03
1/9/2022 11:15:00 AM 5.41 41.738 0.463 7.7 495.1 12.03
1/9/2022 11:30:00 AM 5.44 41.792 0.472 7.7 458.6 12.06
1/9/2022 11:45:00 AM 5.46 41.828 0.485 7.7 484.3 12.07
1/9/2022 12:00:00 PM 5.5 41.9 0.492 7.71 462.5 12.13
1/9/2022 12:15:00 PM 5.53 41.954 0.471 7.72 481.2 12.18
1/9/2022 12:30:00 PM 5.56 42.008 0.483 7.71 520.4 12.2
1/9/2022 12:45:00 PM 5.6 42.08 0.486 7.72 482.1 12.2
1/9/2022 1:00:00 PM 5.64 42.152 0.481 7.72 491.2 12.21
1/9/2022 1:15:00 PM 5.67 42.206 0.472 7.72 479.5 12.18
1/9/2022 1:30:00 PM 5.69 42.242 0.474 7.72 489.2 12.16
1/9/2022 1:45:00 PM 5.71 42.278 0.403 7.72 474.9 12.15
1/9/2022 2:00:00 PM 5.72 42.296 0.388 7.71 472.1 12.12
1/9/2022 2:15:00 PM 5.73 42.314 0.397 7.72 480.3 12.1
1/9/2022 2:30:00 PM 5.74 42.332 0.414 7.72 506 12.12
1/9/2022 2:45:00 PM 5.74 42.332 0.432 7.72 474.4 12.09
1/9/2022 3:00:00 PM 5.74 42.332 0.455 7.71 465.2 12.1
1/9/2022 3:15:00 PM 5.73 42.314 0.421 7.71 465.7 12.11
1/9/2022 3:30:00 PM 5.73 42.314 0.42 7.72 456.9 12.07
1/9/2022 3:45:00 PM 5.72 42.296 0.435 7.73 471.1 12.03
1/9/2022 4:00:00 PM 5.71 42.278 0.437 7.7 446.8 12
1/9/2022 4:15:00 PM 5.71 42.278 0.437 7.69 473 11.95
1/9/2022 4:30:00 PM 5.72 42.296 0.438 7.69 474.7 11.9
1/9/2022 4:45:00 PM 5.73 42.314 0.415 7.7 462.4 11.85
1/9/2022 5:00:00 PM 5.74 42.332 0.427 7.72 503.6 11.81
1/9/2022 5:15:00 PM 5.75 42.35 0.438 7.7 482 11.76
1/9/2022 5:30:00 PM 5.78 42.404 0.438 7.69 507.7 11.69
1/9/2022 5:45:00 PM 5.79 42.422 0.439 7.7 528.1 11.64
1/9/2022 6:00:00 PM 5.82 42.476 0.409 7.69 515.7 11.61
1/9/2022 6:15:00 PM 5.85 42.53 0.442 7.69 472.5 11.56
1/9/2022 6:30:00 PM 5.87 42.566 0.444 7.7 508.6 11.52
1/9/2022 6:45:00 PM 5.9 42.62 0.446 7.7 488.3 11.5
1/9/2022 7:00:00 PM 5.92 42.656 0.447 7.68 515 11.45
1/9/2022 7:15:00 PM 5.94 42.692 0.45 7.68 531.3 11.41
1/9/2022 7:30:00 PM 5.95 42.71 0.451 7.69 478.6 11.37
1/9/2022 7:45:00 PM 5.97 42.746 0.452 7.68 480.1 11.34
1/9/2022 8:00:00 PM 5.96 42.728 0.453 7.68 479.8 11.31
1/9/2022 8:15:00 PM 5.95 42.71 0.454 7.67 501.5 11.28
1/9/2022 8:30:00 PM 5.95 42.71 0.454 7.67 516.8 11.27
1/9/2022 8:45:00 PM 5.96 42.728 0.456 7.66 508.5 11.25
1/9/2022 9:00:00 PM 5.97 42.746 0.456 7.66 543.3 11.22
1/9/2022 9:15:00 PM 5.96 42.728 0.457 7.67 558.8 11.2
1/9/2022 9:30:00 PM 5.95 42.71 0.458 7.67 570.2 11.18
1/9/2022 9:45:00 PM 5.95 42.71 0.457 7.67 536 11.16
1/9/2022 10:00:00 PM 5.92 42.656 0.458 7.67 601.2 11.15
1/9/2022 10:15:00 PM 5.89 42.602 0.459 7.67 577.7 11.15
1/9/2022 10:30:00 PM 5.85 42.53 0.458 7.67 521 11.14
1/9/2022 10:45:00 PM 5.81 42.458 0.458 7.66 556.2 11.13
1/9/2022 11:00:00 PM 5.76 42.368 0.458 7.66 527.9 11.13
1/9/2022 11:15:00 PM 5.69 42.242 0.457 7.66 541.8 11.14
1/9/2022 11:30:00 PM 5.63 42.134 0.457 7.65 542.6 11.15
1/9/2022 11:45:00 PM 5.57 42.026 0.456 7.66 588.6 11.16
1/10/2022 12:00:00 AM 5.51 41.918 0.456 7.65 523 11.17
1/10/2022 12:15:00 AM 5.47 41.846 0.456 7.65 540.1 11.18
1/10/2022 12:30:00 AM 5.43 41.774 0.454 7.65 604.9 11.2
1/10/2022 12:45:00 AM 5.4 41.72 0.455 7.66 576.4 11.21
1/10/2022 1:00:00 AM 5.36 41.648 0.454 7.68 519.4 11.22
1/10/2022 1:15:00 AM 5.3 41.54 0.454 7.65 519.5 11.25
1/10/2022 1:30:00 AM 5.22 41.396 0.453 7.67 522 11.26
1/10/2022 1:45:00 AM 5.12 41.216 0.453 7.66 518 11.3
1/10/2022 2:00:00 AM 5.01 41.018 0.453 7.65 511.2 11.32
1/10/2022 2:15:00 AM 4.9 40.82 0.451 7.66 533.1 11.34
1/10/2022 2:30:00 AM 4.78 40.604 0.451 7.65 620 11.41
1/10/2022 2:45:00 AM 4.67 40.406 0.45 7.66 607.1 11.45
1/10/2022 3:00:00 AM 4.55 40.19 0.451 7.67 562.9 11.49
1/10/2022 3:15:00 AM 4.44 39.992 0.449 7.67 536.4 11.52
1/10/2022 3:30:00 AM 4.34 39.812 0.45 7.66 528.7 11.58
1/10/2022 3:45:00 AM 4.24 39.632 0.45 7.67 545.9 11.6
1/10/2022 4:00:00 AM 4.15 39.47 0.45 7.67 568.3 11.64
1/10/2022 4:15:00 AM 4.05 39.29 0.45 7.67 552.7 11.68
1/10/2022 4:30:00 AM 3.94 39.092 0.449 7.67 540.1 11.73
1/10/2022 4:45:00 AM 3.85 38.93 0.45 7.67 531.3 11.76
1/10/2022 5:00:00 AM 3.76 38.768 0.45 7.66 494.3 11.81
1/10/2022 5:15:00 AM 3.69 38.642 0.45 7.67 641.9 11.84
1/10/2022 5:30:00 AM 3.63 38.534 0.45 7.68 531 11.87
1/10/2022 5:45:00 AM 3.56 38.408 0.45 7.68 524.8 11.91
1/10/2022 6:00:00 AM 3.48 38.264 0.451 7.68 506.5 11.95
1/10/2022 6:15:00 AM 3.38 38.084 0.452 7.67 447.8 11.99
1/10/2022 6:30:00 AM 3.28 37.904 0.452 7.67 506.8 12.03
1/10/2022 6:45:00 AM 3.18 37.724 0.452 7.68 511.7 12.07
1/10/2022 7:00:00 AM 3.1 37.58 0.452 7.68 506.1 12.1
1/10/2022 7:15:00 AM 3.03 37.454 0.453 7.68 518.9 12.12
1/10/2022 7:30:00 AM 2.96 37.328 0.453 7.67 494.4 12.17
1/10/2022 7:45:00 AM 2.88 37.184 0.453 7.68 505.7 12.21
1/10/2022 8:00:00 AM 2.84 37.112 0.452 7.67 507.5 12.27
1/10/2022 8:15:00 AM 2.79 37.022 0.453 7.68 512.8 12.32
1/10/2022 8:30:00 AM 2.77 36.986 0.453 7.67 481 12.4
1/10/2022 8:45:00 AM 2.76 36.968 0.453 7.67 487.3 12.48
1/10/2022 9:00:00 AM 2.75 36.95 0.453 7.68 474.3 12.58
1/10/2022 9:15:00 AM 2.74 36.932 0.454 7.69 459.7 12.63
1/10/2022 9:30:00 AM 2.73 36.914 0.454 7.68 474.1 12.71
1/10/2022 9:45:00 AM 2.72 36.896 0.454 7.7 480.1 12.81
1/10/2022 10:00:00 AM 2.71 36.878 0.455 7.7 503.4 12.89
1/10/2022 10:15:00 AM 2.72 36.896 0.455 7.71 482.6 13
1/10/2022 10:30:00 AM 2.74 36.932 0.456 7.72 463.7 13.06
1/10/2022 10:45:00 AM 2.76 36.968 0.457 7.73 477.7 13.15
1/10/2022 11:00:00 AM 2.76 36.968 0.457 7.72 496 13.18
1/10/2022 11:15:00 AM 2.83 37.094 0.458 7.73 502.2 13.28
1/10/2022 11:30:00 AM 2.83 37.094 0.458 7.73 541.6 13.32
1/10/2022 11:45:00 AM 2.93 37.274 0.459 7.74 463.5 13.42
1/10/2022 12:00:00 PM 2.93 37.274 0.459 7.76 450.1 13.35
1/10/2022 12:15:00 PM 2.95 37.31 0.46 7.75 509.7 13.39
1/10/2022 12:30:00 PM 3.08 37.544 0.462 7.75 490.4 13.5
1/10/2022 12:45:00 PM 3.17 37.706 0.462 7.76 519.4 13.51
1/10/2022 1:00:00 PM 3.29 37.922 0.461 7.78 485.9 13.57
1/10/2022 1:15:00 PM 3.43 38.174 0.458 7.78 492.4 13.62
1/10/2022 1:30:00 PM 3.53 38.354 0.46 7.78 476.6 13.61
1/10/2022 1:45:00 PM 3.63 38.534 0.459 7.79 539.3 13.65
1/10/2022 2:00:00 PM 3.71 38.678 0.458 7.81 496 13.65
1/10/2022 2:15:00 PM 3.73 38.714 0.457 7.8 459.1 13.57
1/10/2022 2:30:00 PM 3.76 38.768 0.456 7.81 482.4 13.55
1/10/2022 2:45:00 PM 3.82 38.876 0.454 7.8 481.6 13.54
1/10/2022 3:00:00 PM 3.88 38.984 0.453 7.8 459.8 13.58
1/10/2022 3:15:00 PM 3.95 39.11 0.452 7.8 486.6 13.58
1/10/2022 3:30:00 PM 3.95 39.11 0.452 7.82 460.1 13.56
1/10/2022 3:45:00 PM 3.9 39.02 0.451 7.81 448.8 13.48
1/10/2022 4:00:00 PM 3.86 38.948 0.45 7.8 474.3 13.42
1/10/2022 4:15:00 PM 3.84 38.912 0.45 7.8 485.2 13.35
1/10/2022 4:30:00 PM 3.84 38.912 0.449 7.8 488.2 13.3
1/10/2022 4:45:00 PM 3.85 38.93 0.449 7.8 452 13.23
1/10/2022 5:00:00 PM 3.85 38.93 0.449 7.8 466 13.11
1/10/2022 5:15:00 PM 3.84 38.912 0.449 7.79 478.6 13.01
1/10/2022 5:30:00 PM 3.83 38.894 0.45 7.79 454.4 12.89
1/10/2022 5:45:00 PM 3.8 38.84 0.45 7.78 488.4 12.8
1/10/2022 6:00:00 PM 3.82 38.876 0.45 7.78 462.3 12.75
1/10/2022 6:15:00 PM 3.84 38.912 0.45 7.78 519.6 12.68
1/10/2022 6:30:00 PM 3.85 38.93 0.45 7.78 461.9 12.63
1/10/2022 6:45:00 PM 3.83 38.894 0.45 7.77 508.1 12.58
1/10/2022 7:00:00 PM 3.83 38.894 0.449 7.76 482.5 12.54
1/10/2022 7:15:00 PM 3.82 38.876 0.449 7.76 499.5 12.48
1/10/2022 7:30:00 PM 3.81 38.858 0.449 7.75 484.7 12.45
1/10/2022 7:45:00 PM 3.8 38.84 0.449 7.75 483.4 12.39
1/10/2022 8:00:00 PM 3.78 38.804 0.45 7.75 474.5 12.4
1/10/2022 8:15:00 PM 3.76 38.768 0.45 7.75 524.5 12.36
1/10/2022 8:30:00 PM 3.74 38.732 0.452 7.75 495.5 12.32
1/10/2022 8:45:00 PM 3.7 38.66 0.453 7.74 514.9 12.3
1/10/2022 9:00:00 PM 3.66 38.588 0.452 7.74 492.7 12.3
1/10/2022 9:15:00 PM 3.61 38.498 0.453 7.74 473.6 12.27
1/10/2022 9:30:00 PM 3.56 38.408 0.454 7.73 464.9 12.25
1/10/2022 9:45:00 PM 3.52 38.336 0.454 7.73 461 12.24
1/10/2022 10:00:00 PM 3.49 38.282 0.455 7.73 477.6 12.22
1/10/2022 10:15:00 PM 3.44 38.192 0.454 7.74 450.6 12.21
1/10/2022 10:30:00 PM 3.41 38.138 0.454 7.73 478.5 12.21
1/10/2022 10:45:00 PM 3.38 38.084 0.455 7.73 467.1 12.19
1/10/2022 11:00:00 PM 3.35 38.03 0.455 7.73 490.6 12.18
1/10/2022 11:15:00 PM 3.31 37.958 0.457 7.73 530 12.21
1/10/2022 11:30:00 PM 3.28 37.904 0.457 7.73 472.9 12.19
1/10/2022 11:45:00 PM 3.25 37.85 0.457 7.71 442 12.19
1/11/2022 12:00:00 AM 3.2 37.76 0.458 7.72 439 12.2
1/11/2022 12:15:00 AM 3.19 37.742 0.459 7.7 421.2 12.22
1/11/2022 12:30:00 AM 3.17 37.706 0.459 7.71 478.2 12.21
1/11/2022 12:45:00 AM 3.13 37.634 0.455 7.73 429.9 12.24
1/11/2022 1:00:00 AM 3.09 37.562 0.457 7.71 442.6 12.25
1/11/2022 1:15:00 AM 3.05 37.49 0.46 7.71 437.6 12.28
1/11/2022 1:30:00 AM 3 37.4 0.461 7.69 458.8 12.25
1/11/2022 1:45:00 AM 2.93 37.274 0.461 7.69 484.8 12.3
1/11/2022 2:00:00 AM 2.87 37.166 0.461 7.7 451.9 12.32
1/11/2022 2:15:00 AM 2.8 37.04 0.461 7.71 461.6 12.34
1/11/2022 2:30:00 AM 2.75 36.95 0.462 7.7 440.3 12.36
1/11/2022 2:45:00 AM 2.69 36.842 0.462 7.7 465.6 12.36
1/11/2022 3:00:00 AM 2.64 36.752 0.463 7.69 428.3 12.39
1/11/2022 3:15:00 AM 2.59 36.662 0.464 7.69 465.9 12.43
1/11/2022 3:30:00 AM 2.54 36.572 0.464 7.7 452.7 12.44
1/11/2022 3:45:00 AM 2.48 36.464 0.465 7.7 440.6 12.46
1/11/2022 4:00:00 AM 2.43 36.374 0.465 7.69 461.1 12.5
1/11/2022 4:15:00 AM 2.38 36.284 0.466 7.69 463.1 12.52
1/11/2022 4:30:00 AM 2.34 36.212 0.466 7.7 464.2 12.54
1/11/2022 4:45:00 AM 2.29 36.122 0.466 7.69 465.6 12.55
1/11/2022 5:00:00 AM 2.24 36.032 0.466 7.7 454.9 12.58
1/11/2022 5:15:00 AM 2.21 35.978 0.466 7.7 515.9 12.6
1/11/2022 5:30:00 AM 2.19 35.942 0.466 7.69 417.6 12.63
1/11/2022 5:45:00 AM 2.17 35.906 0.466 7.71 483.5 12.65
1/11/2022 6:00:00 AM 2.15 35.87 0.466 7.7 464.3 12.68
1/11/2022 6:15:00 AM 2.13 35.834 0.466 7.7 447.4 12.69
1/11/2022 6:30:00 AM 2.09 35.762 0.466 7.69 452 12.71
1/11/2022 6:45:00 AM 2.06 35.708 0.467 7.69 506 12.72
1/11/2022 7:00:00 AM 2.04 35.672 0.467 7.69 481.9 12.74
1/11/2022 7:15:00 AM 2.01 35.618 0.467 7.69 445.2 12.75
1/11/2022 7:30:00 AM 1.99 35.582 0.468 7.69 469.8 12.79
1/11/2022 7:45:00 AM 1.98 35.564 0.468 7.69 495.3 12.79
1/11/2022 8:00:00 AM 1.97 35.546 0.469 7.69 448.5 12.84
1/11/2022 8:15:00 AM 1.97 35.546 0.47 7.69 414.5 12.9
1/11/2022 8:30:00 AM 1.97 35.546 0.47 7.69 444.9 12.96
1/11/2022 8:45:00 AM 1.99 35.582 0.47 7.71 423.5 13.04
1/11/2022 9:00:00 AM 2.04 35.672 0.471 7.7 597.4 13.16
1/11/2022 9:15:00 AM 2.11 35.798 0.471 7.72 430.6 13.26
1/11/2022 9:30:00 AM 2.17 35.906 0.471 7.74 438.5 13.36
1/11/2022 9:45:00 AM 2.25 36.05 0.472 7.74 519.9 13.43
1/11/2022 10:00:00 AM 2.3 36.14 0.472 7.74 417.6 13.46
1/11/2022 10:15:00 AM 2.36 36.248 0.473 7.75 464.4 13.5
1/11/2022 10:30:00 AM 2.43 36.374 0.473 7.75 410.1 13.58
1/11/2022 10:45:00 AM 2.51 36.518 0.473 7.77 415.3 13.64
1/11/2022 11:00:00 AM 2.58 36.644 0.473 7.77 424.7 13.7
1/11/2022 11:15:00 AM 2.66 36.788 0.472 7.76 445.1 13.75
1/11/2022 11:30:00 AM 2.72 36.896 0.472 7.78 401.7 13.78
1/11/2022 11:45:00 AM 2.79 37.022 0.471 7.78 412.9 13.83
1/11/2022 12:00:00 PM 2.85 37.13 0.471 7.78 427.5 13.85
1/11/2022 12:15:00 PM 2.91 37.238 0.47 7.79 459.1 13.87
1/11/2022 12:30:00 PM 2.97 37.346 0.47 7.8 424.8 13.88
1/11/2022 12:45:00 PM 3.04 37.472 0.469 7.81 463.1 13.92
1/11/2022 1:00:00 PM 3.13 37.634 0.468 7.8 425.7 13.96
1/11/2022 1:15:00 PM 3.23 37.814 0.468 7.81 407.3 13.99
1/11/2022 1:30:00 PM 3.33 37.994 0.467 7.8 418.4 14
1/11/2022 1:45:00 PM 3.39 38.102 0.466 7.83 416.3 13.95
1/11/2022 2:00:00 PM 3.52 38.336 0.455 7.82 437.6 14.01
1/11/2022 2:15:00 PM 3.62 38.516 0.415 7.83 413 14.03
1/11/2022 2:30:00 PM 3.73 38.714 0.393 7.84 414.8 14.04
1/11/2022 2:45:00 PM 3.84 38.912 0.408 7.84 447 14.04
1/11/2022 3:00:00 PM 3.91 39.038 0.43 7.84 481.9 14
1/11/2022 3:15:00 PM 3.94 39.092 0.437 7.84 404.7 13.93
1/11/2022 3:30:00 PM 3.94 39.092 0.457 7.83 420.2 13.86
1/11/2022 3:45:00 PM 3.93 39.074 0.457 7.83 466.6 13.79
1/11/2022 4:00:00 PM 3.92 39.056 0.452 7.83 412.1 13.72
1/11/2022 4:15:00 PM 3.91 39.038 0.457 7.84 554.3 13.65
1/11/2022 4:30:00 PM 3.91 39.038 0.456 7.82 425.9 13.55
1/11/2022 4:45:00 PM 3.9 39.02 0.456 7.82 407.9 13.47
1/11/2022 5:00:00 PM 3.88 38.984 0.455 7.81 389.3 13.37
1/11/2022 5:15:00 PM 3.85 38.93 0.456 7.8 392.5 13.26
1/11/2022 5:30:00 PM 3.83 38.894 0.455 7.8 419.3 13.18
1/11/2022 5:45:00 PM 3.81 38.858 0.456 7.8 422.6 13.1
1/11/2022 6:00:00 PM 3.8 38.84 0.455 7.81 458.4 13.01
1/11/2022 6:15:00 PM 3.8 38.84 0.456 7.79 404.7 12.95
1/11/2022 6:30:00 PM 3.79 38.822 0.456 7.79 442.6 12.89
1/11/2022 6:45:00 PM 3.77 38.786 0.456 7.78 480.7 12.82
1/11/2022 7:00:00 PM 3.76 38.768 0.456 7.78 531.5 12.76
1/11/2022 7:15:00 PM 3.75 38.75 0.456 7.78 428.4 12.7
1/11/2022 7:30:00 PM 3.74 38.732 0.456 7.77 435 12.67
1/11/2022 7:45:00 PM 3.73 38.714 0.456 7.77 451.3 12.64
1/11/2022 8:00:00 PM 3.73 38.714 0.456 7.77 392.3 12.59
1/11/2022 8:15:00 PM 3.72 38.696 0.456 7.77 422.7 12.55
1/11/2022 8:30:00 PM 3.72 38.696 0.456 7.76 449 12.5
1/11/2022 8:45:00 PM 3.71 38.678 0.457 7.76 427.6 12.44
1/11/2022 9:00:00 PM 3.71 38.678 0.457 7.76 421.7 12.43
1/11/2022 9:15:00 PM 3.7 38.66 0.457 7.75 433.4 12.39
1/11/2022 9:30:00 PM 3.68 38.624 0.457 7.75 464.6 12.36
1/11/2022 9:45:00 PM 3.67 38.606 0.455 7.76 438.8 12.33
1/11/2022 10:00:00 PM 3.64 38.552 0.457 7.75 434.1 12.31
1/11/2022 10:15:00 PM 3.62 38.516 0.457 7.75 433 12.3
1/11/2022 10:30:00 PM 3.59 38.462 0.459 7.75 437.7 12.26
1/11/2022 10:45:00 PM 3.57 38.426 0.46 7.76 432.1 12.26
1/11/2022 11:00:00 PM 3.54 38.372 0.46 7.74 438.3 12.26
1/11/2022 11:15:00 PM 3.51 38.318 0.461 7.73 426 12.24
1/11/2022 11:30:00 PM 3.48 38.264 0.462 7.72 425 12.24
1/11/2022 11:45:00 PM 3.44 38.192 0.462 7.73 422.9 12.24
1/12/2022 12:00:00 AM 3.42 38.156 0.462 7.72 419.1 12.24
1/12/2022 12:15:00 AM 3.38 38.084 0.463 7.73 413.1 12.23
1/12/2022 12:30:00 AM 3.35 38.03 0.464 7.72 460.7 12.22
1/12/2022 12:45:00 AM 3.31 37.958 0.465 7.7 451.9 12.23
1/12/2022 1:00:00 AM 3.27 37.886 0.465 7.71 452.2 12.23
1/12/2022 1:15:00 AM 3.23 37.814 0.465 7.7 453.4 12.23
1/12/2022 1:30:00 AM 3.2 37.76 0.466 7.7 439.4 12.23
1/12/2022 1:45:00 AM 3.15 37.67 0.466 7.7 458.6 12.24
1/12/2022 2:00:00 AM 3.11 37.598 0.466 7.71 448.8 12.26
1/12/2022 2:15:00 AM 3.09 37.562 0.467 7.7 457.9 12.25
1/12/2022 2:30:00 AM 3.07 37.526 0.467 7.7 461 12.26
1/12/2022 2:45:00 AM 3.04 37.472 0.468 7.7 476.2 12.24
1/12/2022 3:00:00 AM 3.01 37.418 0.469 7.69 442.1 12.26
1/12/2022 3:15:00 AM 2.98 37.364 0.469 7.7 460.5 12.28
1/12/2022 3:30:00 AM 2.95 37.31 0.47 7.7 495.5 12.28
1/12/2022 3:45:00 AM 2.93 37.274 0.471 7.69 430.8 12.26
1/12/2022 4:00:00 AM 2.9 37.22 0.472 7.69 453.1 12.29
1/12/2022 4:15:00 AM 2.87 37.166 0.472 7.7 456.8 12.31
1/12/2022 4:30:00 AM 2.85 37.13 0.472 7.7 531.2 12.31
1/12/2022 4:45:00 AM 2.82 37.076 0.473 7.69 503.8 12.33
1/12/2022 5:00:00 AM 2.79 37.022 0.474 7.69 497.5 12.34
1/12/2022 5:15:00 AM 2.77 36.986 0.474 7.69 456.7 12.33
1/12/2022 5:30:00 AM 2.73 36.914 0.474 7.7 473.6 12.35
1/12/2022 5:45:00 AM 2.71 36.878 0.474 7.68 469.5 12.37
1/12/2022 6:00:00 AM 2.68 36.824 0.474 7.7 441.8 12.38
1/12/2022 6:15:00 AM 2.65 36.77 0.475 7.69 460.6 12.38
1/12/2022 6:30:00 AM 2.62 36.716 0.475 7.68 502.7 12.37
1/12/2022 6:45:00 AM 2.6 36.68 0.475 7.69 453.6 12.39
1/12/2022 7:00:00 AM 2.58 36.644 0.475 7.69 455.5 12.4
1/12/2022 7:15:00 AM 2.56 36.608 0.475 7.69 446.7 12.42
1/12/2022 7:30:00 AM 2.55 36.59 0.475 7.69 465.4 12.42
1/12/2022 7:45:00 AM 2.54 36.572 0.476 7.69 440.1 12.43
1/12/2022 8:00:00 AM 2.53 36.554 0.476 7.69 467.7 12.48
1/12/2022 8:15:00 AM 2.53 36.554 0.477 7.69 438.7 12.52
1/12/2022 8:30:00 AM 2.53 36.554 0.476 7.69 440.7 12.59
1/12/2022 8:45:00 AM 2.54 36.572 0.476 7.7 452.9 12.63
1/12/2022 9:00:00 AM 2.56 36.608 0.477 7.71 422.8 12.73
1/12/2022 9:15:00 AM 2.59 36.662 0.477 7.71 426.3 12.81
1/12/2022 9:30:00 AM 2.64 36.752 0.477 7.71 433.5 12.88
1/12/2022 9:45:00 AM 2.71 36.878 0.477 7.72 498.1 12.98
1/12/2022 10:00:00 AM 2.79 37.022 0.477 7.73 424.1 13.06
1/12/2022 10:15:00 AM 2.88 37.184 0.477 7.75 469.5 13.12
1/12/2022 10:30:00 AM 2.99 37.382 0.477 7.74 451 13.2
1/12/2022 10:45:00 AM 3.1 37.58 0.477 7.75 435.6 13.27
1/12/2022 11:00:00 AM 3.21 37.778 0.477 7.75 428.9 13.33
1/12/2022 11:15:00 AM 3.34 38.012 0.476 7.77 456.6 13.39
1/12/2022 11:30:00 AM 3.46 38.228 0.476 7.77 443.2 13.43
1/12/2022 11:45:00 AM 3.59 38.462 0.475 7.77 430.6 13.48
1/12/2022 12:00:00 PM 3.72 38.696 0.475 7.77 410.6 13.5
1/12/2022 12:15:00 PM 3.86 38.948 0.474 7.79 417.6 13.52
1/12/2022 12:30:00 PM 3.98 39.164 0.474 7.79 437.9 13.53
1/12/2022 12:45:00 PM 4.12 39.416 0.474 7.81 438.7 13.53
1/12/2022 1:00:00 PM 4.26 39.668 0.473 7.8 426.5 13.55
1/12/2022 1:15:00 PM 4.39 39.902 0.473 7.8 476.2 13.54
1/12/2022 1:30:00 PM 4.52 40.136 0.472 7.81 497.9 13.56
1/12/2022 1:45:00 PM 4.64 40.352 0.472 7.82 479.9 13.55
1/12/2022 2:00:00 PM 4.74 40.532 0.526 7.81 478.9 13.52
1/12/2022 2:15:00 PM 4.87 40.766 0.477 7.82 621.7 13.51
1/12/2022 2:30:00 PM 4.97 40.946 0.472 7.82 484.8 13.48
1/12/2022 2:45:00 PM 5.06 41.108 0.471 7.82 411.9 13.42
1/12/2022 3:00:00 PM 5.15 41.27 0.47 7.83 411.9 13.4
1/12/2022 3:15:00 PM 5.22 41.396 0.469 7.83 423.7 13.35
1/12/2022 3:30:00 PM 5.29 41.522 0.468 7.83 423.2 13.3
1/12/2022 3:45:00 PM 5.34 41.612 0.467 7.84 415.3 13.22
1/12/2022 4:00:00 PM 5.39 41.702 0.467 7.84 466.6 13.11
1/12/2022 4:15:00 PM 5.44 41.792 0.466 7.84 402.7 13
1/12/2022 4:30:00 PM 5.48 41.864 0.466 7.83 438.5 12.85
1/12/2022 4:45:00 PM 5.53 41.954 0.466 7.83 397.5 12.73
1/12/2022 5:00:00 PM 5.56 42.008 0.466 7.82 413.5 12.6
1/12/2022 5:15:00 PM 5.6 42.08 0.465 7.81 388.8 12.47
1/12/2022 5:30:00 PM 5.63 42.134 0.465 7.81 400.5 12.36
1/12/2022 5:45:00 PM 5.66 42.188 0.465 7.81 396.3 12.26
1/12/2022 6:00:00 PM 5.68 42.224 0.465 7.79 393.3 12.15
1/12/2022 6:15:00 PM 5.72 42.296 0.465 7.79 394.4 12.08
1/12/2022 6:30:00 PM 5.75 42.35 0.464 7.79 388.9 12
1/12/2022 6:45:00 PM 5.79 42.422 0.464 7.78 413.9 11.93
1/12/2022 7:00:00 PM 5.82 42.476 0.464 7.78 374.3 11.85
1/12/2022 7:15:00 PM 5.85 42.53 0.464 7.77 384.8 11.8
1/12/2022 7:30:00 PM 5.86 42.548 0.463 7.78 384.5 11.73
1/12/2022 7:45:00 PM 5.88 42.584 0.462 7.76 410.3 11.68
1/12/2022 8:00:00 PM 5.89 42.602 0.462 7.75 369.9 11.63
1/12/2022 8:15:00 PM 5.9 42.62 0.461 7.76 371 11.59
1/12/2022 8:30:00 PM 5.92 42.656 0.461 7.76 372.3 11.53
1/12/2022 8:45:00 PM 5.94 42.692 0.454 7.76 363.7 11.5
1/12/2022 9:00:00 PM 5.95 42.71 0.439 7.76 364.1 11.44
1/12/2022 9:15:00 PM 5.96 42.728 0.443 7.76 391.1 11.41
1/12/2022 9:30:00 PM 5.97 42.746 0.46 7.75 410.6 11.38
1/12/2022 9:45:00 PM 5.98 42.764 0.46 7.76 444.3 11.35
1/12/2022 10:00:00 PM 5.98 42.764 0.46 7.74 400.4 11.32
1/12/2022 10:15:00 PM 5.98 42.764 0.459 7.74 394.8 11.29
1/12/2022 10:30:00 PM 5.98 42.764 0.46 7.74 385.9 11.26
1/12/2022 10:45:00 PM 5.97 42.746 0.46 7.74 387.5 11.24
1/12/2022 11:00:00 PM 5.97 42.746 0.46 7.73 355.8 11.23
1/12/2022 11:15:00 PM 5.97 42.746 0.46 7.71 371.8 11.2
1/12/2022 11:30:00 PM 5.97 42.746 0.46 7.71 360.1 11.19
1/12/2022 11:45:00 PM 5.96 42.728 0.46 7.72 358.9 11.17
1/13/2022 12:00:00 AM 5.96 42.728 0.461 7.71 361.9 11.17
1/13/2022 12:15:00 AM 5.95 42.71 0.461 7.71 347.6 11.15
1/13/2022 12:30:00 AM 5.95 42.71 0.462 7.7 387.6 11.15
1/13/2022 12:45:00 AM 5.94 42.692 0.462 7.71 381.3 11.15
1/13/2022 1:00:00 AM 5.94 42.692 0.463 7.7 338.8 11.12
1/13/2022 1:15:00 AM 5.93 42.674 0.463 7.69 352 11.12
1/13/2022 1:30:00 AM 5.93 42.674 0.464 7.69 384.4 11.12
1/13/2022 1:45:00 AM 5.92 42.656 0.464 7.7 401.3 11.11
1/13/2022 2:00:00 AM 5.92 42.656 0.464 7.7 377.2 11.12
1/13/2022 2:15:00 AM 5.91 42.638 0.464 7.68 421.7 11.11
1/13/2022 2:30:00 AM 5.9 42.62 0.464 7.68 435.1 11.11
1/13/2022 2:45:00 AM 5.89 42.602 0.464 7.68 431.7 11.11
1/13/2022 3:00:00 AM 5.88 42.584 0.464 7.69 366.4 11.09
1/13/2022 3:15:00 AM 5.86 42.548 0.464 7.68 527.9 11.1
1/13/2022 3:30:00 AM 5.85 42.53 0.465 7.68 448.6 11.1
1/13/2022 3:45:00 AM 5.84 42.512 0.465 7.7 417.8 11.11
1/13/2022 4:00:00 AM 5.83 42.494 0.465 7.68 387.1 11.12
1/13/2022 4:15:00 AM 5.81 42.458 0.421 7.67 386.3 11.11
1/13/2022 4:30:00 AM 5.79 42.422 0.438 7.67 382 11.11
1/13/2022 4:45:00 AM 5.77 42.386 0.419 7.67 406.8 11.13
1/13/2022 5:00:00 AM 5.75 42.35 0.466 7.67 403.2 11.13
1/13/2022 5:15:00 AM 5.72 42.296 0.466 7.67 385.3 11.12
1/13/2022 5:30:00 AM 5.69 42.242 0.466 7.69 383.9 11.15
1/13/2022 5:45:00 AM 5.64 42.152 0.466 7.67 508.9 11.16
1/13/2022 6:00:00 AM 5.61 42.098 0.466 7.67 480.7 11.18
1/13/2022 6:15:00 AM 5.57 42.026 0.466 7.67 368.1 11.16
1/13/2022 6:30:00 AM 5.54 41.972 0.466 7.67 389.7 11.2
1/13/2022 6:45:00 AM 5.51 41.918 0.466 7.67 388.7 11.2
1/13/2022 7:00:00 AM 5.48 41.864 0.466 7.67 403.5 11.21
1/13/2022 7:15:00 AM 5.45 41.81 0.467 7.67 421.5 11.2
1/13/2022 7:30:00 AM 5.43 41.774 0.467 7.67 381.5 11.23
1/13/2022 7:45:00 AM 5.41 41.738 0.466 7.67 392.3 11.26
1/13/2022 8:00:00 AM 5.39 41.702 0.466 7.67 392.2 11.29
1/13/2022 8:15:00 AM 5.37 41.666 0.466 7.68 431.2 11.35
1/13/2022 8:30:00 AM 5.36 41.648 0.466 7.68 408 11.42
1/13/2022 8:45:00 AM 5.35 41.63 0.466 7.69 429 11.53
1/13/2022 9:00:00 AM 5.36 41.648 0.467 7.69 420.1 11.63
1/13/2022 9:15:00 AM 5.38 41.684 0.467 7.7 522.1 11.73
1/13/2022 9:30:00 AM 5.41 41.738 0.466 7.7 459.8 11.84
1/13/2022 9:45:00 AM 5.44 41.792 0.467 7.71 520 11.92
1/13/2022 10:00:00 AM 5.49 41.882 0.466 7.72 409.8 12.05
1/13/2022 10:15:00 AM 5.53 41.954 0.466 7.73 409 12.12
1/13/2022 10:30:00 AM 5.58 42.044 0.466 7.74 401.9 12.24
1/13/2022 10:45:00 AM 5.66 42.188 0.466 7.75 421.8 12.33
1/13/2022 11:00:00 AM 5.73 42.314 0.466 7.75 425.8 12.46
1/13/2022 11:15:00 AM 5.81 42.458 0.465 7.76 482.1 12.54
1/13/2022 11:30:00 AM 5.88 42.584 0.466 7.76 420.7 12.61
1/13/2022 11:45:00 AM 5.96 42.728 0.465 7.77 428.7 12.67
1/13/2022 12:00:00 PM 6.05 42.89 0.465 7.79 423.2 12.72
1/13/2022 12:15:00 PM 6.17 43.106 0.465 7.8 429.1 12.81
1/13/2022 12:30:00 PM 6.24 43.232 0.465 7.8 413.6 12.8
1/13/2022 12:45:00 PM 6.35 43.43 0.464 7.8 407.1 12.85
1/13/2022 1:00:00 PM 6.47 43.646 0.464 7.81 438.4 12.93
1/13/2022 1:15:00 PM 6.51 43.718 0.464 7.82 422.6 12.91
1/13/2022 1:30:00 PM 6.6 43.88 0.464 7.82 414.7 12.94
1/13/2022 1:45:00 PM 6.69 44.042 0.464 7.83 430.6 12.99
1/13/2022 2:00:00 PM 6.72 44.096 0.463 7.84 452 12.94
1/13/2022 2:15:00 PM 6.78 44.204 0.463 7.84 429.2 12.94
1/13/2022 2:30:00 PM 6.83 44.294 0.463 7.85 412 12.91
1/13/2022 2:45:00 PM 6.89 44.402 0.463 7.86 434.6 12.9
1/13/2022 3:00:00 PM 6.96 44.528 0.463 7.85 410.1 12.89
1/13/2022 3:15:00 PM 7.01 44.618 0.462 7.86 401.6 12.83
1/13/2022 3:30:00 PM 7.06 44.708 0.462 7.87 435.9 12.77
1/13/2022 3:45:00 PM 7.11 44.798 0.463 7.86 423.9 12.69
1/13/2022 4:00:00 PM 7.14 44.852 0.463 7.85 415.7 12.57
1/13/2022 4:15:00 PM 7.17 44.906 0.463 7.86 425.9 12.45
1/13/2022 4:30:00 PM 7.19 44.942 0.464 7.86 392.2 12.32
1/13/2022 4:45:00 PM 7.21 44.978 0.464 7.84 387.6 12.19
1/13/2022 5:00:00 PM 7.22 44.996 0.463 7.84 386.6 12.04
1/13/2022 5:15:00 PM 7.24 45.032 0.464 7.84 403 11.93
1/13/2022 5:30:00 PM 7.25 45.05 0.464 7.82 398 11.81
1/13/2022 5:45:00 PM 7.26 45.068 0.464 7.81 406.2 11.71
1/13/2022 6:00:00 PM 7.28 45.104 0.464 7.81 391 11.61
1/13/2022 6:15:00 PM 7.29 45.122 0.464 7.8 425 11.53
1/13/2022 6:30:00 PM 7.3 45.14 0.462 7.8 423.8 11.44
1/13/2022 6:45:00 PM 7.31 45.158 0.46 7.8 412.1 11.37
1/13/2022 7:00:00 PM 7.32 45.176 0.463 7.79 434 11.31
1/13/2022 7:15:00 PM 7.32 45.176 0.462 7.8 430.7 11.24
1/13/2022 7:30:00 PM 7.31 45.158 0.462 7.79 393.3 11.19
1/13/2022 7:45:00 PM 7.31 45.158 0.461 7.78 400.1 11.15
1/13/2022 8:00:00 PM 7.31 45.158 0.46 7.77 408.3 11.11
1/13/2022 8:15:00 PM 7.31 45.158 0.46 7.77 385.3 11.06
1/13/2022 8:30:00 PM 7.3 45.14 0.459 7.76 392.5 11.02
1/13/2022 8:45:00 PM 7.29 45.122 0.458 7.78 446.1 10.98
1/13/2022 9:00:00 PM 7.26 45.068 0.457 7.76 449.4 10.94
1/13/2022 9:15:00 PM 7.25 45.05 0.458 7.75 439.4 10.92
1/13/2022 9:30:00 PM 7.23 45.014 0.457 7.75 475 10.87
1/13/2022 9:45:00 PM 7.22 44.996 0.457 7.75 389.9 10.85
1/13/2022 10:00:00 PM 7.2 44.96 0.456 7.75 427.4 10.84
1/13/2022 10:15:00 PM 7.18 44.924 0.457 7.73 391.1 10.8
1/13/2022 10:30:00 PM 7.16 44.888 0.457 7.74 392.7 10.78
1/13/2022 10:45:00 PM 7.14 44.852 0.457 7.73 394.6 10.74
1/13/2022 11:00:00 PM 7.12 44.816 0.457 7.72 391.6 10.72
1/13/2022 11:15:00 PM 7.11 44.798 0.457 7.72 392.5 10.71
1/13/2022 11:30:00 PM 7.09 44.762 0.457 7.72 386.7 10.7
1/13/2022 11:45:00 PM 7.08 44.744 0.457 7.72 372.6 10.68
1/14/2022 12:00:00 AM 7.06 44.708 0.457 7.7 411.9 10.66
1/14/2022 12:15:00 AM 7.05 44.69 0.456 7.71 415.8 10.65
1/14/2022 12:30:00 AM 7.03 44.654 0.457 7.7 396.2 10.65
1/14/2022 12:45:00 AM 7.01 44.618 0.457 7.7 376.7 10.64
1/14/2022 1:00:00 AM 7 44.6 0.457 7.7 385.1 10.64
1/14/2022 1:15:00 AM 6.98 44.564 0.457 7.69 380.8 10.64
1/14/2022 1:30:00 AM 6.97 44.546 0.457 7.68 399.8 10.64
1/14/2022 1:45:00 AM 6.95 44.51 0.457 7.68 341 10.62
1/14/2022 2:00:00 AM 6.93 44.474 0.458 7.68 348.5 10.64
1/14/2022 2:15:00 AM 6.92 44.456 0.458 7.68 359.2 10.63
1/14/2022 2:30:00 AM 6.9 44.42 0.459 7.67 380.8 10.64
1/14/2022 2:45:00 AM 6.88 44.384 0.459 7.67 355 10.64
1/14/2022 3:00:00 AM 6.87 44.366 0.459 7.67 450 10.64
1/14/2022 3:15:00 AM 6.85 44.33 0.459 7.68 353.5 10.64
1/14/2022 3:30:00 AM 6.83 44.294 0.459 7.68 368.1 10.66
1/14/2022 3:45:00 AM 6.81 44.258 0.459 7.66 370.4 10.66
1/14/2022 4:00:00 AM 6.79 44.222 0.459 7.67 396 10.68
1/14/2022 4:15:00 AM 6.77 44.186 0.46 7.68 353.7 10.68
1/14/2022 4:30:00 AM 6.76 44.168 0.46 7.67 372.5 10.68
1/14/2022 4:45:00 AM 6.73 44.114 0.46 7.67 380.7 10.69
1/14/2022 5:00:00 AM 6.71 44.078 0.46 7.67 451 10.71
1/14/2022 5:15:00 AM 6.7 44.06 0.461 7.68 417.7 10.69
1/14/2022 5:30:00 AM 6.68 44.024 0.461 7.68 396.5 10.72
1/14/2022 5:45:00 AM 6.66 43.988 0.461 7.66 405.4 10.72
1/14/2022 6:00:00 AM 6.65 43.97 0.461 7.66 387.5 10.73
1/14/2022 6:15:00 AM 6.63 43.934 0.46 7.67 411.7 10.74
1/14/2022 6:30:00 AM 6.61 43.898 0.46 7.67 426.4 10.75
1/14/2022 6:45:00 AM 6.6 43.88 0.46 7.66 409.1 10.75
1/14/2022 7:00:00 AM 6.59 43.862 0.46 7.66 453.9 10.77
1/14/2022 7:15:00 AM 6.58 43.844 0.46 7.67 430.5 10.77
1/14/2022 7:30:00 AM 6.57 43.826 0.46 7.67 420.3 10.78
1/14/2022 7:45:00 AM 6.56 43.808 0.46 7.66 420.9 10.8
1/14/2022 8:00:00 AM 6.55 43.79 0.461 7.66 372.6 10.8
1/14/2022 8:15:00 AM 6.53 43.754 0.461 7.67 393 10.83
1/14/2022 8:30:00 AM 6.52 43.736 0.46 7.67 360.6 10.85
1/14/2022 8:45:00 AM 6.51 43.718 0.46 7.67 360 10.87
1/14/2022 9:00:00 AM 6.5 43.7 0.46 7.67 396.8 10.92
1/14/2022 9:15:00 AM 6.49 43.682 0.46 7.67 362.1 10.93
1/14/2022 9:30:00 AM 6.48 43.664 0.427 7.69 367.3 11
1/14/2022 9:45:00 AM 6.48 43.664 0.402 7.68 366.8 11.1
1/14/2022 10:00:00 AM 6.49 43.682 0.419 7.7 377.9 11.18
1/14/2022 10:15:00 AM 6.49 43.682 0.444 7.7 383.8 11.23
1/14/2022 10:30:00 AM 6.48 43.664 0.436 7.7 370.8 11.26
1/14/2022 10:45:00 AM 6.49 43.682 0.442 7.7 370.7 11.31
1/14/2022 11:00:00 AM 6.5 43.7 0.459 7.71 383.5 11.37
1/14/2022 11:15:00 AM 6.51 43.718 0.455 7.71 380.6 11.45
1/14/2022 11:30:00 AM 6.53 43.754 0.451 7.72 360.9 11.51
1/14/2022 11:45:00 AM 6.53 43.754 0.456 7.73 419.3 11.57
1/14/2022 12:00:00 PM 6.55 43.79 0.46 7.73 360.2 11.63
1/14/2022 12:15:00 PM 6.56 43.808 0.46 7.73 368.5 11.7
1/14/2022 12:30:00 PM 6.57 43.826 0.412 7.74 375.1 11.76
1/14/2022 12:45:00 PM 6.59 43.862 0.436 7.75 387.5 11.82
1/14/2022 1:00:00 PM 6.6 43.88 0.453 7.76 370.5 11.86
1/14/2022 1:15:00 PM 6.62 43.916 0.461 7.76 360.8 11.91
1/14/2022 1:30:00 PM 6.63 43.934 0.461 7.76 355 11.95
1/14/2022 1:45:00 PM 6.63 43.934 0.461 7.77 424.7 11.96
1/14/2022 2:00:00 PM 6.61 43.898 0.461 7.77 383.8 11.97
1/14/2022 2:15:00 PM 6.6 43.88 0.461 7.77 386.5 11.99
1/14/2022 2:30:00 PM 6.59 43.862 0.461 7.78 364.1 12.02
1/14/2022 2:45:00 PM 6.58 43.844 0.461 7.78 438 12.02
1/14/2022 3:00:00 PM 6.58 43.844 0.46 7.78 375.6 12.04
1/14/2022 3:15:00 PM 6.57 43.826 0.46 7.78 390.9 12.03
1/14/2022 3:30:00 PM 6.55 43.79 0.46 7.78 380.8 12
1/14/2022 3:45:00 PM 6.54 43.772 0.46 7.79 377.5 11.92
1/14/2022 4:00:00 PM 6.51 43.718 0.46 7.79 354.5 11.88
1/14/2022 4:15:00 PM 6.48 43.664 0.429 7.78 375.5 11.83
1/14/2022 4:30:00 PM 6.46 43.628 0.46 7.77 362.2 11.76
1/14/2022 4:45:00 PM 6.43 43.574 0.46 7.77 405.3 11.71
1/14/2022 5:00:00 PM 6.39 43.502 0.46 7.77 404.2 11.67
1/14/2022 5:15:00 PM 6.36 43.448 0.46 7.77 404.8 11.64
1/14/2022 5:30:00 PM 6.33 43.394 0.46 7.77 379.1 11.58
1/14/2022 5:45:00 PM 6.28 43.304 0.46 7.76 377 11.54
1/14/2022 6:00:00 PM 6.24 43.232 0.46 7.75 378.7 11.51
1/14/2022 6:15:00 PM 6.2 43.16 0.459 7.75 371.8 11.47
1/14/2022 6:30:00 PM 6.16 43.088 0.459 7.75 388 11.45
1/14/2022 6:45:00 PM 6.13 43.034 0.459 7.75 403 11.44
1/14/2022 7:00:00 PM 6.09 42.962 0.459 7.74 369.7 11.42
1/14/2022 7:15:00 PM 6.05 42.89 0.459 7.74 426.8 11.4
1/14/2022 7:30:00 PM 5.99 42.782 0.459 7.74 377.1 11.38
1/14/2022 7:45:00 PM 5.92 42.656 0.459 7.74 364.1 11.38
1/14/2022 8:00:00 PM 5.86 42.548 0.458 7.74 363.5 11.38
1/14/2022 8:15:00 PM 5.79 42.422 0.458 7.73 381.2 11.37
1/14/2022 8:30:00 PM 5.74 42.332 0.458 7.73 391 11.37
1/14/2022 8:45:00 PM 5.68 42.224 0.455 7.73 385.9 11.35
1/14/2022 9:00:00 PM 5.61 42.098 0.454 7.74 370.8 11.35
1/14/2022 9:15:00 PM 5.53 41.954 0.458 7.73 368.3 11.36
1/14/2022 9:30:00 PM 5.44 41.792 0.458 7.73 367.1 11.37
1/14/2022 9:45:00 PM 5.37 41.666 0.458 7.73 358 11.37
1/14/2022 10:00:00 PM 5.29 41.522 0.456 7.73 370 11.4
1/14/2022 10:15:00 PM 5.22 41.396 0.458 7.73 384.8 11.42
1/14/2022 10:30:00 PM 5.13 41.234 0.459 7.75 364.2 11.44
1/14/2022 10:45:00 PM 5.07 41.126 0.459 7.73 371.1 11.45
1/14/2022 11:00:00 PM 5.01 41.018 0.459 7.73 407.4 11.45
1/14/2022 11:15:00 PM 4.93 40.874 0.459 7.72 398.4 11.48
1/14/2022 11:30:00 PM 4.83 40.694 0.459 7.73 383.6 11.5
1/14/2022 11:45:00 PM 4.77 40.586 0.46 7.73 359.5 11.51
1/15/2022 12:00:00 AM 4.69 40.442 0.46 7.72 362.4 11.54
1/15/2022 12:15:00 AM 4.62 40.316 0.46 7.73 369.9 11.57
1/15/2022 12:30:00 AM 4.54 40.172 0.46 7.72 364.7 11.59
1/15/2022 12:45:00 AM 4.46 40.028 0.46 7.72 372.8 11.59
1/15/2022 1:00:00 AM 4.38 39.884 0.461 7.72 360.5 11.62
1/15/2022 1:15:00 AM 4.3 39.74 0.461 7.72 390.3 11.66
1/15/2022 1:30:00 AM 4.22 39.596 0.462 7.71 388 11.69
1/15/2022 1:45:00 AM 4.15 39.47 0.462 7.72 388.9 11.71
1/15/2022 2:00:00 AM 4.09 39.362 0.463 7.72 397 11.73
1/15/2022 2:15:00 AM 4.02 39.236 0.463 7.72 380.1 11.77
1/15/2022 2:30:00 AM 3.95 39.11 0.464 7.72 396.6 11.8
1/15/2022 2:45:00 AM 3.89 39.002 0.464 7.71 371.4 11.82
1/15/2022 3:00:00 AM 3.81 38.858 0.464 7.71 364.8 11.85
1/15/2022 3:15:00 AM 3.73 38.714 0.465 7.71 348 11.87
1/15/2022 3:30:00 AM 3.66 38.588 0.465 7.73 348.5 11.89
1/15/2022 3:45:00 AM 3.59 38.462 0.465 7.71 357.9 11.92
1/15/2022 4:00:00 AM 3.52 38.336 0.465 7.71 344.4 11.95
1/15/2022 4:15:00 AM 3.44 38.192 0.465 7.72 345.9 11.99
1/15/2022 4:30:00 AM 3.38 38.084 0.465 7.71 340 12.02
1/15/2022 4:45:00 AM 3.31 37.958 0.466 7.71 396.6 12.05
1/15/2022 5:00:00 AM 3.24 37.832 0.466 7.71 374.7 12.07
1/15/2022 5:15:00 AM 3.16 37.688 0.467 7.71 335.5 12.11
1/15/2022 5:30:00 AM 3.08 37.544 0.467 7.72 353 12.14
1/15/2022 5:45:00 AM 3.01 37.418 0.468 7.72 337.6 12.19
1/15/2022 6:00:00 AM 2.94 37.292 0.468 7.72 333.8 12.22
1/15/2022 6:15:00 AM 2.88 37.184 0.469 7.72 370.5 12.22
1/15/2022 6:30:00 AM 2.83 37.094 0.47 7.72 374 12.28
1/15/2022 6:45:00 AM 2.79 37.022 0.471 7.71 369.1 12.29
1/15/2022 7:00:00 AM 2.74 36.932 0.472 7.72 386.6 12.31
1/15/2022 7:15:00 AM 2.69 36.842 0.472 7.71 399.4 12.34
1/15/2022 7:30:00 AM 2.65 36.77 0.473 7.71 329.5 12.38
1/15/2022 7:45:00 AM 2.6 36.68 0.474 7.71 334.7 12.42
1/15/2022 8:00:00 AM 2.56 36.608 0.475 7.74 330 12.46
1/15/2022 8:15:00 AM 2.52 36.536 0.475 7.72 328 12.56
1/15/2022 8:30:00 AM 2.48 36.464 0.476 7.73 329 12.65
1/15/2022 8:45:00 AM 2.45 36.41 0.476 7.74 372.5 12.76
1/15/2022 9:00:00 AM 2.42 36.356 0.477 7.73 379.3 12.87
1/15/2022 9:15:00 AM 2.42 36.356 0.478 7.74 328.2 13
1/15/2022 9:30:00 AM 2.44 36.392 0.478 7.76 323.8 13.15
1/15/2022 9:45:00 AM 2.47 36.446 0.479 7.78 321.2 13.26
1/15/2022 10:00:00 AM 2.51 36.518 0.479 7.78 341 13.38
1/15/2022 10:15:00 AM 2.57 36.626 0.479 7.78 343.2 13.49
1/15/2022 10:30:00 AM 2.62 36.716 0.48 7.79 353.5 13.58
1/15/2022 10:45:00 AM 2.67 36.806 0.48 7.79 323.8 13.68
1/15/2022 11:00:00 AM 2.74 36.932 0.48 7.79 326.4 13.78
1/15/2022 11:15:00 AM 2.81 37.058 0.48 7.81 330.7 13.86
1/15/2022 11:30:00 AM 2.86 37.148 0.48 7.82 324 13.91
1/15/2022 11:45:00 AM 2.92 37.256 0.48 7.82 317 13.96
1/15/2022 12:00:00 PM 2.96 37.328 0.48 7.82 339.5 13.95
1/15/2022 12:15:00 PM 3.01 37.418 0.48 7.82 337.8 14.03
1/15/2022 12:30:00 PM 3.07 37.526 0.481 7.83 339.2 14.05
1/15/2022 12:45:00 PM 3.14 37.652 0.481 7.84 324.7 14.09
1/15/2022 1:00:00 PM 3.21 37.778 0.481 7.85 327.8 14.14
1/15/2022 1:15:00 PM 3.28 37.904 0.481 7.85 350.2 14.12
1/15/2022 1:30:00 PM 3.35 38.03 0.48 7.87 345.8 14.16
1/15/2022 1:45:00 PM 3.4 38.12 0.48 7.86 395.7 14.19
1/15/2022 2:00:00 PM 3.46 38.228 0.48 7.86 343.1 14.2
1/15/2022 2:15:00 PM 3.49 38.282 0.479 7.87 324 14.18
1/15/2022 2:30:00 PM 3.53 38.354 0.478 7.87 316.8 14.17
1/15/2022 2:45:00 PM 3.59 38.462 0.477 7.89 328.3 14.2
1/15/2022 3:00:00 PM 3.62 38.516 0.476 7.89 313.2 14.14
1/15/2022 3:15:00 PM 3.65 38.57 0.474 7.89 328.1 14.12
1/15/2022 3:30:00 PM 3.67 38.606 0.473 7.9 340.8 14.08
1/15/2022 3:45:00 PM 3.67 38.606 0.471 7.89 305.8 14.04
1/15/2022 4:00:00 PM 3.65 38.57 0.469 7.89 299.4 13.96
1/15/2022 4:15:00 PM 3.61 38.498 0.467 7.87 304.5 13.88
1/15/2022 4:30:00 PM 3.57 38.426 0.466 7.87 310.2 13.8
1/15/2022 4:45:00 PM 3.53 38.354 0.465 7.87 315.2 13.71
1/15/2022 5:00:00 PM 3.49 38.282 0.465 7.86 326 13.6
1/15/2022 5:15:00 PM 3.46 38.228 0.464 7.86 308.7 13.5
1/15/2022 5:30:00 PM 3.43 38.174 0.464 7.87 311.5 13.38
1/15/2022 5:45:00 PM 3.39 38.102 0.464 7.85 320.1 13.32
1/15/2022 6:00:00 PM 3.37 38.066 0.465 7.84 326.7 13.22
1/15/2022 6:15:00 PM 3.33 37.994 0.465 7.83 318.6 13.16
1/15/2022 6:30:00 PM 3.31 37.958 0.466 7.83 337.5 13.09
1/15/2022 6:45:00 PM 3.29 37.922 0.466 7.83 308.2 13.02
1/15/2022 7:00:00 PM 3.26 37.868 0.467 7.82 312.7 12.98
1/15/2022 7:15:00 PM 3.24 37.832 0.467 7.82 327 12.93
1/15/2022 7:30:00 PM 3.22 37.796 0.467 7.81 303.8 12.89
1/15/2022 7:45:00 PM 3.2 37.76 0.468 7.82 305.3 12.84
1/15/2022 8:00:00 PM 3.17 37.706 0.468 7.8 300.3 12.8
1/15/2022 8:15:00 PM 3.14 37.652 0.468 7.8 328.9 12.77
1/15/2022 8:30:00 PM 3.12 37.616 0.468 7.8 298.7 12.74
1/15/2022 8:45:00 PM 3.09 37.562 0.468 7.8 308.7 12.71
1/15/2022 9:00:00 PM 3.06 37.508 0.468 7.8 368 12.69
1/15/2022 9:15:00 PM 3.03 37.454 0.468 7.79 316.7 12.67
1/15/2022 9:30:00 PM 2.99 37.382 0.468 7.79 340.8 12.65
1/15/2022 9:45:00 PM 2.96 37.328 0.468 7.8 331.2 12.59
1/15/2022 10:00:00 PM 2.93 37.274 0.468 7.8 321.3 12.6
1/15/2022 10:15:00 PM 2.9 37.22 0.468 7.79 331.9 12.59
1/15/2022 10:30:00 PM 2.87 37.166 0.468 7.79 336.8 12.57
1/15/2022 10:45:00 PM 2.84 37.112 0.468 7.79 317 12.57
1/15/2022 11:00:00 PM 2.81 37.058 0.468 7.77 318.4 12.56
1/15/2022 11:15:00 PM 2.77 36.986 0.469 7.77 353.4 12.56
1/15/2022 11:30:00 PM 2.74 36.932 0.469 7.79 353.4 12.54
1/15/2022 11:45:00 PM 2.7 36.86 0.47 7.77 330.4 12.55
1/16/2022 12:00:00 AM 2.66 36.788 0.47 7.77 326.8 12.54
1/16/2022 12:15:00 AM 2.62 36.716 0.471 7.76 348.1 12.53
1/16/2022 12:30:00 AM 2.58 36.644 0.471 7.76 322.5 12.54
1/16/2022 12:45:00 AM 2.55 36.59 0.472 7.76 326.8 12.53
1/16/2022 1:00:00 AM 2.51 36.518 0.473 7.76 325.3 12.54
1/16/2022 1:15:00 AM 2.47 36.446 0.474 7.76 314.2 12.54
1/16/2022 1:30:00 AM 2.41 36.338 0.475 7.76 342.6 12.54
1/16/2022 1:45:00 AM 2.36 36.248 0.475 7.74 338.6 12.55
1/16/2022 2:00:00 AM 2.33 36.194 0.476 7.75 342.3 12.57
1/16/2022 2:15:00 AM 2.3 36.14 0.477 7.75 314.3 12.57
1/16/2022 2:30:00 AM 2.27 36.086 0.478 7.75 320.2 12.58
1/16/2022 2:45:00 AM 2.23 36.014 0.479 7.74 322.8 12.58
1/16/2022 3:00:00 AM 2.2 35.96 0.48 7.74 342.9 12.59
1/16/2022 3:15:00 AM 2.16 35.888 0.481 7.75 391.4 12.6
1/16/2022 3:30:00 AM 2.12 35.816 0.482 7.74 319.1 12.61
1/16/2022 3:45:00 AM 2.08 35.744 0.483 7.74 316.6 12.61
1/16/2022 4:00:00 AM 2.04 35.672 0.484 7.73 335.4 12.63
1/16/2022 4:15:00 AM 2 35.6 0.485 7.73 308.7 12.64
1/16/2022 4:30:00 AM 1.97 35.546 0.486 7.73 322.7 12.65
1/16/2022 4:45:00 AM 1.93 35.474 0.487 7.73 304.6 12.66
1/16/2022 5:00:00 AM 1.9 35.42 0.488 7.73 307.9 12.68
1/16/2022 5:15:00 AM 1.87 35.366 0.488 7.73 310.6 12.69
1/16/2022 5:30:00 AM 1.83 35.294 0.489 7.74 320.5 12.71
1/16/2022 5:45:00 AM 1.8 35.24 0.489 7.74 364.9 12.72
1/16/2022 6:00:00 AM 1.77 35.186 0.49 7.74 370 12.74
1/16/2022 6:15:00 AM 1.73 35.114 0.49 7.74 376.4 12.74
1/16/2022 6:30:00 AM 1.7 35.06 0.491 7.74 386.5 12.77
1/16/2022 6:45:00 AM 1.67 35.006 0.491 7.73 400.5 12.8
1/16/2022 7:00:00 AM 1.64 34.952 0.491 7.72 410 12.8
1/16/2022 7:15:00 AM 1.6 34.88 0.492 7.73 440.4 12.81
1/16/2022 7:30:00 AM 1.58 34.844 0.492 7.75 414.8 12.82
1/16/2022 7:45:00 AM 1.56 34.808 0.492 7.73 395.4 12.87
1/16/2022 8:00:00 AM 1.53 34.754 0.493 7.73 396.2 12.92
1/16/2022 8:15:00 AM 1.52 34.736 0.493 7.74 389.7 12.99
1/16/2022 8:30:00 AM 1.5 34.7 0.493 7.74 405.6 13.05
1/16/2022 8:45:00 AM 1.5 34.7 0.493 7.75 405.1 13.14
1/16/2022 9:00:00 AM 1.5 34.7 0.493 7.76 389.7 13.26
1/16/2022 9:15:00 AM 1.52 34.736 0.493 7.76 393.5